<?xml version="1.0" encoding="UTF-8" standalone="no" ?>
<gpx xmlns="http://www.topografix.com/GPX/1/1" xmlns:xsi="http://www.w3.org/2001/XMLSchema-instance" xsi:schemaLocation="http://www.topografix.com/GPX/1/1 http://www.topografix.com/GPX/1/1/gpx.xsd" version="1.1" creator="VisuGPX - https://www.visugpx.com">
  <metadata>
    <name>sortie abos/arbus</name>
    <desc><![CDATA[belle sortie sous le soleil avec des super passages]]></desc>
  </metadata>
  <trk>
    <name><![CDATA[Tracé actuel: 19 FEV 2017 08:09]]></name>
    <trkseg>
      <trkpt lat="43.35225" lon="-0.55322">
        <ele>127.03</ele>
        <time>2017-02-19T07:09:48Z</time>
      </trkpt>
      <trkpt lat="43.35226" lon="-0.55326">
        <ele>128.47</ele>
        <time>2017-02-19T07:10:14Z</time>
      </trkpt>
      <trkpt lat="43.35224" lon="-0.55321">
        <ele>126.55</ele>
        <time>2017-02-19T07:10:28Z</time>
      </trkpt>
      <trkpt lat="43.35223" lon="-0.55265">
        <ele>127.03</ele>
        <time>2017-02-19T07:10:45Z</time>
      </trkpt>
      <trkpt lat="43.35204" lon="-0.55204">
        <ele>126.55</ele>
        <time>2017-02-19T07:11:00Z</time>
      </trkpt>
      <trkpt lat="43.35181" lon="-0.55167">
        <ele>125.59</ele>
        <time>2017-02-19T07:11:13Z</time>
      </trkpt>
      <trkpt lat="43.35178" lon="-0.55164">
        <ele>124.63</ele>
        <time>2017-02-19T07:11:28Z</time>
      </trkpt>
      <trkpt lat="43.35166" lon="-0.55144">
        <ele>127.51</ele>
        <time>2017-02-19T07:11:39Z</time>
      </trkpt>
      <trkpt lat="43.35124" lon="-0.55115">
        <ele>129.92</ele>
        <time>2017-02-19T07:11:53Z</time>
      </trkpt>
      <trkpt lat="43.35077" lon="-0.5509">
        <ele>127.99</ele>
        <time>2017-02-19T07:12:05Z</time>
      </trkpt>
      <trkpt lat="43.35045" lon="-0.55074">
        <ele>125.59</ele>
        <time>2017-02-19T07:12:13Z</time>
      </trkpt>
      <trkpt lat="43.34999" lon="-0.55024">
        <ele>125.59</ele>
        <time>2017-02-19T07:12:27Z</time>
      </trkpt>
      <trkpt lat="43.34962" lon="-0.54964">
        <ele>127.51</ele>
        <time>2017-02-19T07:12:41Z</time>
      </trkpt>
      <trkpt lat="43.34939" lon="-0.54924">
        <ele>130.4</ele>
        <time>2017-02-19T07:12:53Z</time>
      </trkpt>
      <trkpt lat="43.34893" lon="-0.54897">
        <ele>130.4</ele>
        <time>2017-02-19T07:13:06Z</time>
      </trkpt>
      <trkpt lat="43.34888" lon="-0.54896">
        <ele>130.4</ele>
        <time>2017-02-19T07:13:07Z</time>
      </trkpt>
      <trkpt lat="43.34851" lon="-0.54887">
        <ele>129.92</ele>
        <time>2017-02-19T07:13:15Z</time>
      </trkpt>
      <trkpt lat="43.34847" lon="-0.54884">
        <ele>130.4</ele>
        <time>2017-02-19T07:13:16Z</time>
      </trkpt>
      <trkpt lat="43.3484" lon="-0.54877">
        <ele>129.43</ele>
        <time>2017-02-19T07:13:18Z</time>
      </trkpt>
      <trkpt lat="43.34829" lon="-0.54856">
        <ele>128.47</ele>
        <time>2017-02-19T07:13:22Z</time>
      </trkpt>
      <trkpt lat="43.34828" lon="-0.54849">
        <ele>128.47</ele>
        <time>2017-02-19T07:13:23Z</time>
      </trkpt>
      <trkpt lat="43.34828" lon="-0.54842">
        <ele>128.47</ele>
        <time>2017-02-19T07:13:24Z</time>
      </trkpt>
      <trkpt lat="43.34828" lon="-0.54837">
        <ele>128.47</ele>
        <time>2017-02-19T07:13:25Z</time>
      </trkpt>
      <trkpt lat="43.34829" lon="-0.54831">
        <ele>128.47</ele>
        <time>2017-02-19T07:13:26Z</time>
      </trkpt>
      <trkpt lat="43.3483" lon="-0.54826">
        <ele>128.47</ele>
        <time>2017-02-19T07:13:27Z</time>
      </trkpt>
      <trkpt lat="43.34847" lon="-0.54791">
        <ele>130.4</ele>
        <time>2017-02-19T07:13:37Z</time>
      </trkpt>
      <trkpt lat="43.34876" lon="-0.54767">
        <ele>134.72</ele>
        <time>2017-02-19T07:13:50Z</time>
      </trkpt>
      <trkpt lat="43.34898" lon="-0.54738">
        <ele>139.05</ele>
        <time>2017-02-19T07:14:05Z</time>
      </trkpt>
      <trkpt lat="43.34913" lon="-0.54698">
        <ele>139.05</ele>
        <time>2017-02-19T07:14:20Z</time>
      </trkpt>
      <trkpt lat="43.34915" lon="-0.54694">
        <ele>140.49</ele>
        <time>2017-02-19T07:14:30Z</time>
      </trkpt>
      <trkpt lat="43.34918" lon="-0.54691">
        <ele>140.01</ele>
        <time>2017-02-19T07:14:39Z</time>
      </trkpt>
      <trkpt lat="43.34919" lon="-0.54689">
        <ele>140.49</ele>
        <time>2017-02-19T07:14:40Z</time>
      </trkpt>
      <trkpt lat="43.3492" lon="-0.54687">
        <ele>140.97</ele>
        <time>2017-02-19T07:14:41Z</time>
      </trkpt>
      <trkpt lat="43.34937" lon="-0.54644">
        <ele>147.7</ele>
        <time>2017-02-19T07:14:57Z</time>
      </trkpt>
      <trkpt lat="43.3496" lon="-0.54634">
        <ele>151.54</ele>
        <time>2017-02-19T07:15:13Z</time>
      </trkpt>
      <trkpt lat="43.34961" lon="-0.54633">
        <ele>151.54</ele>
        <time>2017-02-19T07:15:14Z</time>
      </trkpt>
      <trkpt lat="43.34984" lon="-0.54637">
        <ele>152.51</ele>
        <time>2017-02-19T07:15:31Z</time>
      </trkpt>
      <trkpt lat="43.35007" lon="-0.54642">
        <ele>153.95</ele>
        <time>2017-02-19T07:15:47Z</time>
      </trkpt>
      <trkpt lat="43.3503" lon="-0.54648">
        <ele>155.87</ele>
        <time>2017-02-19T07:16:03Z</time>
      </trkpt>
      <trkpt lat="43.35038" lon="-0.54649">
        <ele>156.35</ele>
        <time>2017-02-19T07:16:08Z</time>
      </trkpt>
      <trkpt lat="43.3504" lon="-0.54649">
        <ele>155.87</ele>
        <time>2017-02-19T07:16:09Z</time>
      </trkpt>
      <trkpt lat="43.35042" lon="-0.54649">
        <ele>155.87</ele>
        <time>2017-02-19T07:16:10Z</time>
      </trkpt>
      <trkpt lat="43.35071" lon="-0.54652">
        <ele>158.27</ele>
        <time>2017-02-19T07:16:27Z</time>
      </trkpt>
      <trkpt lat="43.35093" lon="-0.54658">
        <ele>160.68</ele>
        <time>2017-02-19T07:16:43Z</time>
      </trkpt>
      <trkpt lat="43.35111" lon="-0.54639">
        <ele>163.08</ele>
        <time>2017-02-19T07:16:55Z</time>
      </trkpt>
      <trkpt lat="43.35136" lon="-0.54624">
        <ele>166.93</ele>
        <time>2017-02-19T07:17:08Z</time>
      </trkpt>
      <trkpt lat="43.3516" lon="-0.54604">
        <ele>170.29</ele>
        <time>2017-02-19T07:17:22Z</time>
      </trkpt>
      <trkpt lat="43.35166" lon="-0.54587">
        <ele>172.69</ele>
        <time>2017-02-19T07:17:30Z</time>
      </trkpt>
      <trkpt lat="43.35167" lon="-0.54586">
        <ele>173.17</ele>
        <time>2017-02-19T07:17:31Z</time>
      </trkpt>
      <trkpt lat="43.35168" lon="-0.54584">
        <ele>173.17</ele>
        <time>2017-02-19T07:17:32Z</time>
      </trkpt>
      <trkpt lat="43.35167" lon="-0.54581">
        <ele>173.17</ele>
        <time>2017-02-19T07:17:33Z</time>
      </trkpt>
      <trkpt lat="43.35167" lon="-0.5458">
        <ele>173.17</ele>
        <time>2017-02-19T07:17:34Z</time>
      </trkpt>
      <trkpt lat="43.35167" lon="-0.54578">
        <ele>173.66</ele>
        <time>2017-02-19T07:17:35Z</time>
      </trkpt>
      <trkpt lat="43.35167" lon="-0.54576">
        <ele>174.14</ele>
        <time>2017-02-19T07:17:36Z</time>
      </trkpt>
      <trkpt lat="43.35167" lon="-0.54574">
        <ele>174.62</ele>
        <time>2017-02-19T07:17:37Z</time>
      </trkpt>
      <trkpt lat="43.35167" lon="-0.54572">
        <ele>175.1</ele>
        <time>2017-02-19T07:17:38Z</time>
      </trkpt>
      <trkpt lat="43.35168" lon="-0.5457">
        <ele>175.1</ele>
        <time>2017-02-19T07:17:39Z</time>
      </trkpt>
      <trkpt lat="43.35168" lon="-0.54568">
        <ele>175.1</ele>
        <time>2017-02-19T07:17:40Z</time>
      </trkpt>
      <trkpt lat="43.35168" lon="-0.54553">
        <ele>174.62</ele>
        <time>2017-02-19T07:17:46Z</time>
      </trkpt>
      <trkpt lat="43.35168" lon="-0.5455">
        <ele>174.62</ele>
        <time>2017-02-19T07:17:47Z</time>
      </trkpt>
      <trkpt lat="43.35168" lon="-0.54548">
        <ele>174.62</ele>
        <time>2017-02-19T07:17:48Z</time>
      </trkpt>
      <trkpt lat="43.35168" lon="-0.54546">
        <ele>174.62</ele>
        <time>2017-02-19T07:17:49Z</time>
      </trkpt>
      <trkpt lat="43.35168" lon="-0.54543">
        <ele>174.62</ele>
        <time>2017-02-19T07:17:50Z</time>
      </trkpt>
      <trkpt lat="43.35168" lon="-0.54541">
        <ele>174.62</ele>
        <time>2017-02-19T07:17:51Z</time>
      </trkpt>
      <trkpt lat="43.35168" lon="-0.54539">
        <ele>175.1</ele>
        <time>2017-02-19T07:17:52Z</time>
      </trkpt>
      <trkpt lat="43.35168" lon="-0.54537">
        <ele>175.1</ele>
        <time>2017-02-19T07:17:53Z</time>
      </trkpt>
      <trkpt lat="43.35168" lon="-0.54535">
        <ele>175.1</ele>
        <time>2017-02-19T07:17:54Z</time>
      </trkpt>
      <trkpt lat="43.3517" lon="-0.54504">
        <ele>176.54</ele>
        <time>2017-02-19T07:18:10Z</time>
      </trkpt>
      <trkpt lat="43.35168" lon="-0.54481">
        <ele>178.94</ele>
        <time>2017-02-19T07:18:23Z</time>
      </trkpt>
      <trkpt lat="43.35168" lon="-0.5448">
        <ele>178.94</ele>
        <time>2017-02-19T07:18:24Z</time>
      </trkpt>
      <trkpt lat="43.35168" lon="-0.54478">
        <ele>178.94</ele>
        <time>2017-02-19T07:18:25Z</time>
      </trkpt>
      <trkpt lat="43.35169" lon="-0.54476">
        <ele>178.94</ele>
        <time>2017-02-19T07:18:26Z</time>
      </trkpt>
      <trkpt lat="43.35169" lon="-0.54475">
        <ele>179.42</ele>
        <time>2017-02-19T07:18:27Z</time>
      </trkpt>
      <trkpt lat="43.35169" lon="-0.54473">
        <ele>179.42</ele>
        <time>2017-02-19T07:18:28Z</time>
      </trkpt>
      <trkpt lat="43.35169" lon="-0.54471">
        <ele>179.42</ele>
        <time>2017-02-19T07:18:29Z</time>
      </trkpt>
      <trkpt lat="43.3517" lon="-0.54469">
        <ele>179.9</ele>
        <time>2017-02-19T07:18:30Z</time>
      </trkpt>
      <trkpt lat="43.3517" lon="-0.54468">
        <ele>179.9</ele>
        <time>2017-02-19T07:18:31Z</time>
      </trkpt>
      <trkpt lat="43.3518" lon="-0.54432">
        <ele>181.83</ele>
        <time>2017-02-19T07:18:48Z</time>
      </trkpt>
      <trkpt lat="43.35192" lon="-0.54361">
        <ele>180.38</ele>
        <time>2017-02-19T07:19:05Z</time>
      </trkpt>
      <trkpt lat="43.35202" lon="-0.54321">
        <ele>178.94</ele>
        <time>2017-02-19T07:19:13Z</time>
      </trkpt>
      <trkpt lat="43.35203" lon="-0.54315">
        <ele>178.94</ele>
        <time>2017-02-19T07:19:14Z</time>
      </trkpt>
      <trkpt lat="43.35203" lon="-0.54309">
        <ele>178.46</ele>
        <time>2017-02-19T07:19:15Z</time>
      </trkpt>
      <trkpt lat="43.35203" lon="-0.54303">
        <ele>178.46</ele>
        <time>2017-02-19T07:19:16Z</time>
      </trkpt>
      <trkpt lat="43.35202" lon="-0.54297">
        <ele>178.46</ele>
        <time>2017-02-19T07:19:17Z</time>
      </trkpt>
      <trkpt lat="43.3519" lon="-0.54243">
        <ele>181.35</ele>
        <time>2017-02-19T07:19:30Z</time>
      </trkpt>
      <trkpt lat="43.35177" lon="-0.54202">
        <ele>182.79</ele>
        <time>2017-02-19T07:19:43Z</time>
      </trkpt>
      <trkpt lat="43.35171" lon="-0.54165">
        <ele>185.67</ele>
        <time>2017-02-19T07:19:59Z</time>
      </trkpt>
      <trkpt lat="43.35178" lon="-0.54134">
        <ele>189.52</ele>
        <time>2017-02-19T07:20:15Z</time>
      </trkpt>
      <trkpt lat="43.35189" lon="-0.54097">
        <ele>192.88</ele>
        <time>2017-02-19T07:20:34Z</time>
      </trkpt>
      <trkpt lat="43.35193" lon="-0.54079">
        <ele>195.28</ele>
        <time>2017-02-19T07:20:45Z</time>
      </trkpt>
      <trkpt lat="43.35193" lon="-0.54078">
        <ele>195.77</ele>
        <time>2017-02-19T07:20:46Z</time>
      </trkpt>
      <trkpt lat="43.35193" lon="-0.54077">
        <ele>196.25</ele>
        <time>2017-02-19T07:20:47Z</time>
      </trkpt>
      <trkpt lat="43.35183" lon="-0.54058">
        <ele>199.61</ele>
        <time>2017-02-19T07:21:01Z</time>
      </trkpt>
      <trkpt lat="43.35164" lon="-0.54046">
        <ele>199.61</ele>
        <time>2017-02-19T07:21:14Z</time>
      </trkpt>
      <trkpt lat="43.35139" lon="-0.54035">
        <ele>201.05</ele>
        <time>2017-02-19T07:21:28Z</time>
      </trkpt>
      <trkpt lat="43.35106" lon="-0.54019">
        <ele>202.98</ele>
        <time>2017-02-19T07:21:42Z</time>
      </trkpt>
      <trkpt lat="43.35105" lon="-0.54016">
        <ele>203.46</ele>
        <time>2017-02-19T07:21:43Z</time>
      </trkpt>
      <trkpt lat="43.35103" lon="-0.54013">
        <ele>203.94</ele>
        <time>2017-02-19T07:21:44Z</time>
      </trkpt>
      <trkpt lat="43.35101" lon="-0.54009">
        <ele>203.94</ele>
        <time>2017-02-19T07:21:45Z</time>
      </trkpt>
      <trkpt lat="43.35099" lon="-0.54005">
        <ele>204.42</ele>
        <time>2017-02-19T07:21:46Z</time>
      </trkpt>
      <trkpt lat="43.35097" lon="-0.54001">
        <ele>204.9</ele>
        <time>2017-02-19T07:21:47Z</time>
      </trkpt>
      <trkpt lat="43.35079" lon="-0.53964">
        <ele>206.82</ele>
        <time>2017-02-19T07:21:54Z</time>
      </trkpt>
      <trkpt lat="43.35077" lon="-0.53956">
        <ele>206.82</ele>
        <time>2017-02-19T07:21:55Z</time>
      </trkpt>
      <trkpt lat="43.35076" lon="-0.53949">
        <ele>206.82</ele>
        <time>2017-02-19T07:21:56Z</time>
      </trkpt>
      <trkpt lat="43.35075" lon="-0.53906">
        <ele>205.38</ele>
        <time>2017-02-19T07:22:02Z</time>
      </trkpt>
      <trkpt lat="43.35075" lon="-0.53892">
        <ele>204.42</ele>
        <time>2017-02-19T07:22:04Z</time>
      </trkpt>
      <trkpt lat="43.35075" lon="-0.53884">
        <ele>203.94</ele>
        <time>2017-02-19T07:22:05Z</time>
      </trkpt>
      <trkpt lat="43.35068" lon="-0.53828">
        <ele>199.13</ele>
        <time>2017-02-19T07:22:14Z</time>
      </trkpt>
      <trkpt lat="43.35067" lon="-0.53821">
        <ele>198.65</ele>
        <time>2017-02-19T07:22:15Z</time>
      </trkpt>
      <trkpt lat="43.3505" lon="-0.53746">
        <ele>190.96</ele>
        <time>2017-02-19T07:22:26Z</time>
      </trkpt>
      <trkpt lat="43.35039" lon="-0.53723">
        <ele>190</ele>
        <time>2017-02-19T07:22:31Z</time>
      </trkpt>
      <trkpt lat="43.35036" lon="-0.53722">
        <ele>189.04</ele>
        <time>2017-02-19T07:22:32Z</time>
      </trkpt>
      <trkpt lat="43.35033" lon="-0.53722">
        <ele>188.56</ele>
        <time>2017-02-19T07:22:33Z</time>
      </trkpt>
      <trkpt lat="43.35031" lon="-0.53723">
        <ele>188.56</ele>
        <time>2017-02-19T07:22:34Z</time>
      </trkpt>
      <trkpt lat="43.35029" lon="-0.53724">
        <ele>186.63</ele>
        <time>2017-02-19T07:22:46Z</time>
      </trkpt>
      <trkpt lat="43.35023" lon="-0.5373">
        <ele>184.23</ele>
        <time>2017-02-19T07:23:14Z</time>
      </trkpt>
      <trkpt lat="43.34988" lon="-0.53768">
        <ele>177.5</ele>
        <time>2017-02-19T07:23:22Z</time>
      </trkpt>
      <trkpt lat="43.34976" lon="-0.53783">
        <ele>173.66</ele>
        <time>2017-02-19T07:23:26Z</time>
      </trkpt>
      <trkpt lat="43.34973" lon="-0.53789">
        <ele>172.69</ele>
        <time>2017-02-19T07:23:27Z</time>
      </trkpt>
      <trkpt lat="43.34971" lon="-0.53796">
        <ele>171.73</ele>
        <time>2017-02-19T07:23:28Z</time>
      </trkpt>
      <trkpt lat="43.34969" lon="-0.53805">
        <ele>171.25</ele>
        <time>2017-02-19T07:23:29Z</time>
      </trkpt>
      <trkpt lat="43.3497" lon="-0.53813">
        <ele>170.29</ele>
        <time>2017-02-19T07:23:30Z</time>
      </trkpt>
      <trkpt lat="43.34971" lon="-0.53823">
        <ele>169.33</ele>
        <time>2017-02-19T07:23:31Z</time>
      </trkpt>
      <trkpt lat="43.34972" lon="-0.53841">
        <ele>168.85</ele>
        <time>2017-02-19T07:23:33Z</time>
      </trkpt>
      <trkpt lat="43.34976" lon="-0.53912">
        <ele>169.81</ele>
        <time>2017-02-19T07:23:43Z</time>
      </trkpt>
      <trkpt lat="43.34982" lon="-0.53933">
        <ele>170.77</ele>
        <time>2017-02-19T07:23:46Z</time>
      </trkpt>
      <trkpt lat="43.35002" lon="-0.54009">
        <ele>171.73</ele>
        <time>2017-02-19T07:23:57Z</time>
      </trkpt>
      <trkpt lat="43.35003" lon="-0.54018">
        <ele>171.25</ele>
        <time>2017-02-19T07:23:58Z</time>
      </trkpt>
      <trkpt lat="43.35003" lon="-0.54027">
        <ele>171.25</ele>
        <time>2017-02-19T07:23:59Z</time>
      </trkpt>
      <trkpt lat="43.35002" lon="-0.54036">
        <ele>171.25</ele>
        <time>2017-02-19T07:24:00Z</time>
      </trkpt>
      <trkpt lat="43.34999" lon="-0.54044">
        <ele>171.25</ele>
        <time>2017-02-19T07:24:01Z</time>
      </trkpt>
      <trkpt lat="43.34997" lon="-0.54053">
        <ele>171.73</ele>
        <time>2017-02-19T07:24:02Z</time>
      </trkpt>
      <trkpt lat="43.34995" lon="-0.54062">
        <ele>171.73</ele>
        <time>2017-02-19T07:24:03Z</time>
      </trkpt>
      <trkpt lat="43.34993" lon="-0.5407">
        <ele>171.73</ele>
        <time>2017-02-19T07:24:04Z</time>
      </trkpt>
      <trkpt lat="43.34992" lon="-0.54079">
        <ele>171.73</ele>
        <time>2017-02-19T07:24:05Z</time>
      </trkpt>
      <trkpt lat="43.3499" lon="-0.5415">
        <ele>171.73</ele>
        <time>2017-02-19T07:24:13Z</time>
      </trkpt>
      <trkpt lat="43.34992" lon="-0.54159">
        <ele>171.73</ele>
        <time>2017-02-19T07:24:14Z</time>
      </trkpt>
      <trkpt lat="43.34994" lon="-0.54167">
        <ele>171.73</ele>
        <time>2017-02-19T07:24:15Z</time>
      </trkpt>
      <trkpt lat="43.35007" lon="-0.5421">
        <ele>170.29</ele>
        <time>2017-02-19T07:24:20Z</time>
      </trkpt>
      <trkpt lat="43.35008" lon="-0.54219">
        <ele>169.81</ele>
        <time>2017-02-19T07:24:21Z</time>
      </trkpt>
      <trkpt lat="43.35008" lon="-0.54228">
        <ele>168.85</ele>
        <time>2017-02-19T07:24:22Z</time>
      </trkpt>
      <trkpt lat="43.35006" lon="-0.54236">
        <ele>167.89</ele>
        <time>2017-02-19T07:24:23Z</time>
      </trkpt>
      <trkpt lat="43.35002" lon="-0.54242">
        <ele>166.93</ele>
        <time>2017-02-19T07:24:24Z</time>
      </trkpt>
      <trkpt lat="43.34997" lon="-0.54249">
        <ele>165.96</ele>
        <time>2017-02-19T07:24:25Z</time>
      </trkpt>
      <trkpt lat="43.34991" lon="-0.54256">
        <ele>165</ele>
        <time>2017-02-19T07:24:26Z</time>
      </trkpt>
      <trkpt lat="43.34913" lon="-0.54356">
        <ele>155.87</ele>
        <time>2017-02-19T07:24:37Z</time>
      </trkpt>
      <trkpt lat="43.34906" lon="-0.54363">
        <ele>155.39</ele>
        <time>2017-02-19T07:24:38Z</time>
      </trkpt>
      <trkpt lat="43.34899" lon="-0.54368">
        <ele>155.39</ele>
        <time>2017-02-19T07:24:39Z</time>
      </trkpt>
      <trkpt lat="43.34893" lon="-0.54371">
        <ele>155.39</ele>
        <time>2017-02-19T07:24:40Z</time>
      </trkpt>
      <trkpt lat="43.34885" lon="-0.54372">
        <ele>154.91</ele>
        <time>2017-02-19T07:24:41Z</time>
      </trkpt>
      <trkpt lat="43.34877" lon="-0.54374">
        <ele>154.43</ele>
        <time>2017-02-19T07:24:42Z</time>
      </trkpt>
      <trkpt lat="43.3487" lon="-0.54376">
        <ele>153.95</ele>
        <time>2017-02-19T07:24:43Z</time>
      </trkpt>
      <trkpt lat="43.34862" lon="-0.5438">
        <ele>153.47</ele>
        <time>2017-02-19T07:24:44Z</time>
      </trkpt>
      <trkpt lat="43.34855" lon="-0.54385">
        <ele>152.99</ele>
        <time>2017-02-19T07:24:45Z</time>
      </trkpt>
      <trkpt lat="43.34848" lon="-0.54392">
        <ele>152.51</ele>
        <time>2017-02-19T07:24:46Z</time>
      </trkpt>
      <trkpt lat="43.34788" lon="-0.54462">
        <ele>148.18</ele>
        <time>2017-02-19T07:24:55Z</time>
      </trkpt>
      <trkpt lat="43.34781" lon="-0.54469">
        <ele>147.22</ele>
        <time>2017-02-19T07:24:56Z</time>
      </trkpt>
      <trkpt lat="43.34697" lon="-0.54567">
        <ele>138.57</ele>
        <time>2017-02-19T07:25:07Z</time>
      </trkpt>
      <trkpt lat="43.34662" lon="-0.54609">
        <ele>135.2</ele>
        <time>2017-02-19T07:25:14Z</time>
      </trkpt>
      <trkpt lat="43.34655" lon="-0.5462">
        <ele>133.76</ele>
        <time>2017-02-19T07:25:17Z</time>
      </trkpt>
      <trkpt lat="43.34653" lon="-0.5462">
        <ele>133.76</ele>
        <time>2017-02-19T07:25:18Z</time>
      </trkpt>
      <trkpt lat="43.34651" lon="-0.54619">
        <ele>133.76</ele>
        <time>2017-02-19T07:25:19Z</time>
      </trkpt>
      <trkpt lat="43.3465" lon="-0.54617">
        <ele>133.76</ele>
        <time>2017-02-19T07:25:20Z</time>
      </trkpt>
      <trkpt lat="43.3465" lon="-0.54614">
        <ele>133.76</ele>
        <time>2017-02-19T07:25:21Z</time>
      </trkpt>
      <trkpt lat="43.3465" lon="-0.54611">
        <ele>133.76</ele>
        <time>2017-02-19T07:25:22Z</time>
      </trkpt>
      <trkpt lat="43.34661" lon="-0.54559">
        <ele>134.24</ele>
        <time>2017-02-19T07:25:32Z</time>
      </trkpt>
      <trkpt lat="43.34663" lon="-0.54545">
        <ele>134.72</ele>
        <time>2017-02-19T07:25:34Z</time>
      </trkpt>
      <trkpt lat="43.34664" lon="-0.54538">
        <ele>134.72</ele>
        <time>2017-02-19T07:25:35Z</time>
      </trkpt>
      <trkpt lat="43.34667" lon="-0.54518">
        <ele>134.72</ele>
        <time>2017-02-19T07:25:38Z</time>
      </trkpt>
      <trkpt lat="43.34675" lon="-0.54465">
        <ele>132.8</ele>
        <time>2017-02-19T07:25:45Z</time>
      </trkpt>
      <trkpt lat="43.34676" lon="-0.54457">
        <ele>131.84</ele>
        <time>2017-02-19T07:25:46Z</time>
      </trkpt>
      <trkpt lat="43.34678" lon="-0.54449">
        <ele>131.36</ele>
        <time>2017-02-19T07:25:47Z</time>
      </trkpt>
      <trkpt lat="43.34683" lon="-0.5442">
        <ele>130.4</ele>
        <time>2017-02-19T07:25:51Z</time>
      </trkpt>
      <trkpt lat="43.34683" lon="-0.54413">
        <ele>130.4</ele>
        <time>2017-02-19T07:25:52Z</time>
      </trkpt>
      <trkpt lat="43.34682" lon="-0.54407">
        <ele>130.4</ele>
        <time>2017-02-19T07:25:53Z</time>
      </trkpt>
      <trkpt lat="43.3468" lon="-0.54401">
        <ele>130.4</ele>
        <time>2017-02-19T07:25:54Z</time>
      </trkpt>
      <trkpt lat="43.34679" lon="-0.54395">
        <ele>130.4</ele>
        <time>2017-02-19T07:25:55Z</time>
      </trkpt>
      <trkpt lat="43.34679" lon="-0.54389">
        <ele>130.88</ele>
        <time>2017-02-19T07:25:56Z</time>
      </trkpt>
      <trkpt lat="43.3468" lon="-0.54383">
        <ele>130.88</ele>
        <time>2017-02-19T07:25:57Z</time>
      </trkpt>
      <trkpt lat="43.34681" lon="-0.54378">
        <ele>130.88</ele>
        <time>2017-02-19T07:25:58Z</time>
      </trkpt>
      <trkpt lat="43.34686" lon="-0.5435">
        <ele>131.84</ele>
        <time>2017-02-19T07:26:08Z</time>
      </trkpt>
      <trkpt lat="43.34694" lon="-0.54316">
        <ele>134.72</ele>
        <time>2017-02-19T07:26:23Z</time>
      </trkpt>
      <trkpt lat="43.34699" lon="-0.54284">
        <ele>138.57</ele>
        <time>2017-02-19T07:26:38Z</time>
      </trkpt>
      <trkpt lat="43.347" lon="-0.54275">
        <ele>141.45</ele>
        <time>2017-02-19T07:26:43Z</time>
      </trkpt>
      <trkpt lat="43.347" lon="-0.54273">
        <ele>141.93</ele>
        <time>2017-02-19T07:26:44Z</time>
      </trkpt>
      <trkpt lat="43.347" lon="-0.54271">
        <ele>142.41</ele>
        <time>2017-02-19T07:26:45Z</time>
      </trkpt>
      <trkpt lat="43.34702" lon="-0.54265">
        <ele>143.37</ele>
        <time>2017-02-19T07:26:49Z</time>
      </trkpt>
      <trkpt lat="43.34703" lon="-0.54263">
        <ele>143.85</ele>
        <time>2017-02-19T07:26:50Z</time>
      </trkpt>
      <trkpt lat="43.34704" lon="-0.54261">
        <ele>144.34</ele>
        <time>2017-02-19T07:26:51Z</time>
      </trkpt>
      <trkpt lat="43.34704" lon="-0.54259">
        <ele>145.3</ele>
        <time>2017-02-19T07:26:52Z</time>
      </trkpt>
      <trkpt lat="43.34705" lon="-0.54257">
        <ele>146.26</ele>
        <time>2017-02-19T07:26:53Z</time>
      </trkpt>
      <trkpt lat="43.34705" lon="-0.54255">
        <ele>147.22</ele>
        <time>2017-02-19T07:26:54Z</time>
      </trkpt>
      <trkpt lat="43.34706" lon="-0.54253">
        <ele>147.7</ele>
        <time>2017-02-19T07:26:55Z</time>
      </trkpt>
      <trkpt lat="43.34706" lon="-0.54251">
        <ele>147.7</ele>
        <time>2017-02-19T07:26:56Z</time>
      </trkpt>
      <trkpt lat="43.34707" lon="-0.54249">
        <ele>147.7</ele>
        <time>2017-02-19T07:26:57Z</time>
      </trkpt>
      <trkpt lat="43.34707" lon="-0.54246">
        <ele>148.18</ele>
        <time>2017-02-19T07:26:58Z</time>
      </trkpt>
      <trkpt lat="43.3471" lon="-0.54228">
        <ele>149.14</ele>
        <time>2017-02-19T07:27:06Z</time>
      </trkpt>
      <trkpt lat="43.3471" lon="-0.54226">
        <ele>149.14</ele>
        <time>2017-02-19T07:27:07Z</time>
      </trkpt>
      <trkpt lat="43.34711" lon="-0.54224">
        <ele>149.62</ele>
        <time>2017-02-19T07:27:08Z</time>
      </trkpt>
      <trkpt lat="43.3471" lon="-0.54214">
        <ele>151.06</ele>
        <time>2017-02-19T07:27:13Z</time>
      </trkpt>
      <trkpt lat="43.34709" lon="-0.54213">
        <ele>151.54</ele>
        <time>2017-02-19T07:27:14Z</time>
      </trkpt>
      <trkpt lat="43.34708" lon="-0.54212">
        <ele>152.03</ele>
        <time>2017-02-19T07:27:15Z</time>
      </trkpt>
      <trkpt lat="43.34707" lon="-0.54211">
        <ele>152.51</ele>
        <time>2017-02-19T07:27:16Z</time>
      </trkpt>
      <trkpt lat="43.34706" lon="-0.54211">
        <ele>152.51</ele>
        <time>2017-02-19T07:27:17Z</time>
      </trkpt>
      <trkpt lat="43.34704" lon="-0.5421">
        <ele>152.51</ele>
        <time>2017-02-19T07:27:18Z</time>
      </trkpt>
      <trkpt lat="43.34703" lon="-0.54211">
        <ele>152.99</ele>
        <time>2017-02-19T07:27:19Z</time>
      </trkpt>
      <trkpt lat="43.34702" lon="-0.54211">
        <ele>153.47</ele>
        <time>2017-02-19T07:27:20Z</time>
      </trkpt>
      <trkpt lat="43.347" lon="-0.54212">
        <ele>154.43</ele>
        <time>2017-02-19T07:27:21Z</time>
      </trkpt>
      <trkpt lat="43.34699" lon="-0.54212">
        <ele>154.91</ele>
        <time>2017-02-19T07:27:22Z</time>
      </trkpt>
      <trkpt lat="43.34697" lon="-0.54213">
        <ele>155.87</ele>
        <time>2017-02-19T07:27:23Z</time>
      </trkpt>
      <trkpt lat="43.34696" lon="-0.54214">
        <ele>156.35</ele>
        <time>2017-02-19T07:27:24Z</time>
      </trkpt>
      <trkpt lat="43.34694" lon="-0.54215">
        <ele>156.35</ele>
        <time>2017-02-19T07:27:25Z</time>
      </trkpt>
      <trkpt lat="43.34693" lon="-0.54216">
        <ele>157.31</ele>
        <time>2017-02-19T07:27:26Z</time>
      </trkpt>
      <trkpt lat="43.34691" lon="-0.54217">
        <ele>158.27</ele>
        <time>2017-02-19T07:27:27Z</time>
      </trkpt>
      <trkpt lat="43.34672" lon="-0.54225">
        <ele>162.12</ele>
        <time>2017-02-19T07:27:39Z</time>
      </trkpt>
      <trkpt lat="43.34669" lon="-0.54226">
        <ele>162.12</ele>
        <time>2017-02-19T07:27:41Z</time>
      </trkpt>
      <trkpt lat="43.34668" lon="-0.54227">
        <ele>162.12</ele>
        <time>2017-02-19T07:27:42Z</time>
      </trkpt>
      <trkpt lat="43.34667" lon="-0.54227">
        <ele>162.6</ele>
        <time>2017-02-19T07:27:43Z</time>
      </trkpt>
      <trkpt lat="43.34646" lon="-0.54237">
        <ele>166.45</ele>
        <time>2017-02-19T07:27:57Z</time>
      </trkpt>
      <trkpt lat="43.34622" lon="-0.54246">
        <ele>172.69</ele>
        <time>2017-02-19T07:28:15Z</time>
      </trkpt>
      <trkpt lat="43.34599" lon="-0.54254">
        <ele>177.02</ele>
        <time>2017-02-19T07:28:30Z</time>
      </trkpt>
      <trkpt lat="43.34572" lon="-0.54249">
        <ele>174.14</ele>
        <time>2017-02-19T07:28:44Z</time>
      </trkpt>
      <trkpt lat="43.34556" lon="-0.5424">
        <ele>174.62</ele>
        <time>2017-02-19T07:28:57Z</time>
      </trkpt>
      <trkpt lat="43.34556" lon="-0.54242">
        <ele>170.77</ele>
        <time>2017-02-19T07:29:37Z</time>
      </trkpt>
      <trkpt lat="43.34551" lon="-0.54238">
        <ele>170.29</ele>
        <time>2017-02-19T07:29:57Z</time>
      </trkpt>
      <trkpt lat="43.34551" lon="-0.54234">
        <ele>170.77</ele>
        <time>2017-02-19T07:30:03Z</time>
      </trkpt>
      <trkpt lat="43.34552" lon="-0.54232">
        <ele>170.77</ele>
        <time>2017-02-19T07:30:04Z</time>
      </trkpt>
      <trkpt lat="43.34552" lon="-0.5423">
        <ele>170.77</ele>
        <time>2017-02-19T07:30:05Z</time>
      </trkpt>
      <trkpt lat="43.34567" lon="-0.54201">
        <ele>170.29</ele>
        <time>2017-02-19T07:30:21Z</time>
      </trkpt>
      <trkpt lat="43.34576" lon="-0.54191">
        <ele>168.85</ele>
        <time>2017-02-19T07:30:28Z</time>
      </trkpt>
      <trkpt lat="43.34577" lon="-0.54189">
        <ele>168.85</ele>
        <time>2017-02-19T07:30:29Z</time>
      </trkpt>
      <trkpt lat="43.34582" lon="-0.54179">
        <ele>167.89</ele>
        <time>2017-02-19T07:30:34Z</time>
      </trkpt>
      <trkpt lat="43.34582" lon="-0.54174">
        <ele>168.37</ele>
        <time>2017-02-19T07:30:37Z</time>
      </trkpt>
      <trkpt lat="43.34581" lon="-0.54171">
        <ele>168.85</ele>
        <time>2017-02-19T07:30:38Z</time>
      </trkpt>
      <trkpt lat="43.3458" lon="-0.54169">
        <ele>169.33</ele>
        <time>2017-02-19T07:30:39Z</time>
      </trkpt>
      <trkpt lat="43.34578" lon="-0.54167">
        <ele>169.81</ele>
        <time>2017-02-19T07:30:40Z</time>
      </trkpt>
      <trkpt lat="43.34577" lon="-0.54165">
        <ele>170.29</ele>
        <time>2017-02-19T07:30:41Z</time>
      </trkpt>
      <trkpt lat="43.34559" lon="-0.54147">
        <ele>174.62</ele>
        <time>2017-02-19T07:30:52Z</time>
      </trkpt>
      <trkpt lat="43.34535" lon="-0.54132">
        <ele>179.9</ele>
        <time>2017-02-19T07:31:04Z</time>
      </trkpt>
      <trkpt lat="43.34507" lon="-0.54121">
        <ele>182.79</ele>
        <time>2017-02-19T07:31:15Z</time>
      </trkpt>
      <trkpt lat="43.34487" lon="-0.54107">
        <ele>190.48</ele>
        <time>2017-02-19T07:31:26Z</time>
      </trkpt>
      <trkpt lat="43.34467" lon="-0.5409">
        <ele>194.8</ele>
        <time>2017-02-19T07:31:38Z</time>
      </trkpt>
      <trkpt lat="43.34466" lon="-0.54088">
        <ele>195.28</ele>
        <time>2017-02-19T07:31:39Z</time>
      </trkpt>
      <trkpt lat="43.34465" lon="-0.54086">
        <ele>195.77</ele>
        <time>2017-02-19T07:31:40Z</time>
      </trkpt>
      <trkpt lat="43.34463" lon="-0.54082">
        <ele>196.25</ele>
        <time>2017-02-19T07:31:42Z</time>
      </trkpt>
      <trkpt lat="43.34463" lon="-0.5408">
        <ele>196.25</ele>
        <time>2017-02-19T07:31:43Z</time>
      </trkpt>
      <trkpt lat="43.34475" lon="-0.54067">
        <ele>194.8</ele>
        <time>2017-02-19T07:31:56Z</time>
      </trkpt>
      <trkpt lat="43.34495" lon="-0.5405">
        <ele>191.92</ele>
        <time>2017-02-19T07:32:12Z</time>
      </trkpt>
      <trkpt lat="43.34511" lon="-0.54033">
        <ele>190.48</ele>
        <time>2017-02-19T07:32:26Z</time>
      </trkpt>
      <trkpt lat="43.3452" lon="-0.54015">
        <ele>191.92</ele>
        <time>2017-02-19T07:32:38Z</time>
      </trkpt>
      <trkpt lat="43.34528" lon="-0.53998">
        <ele>195.77</ele>
        <time>2017-02-19T07:32:46Z</time>
      </trkpt>
      <trkpt lat="43.3453" lon="-0.53989">
        <ele>198.17</ele>
        <time>2017-02-19T07:32:50Z</time>
      </trkpt>
      <trkpt lat="43.34532" lon="-0.53955">
        <ele>200.57</ele>
        <time>2017-02-19T07:33:06Z</time>
      </trkpt>
      <trkpt lat="43.34529" lon="-0.53932">
        <ele>203.94</ele>
        <time>2017-02-19T07:33:20Z</time>
      </trkpt>
      <trkpt lat="43.34523" lon="-0.53903">
        <ele>206.82</ele>
        <time>2017-02-19T07:33:36Z</time>
      </trkpt>
      <trkpt lat="43.34516" lon="-0.53861">
        <ele>206.82</ele>
        <time>2017-02-19T07:33:53Z</time>
      </trkpt>
      <trkpt lat="43.34516" lon="-0.53858">
        <ele>206.34</ele>
        <time>2017-02-19T07:33:54Z</time>
      </trkpt>
      <trkpt lat="43.34515" lon="-0.53847">
        <ele>207.3</ele>
        <time>2017-02-19T07:33:58Z</time>
      </trkpt>
      <trkpt lat="43.34516" lon="-0.53844">
        <ele>207.3</ele>
        <time>2017-02-19T07:33:59Z</time>
      </trkpt>
      <trkpt lat="43.34517" lon="-0.53841">
        <ele>207.78</ele>
        <time>2017-02-19T07:34:00Z</time>
      </trkpt>
      <trkpt lat="43.34518" lon="-0.53838">
        <ele>207.78</ele>
        <time>2017-02-19T07:34:01Z</time>
      </trkpt>
      <trkpt lat="43.34519" lon="-0.53835">
        <ele>207.78</ele>
        <time>2017-02-19T07:34:02Z</time>
      </trkpt>
      <trkpt lat="43.34519" lon="-0.53833">
        <ele>207.78</ele>
        <time>2017-02-19T07:34:03Z</time>
      </trkpt>
      <trkpt lat="43.3452" lon="-0.5383">
        <ele>207.78</ele>
        <time>2017-02-19T07:34:04Z</time>
      </trkpt>
      <trkpt lat="43.3453" lon="-0.53784">
        <ele>206.34</ele>
        <time>2017-02-19T07:34:17Z</time>
      </trkpt>
      <trkpt lat="43.34532" lon="-0.53742">
        <ele>207.78</ele>
        <time>2017-02-19T07:34:29Z</time>
      </trkpt>
      <trkpt lat="43.34537" lon="-0.53711">
        <ele>209.22</ele>
        <time>2017-02-19T07:34:39Z</time>
      </trkpt>
      <trkpt lat="43.34537" lon="-0.53707">
        <ele>209.22</ele>
        <time>2017-02-19T07:34:40Z</time>
      </trkpt>
      <trkpt lat="43.34538" lon="-0.53704">
        <ele>208.74</ele>
        <time>2017-02-19T07:34:41Z</time>
      </trkpt>
      <trkpt lat="43.34539" lon="-0.53701">
        <ele>208.26</ele>
        <time>2017-02-19T07:34:42Z</time>
      </trkpt>
      <trkpt lat="43.34539" lon="-0.53698">
        <ele>207.78</ele>
        <time>2017-02-19T07:34:43Z</time>
      </trkpt>
      <trkpt lat="43.3454" lon="-0.53695">
        <ele>207.3</ele>
        <time>2017-02-19T07:34:44Z</time>
      </trkpt>
      <trkpt lat="43.34541" lon="-0.53692">
        <ele>207.3</ele>
        <time>2017-02-19T07:34:45Z</time>
      </trkpt>
      <trkpt lat="43.34541" lon="-0.53689">
        <ele>206.82</ele>
        <time>2017-02-19T07:34:46Z</time>
      </trkpt>
      <trkpt lat="43.34541" lon="-0.53686">
        <ele>206.34</ele>
        <time>2017-02-19T07:34:47Z</time>
      </trkpt>
      <trkpt lat="43.34542" lon="-0.53683">
        <ele>206.34</ele>
        <time>2017-02-19T07:34:48Z</time>
      </trkpt>
      <trkpt lat="43.34542" lon="-0.5368">
        <ele>205.38</ele>
        <time>2017-02-19T07:34:49Z</time>
      </trkpt>
      <trkpt lat="43.34543" lon="-0.53678">
        <ele>204.9</ele>
        <time>2017-02-19T07:34:50Z</time>
      </trkpt>
      <trkpt lat="43.34543" lon="-0.53675">
        <ele>204.42</ele>
        <time>2017-02-19T07:34:51Z</time>
      </trkpt>
      <trkpt lat="43.34543" lon="-0.53671">
        <ele>204.42</ele>
        <time>2017-02-19T07:34:52Z</time>
      </trkpt>
      <trkpt lat="43.34543" lon="-0.53668">
        <ele>203.94</ele>
        <time>2017-02-19T07:34:53Z</time>
      </trkpt>
      <trkpt lat="43.34543" lon="-0.53664">
        <ele>203.94</ele>
        <time>2017-02-19T07:34:54Z</time>
      </trkpt>
      <trkpt lat="43.34544" lon="-0.53661">
        <ele>203.94</ele>
        <time>2017-02-19T07:34:55Z</time>
      </trkpt>
      <trkpt lat="43.34544" lon="-0.53658">
        <ele>203.94</ele>
        <time>2017-02-19T07:34:56Z</time>
      </trkpt>
      <trkpt lat="43.34544" lon="-0.53654">
        <ele>203.94</ele>
        <time>2017-02-19T07:34:57Z</time>
      </trkpt>
      <trkpt lat="43.34546" lon="-0.53611">
        <ele>205.86</ele>
        <time>2017-02-19T07:35:08Z</time>
      </trkpt>
      <trkpt lat="43.34549" lon="-0.53546">
        <ele>201.05</ele>
        <time>2017-02-19T07:35:20Z</time>
      </trkpt>
      <trkpt lat="43.3454" lon="-0.53488">
        <ele>198.17</ele>
        <time>2017-02-19T07:35:30Z</time>
      </trkpt>
      <trkpt lat="43.34522" lon="-0.53446">
        <ele>198.65</ele>
        <time>2017-02-19T07:35:38Z</time>
      </trkpt>
      <trkpt lat="43.34506" lon="-0.53398">
        <ele>204.9</ele>
        <time>2017-02-19T07:35:49Z</time>
      </trkpt>
      <trkpt lat="43.34506" lon="-0.53395">
        <ele>205.38</ele>
        <time>2017-02-19T07:35:50Z</time>
      </trkpt>
      <trkpt lat="43.34506" lon="-0.53392">
        <ele>205.86</ele>
        <time>2017-02-19T07:35:51Z</time>
      </trkpt>
      <trkpt lat="43.34506" lon="-0.53389">
        <ele>206.34</ele>
        <time>2017-02-19T07:35:52Z</time>
      </trkpt>
      <trkpt lat="43.34505" lon="-0.53386">
        <ele>206.82</ele>
        <time>2017-02-19T07:35:53Z</time>
      </trkpt>
      <trkpt lat="43.34504" lon="-0.53384">
        <ele>207.3</ele>
        <time>2017-02-19T07:35:54Z</time>
      </trkpt>
      <trkpt lat="43.34504" lon="-0.53381">
        <ele>207.78</ele>
        <time>2017-02-19T07:35:55Z</time>
      </trkpt>
      <trkpt lat="43.34503" lon="-0.53378">
        <ele>207.78</ele>
        <time>2017-02-19T07:35:56Z</time>
      </trkpt>
      <trkpt lat="43.34503" lon="-0.53376">
        <ele>208.26</ele>
        <time>2017-02-19T07:35:57Z</time>
      </trkpt>
      <trkpt lat="43.34503" lon="-0.53372">
        <ele>208.74</ele>
        <time>2017-02-19T07:35:58Z</time>
      </trkpt>
      <trkpt lat="43.34503" lon="-0.5337">
        <ele>209.7</ele>
        <time>2017-02-19T07:35:59Z</time>
      </trkpt>
      <trkpt lat="43.34502" lon="-0.53356">
        <ele>211.15</ele>
        <time>2017-02-19T07:36:05Z</time>
      </trkpt>
      <trkpt lat="43.34502" lon="-0.53354">
        <ele>211.15</ele>
        <time>2017-02-19T07:36:06Z</time>
      </trkpt>
      <trkpt lat="43.34502" lon="-0.53351">
        <ele>211.63</ele>
        <time>2017-02-19T07:36:07Z</time>
      </trkpt>
      <trkpt lat="43.34502" lon="-0.53349">
        <ele>211.63</ele>
        <time>2017-02-19T07:36:08Z</time>
      </trkpt>
      <trkpt lat="43.34503" lon="-0.53346">
        <ele>211.15</ele>
        <time>2017-02-19T07:36:09Z</time>
      </trkpt>
      <trkpt lat="43.34503" lon="-0.53344">
        <ele>211.63</ele>
        <time>2017-02-19T07:36:10Z</time>
      </trkpt>
      <trkpt lat="43.34502" lon="-0.53342">
        <ele>211.63</ele>
        <time>2017-02-19T07:36:11Z</time>
      </trkpt>
      <trkpt lat="43.34502" lon="-0.53339">
        <ele>211.63</ele>
        <time>2017-02-19T07:36:12Z</time>
      </trkpt>
      <trkpt lat="43.34501" lon="-0.53335">
        <ele>212.11</ele>
        <time>2017-02-19T07:36:13Z</time>
      </trkpt>
      <trkpt lat="43.34499" lon="-0.53331">
        <ele>212.11</ele>
        <time>2017-02-19T07:36:14Z</time>
      </trkpt>
      <trkpt lat="43.34498" lon="-0.53327">
        <ele>212.11</ele>
        <time>2017-02-19T07:36:15Z</time>
      </trkpt>
      <trkpt lat="43.34476" lon="-0.53279">
        <ele>211.63</ele>
        <time>2017-02-19T07:36:26Z</time>
      </trkpt>
      <trkpt lat="43.34474" lon="-0.53274">
        <ele>211.63</ele>
        <time>2017-02-19T07:36:27Z</time>
      </trkpt>
      <trkpt lat="43.34453" lon="-0.53221">
        <ele>211.63</ele>
        <time>2017-02-19T07:36:37Z</time>
      </trkpt>
      <trkpt lat="43.34444" lon="-0.53195">
        <ele>211.63</ele>
        <time>2017-02-19T07:36:41Z</time>
      </trkpt>
      <trkpt lat="43.34443" lon="-0.5319">
        <ele>212.11</ele>
        <time>2017-02-19T07:36:42Z</time>
      </trkpt>
      <trkpt lat="43.3444" lon="-0.53145">
        <ele>209.7</ele>
        <time>2017-02-19T07:36:54Z</time>
      </trkpt>
      <trkpt lat="43.34435" lon="-0.53091">
        <ele>211.15</ele>
        <time>2017-02-19T07:37:06Z</time>
      </trkpt>
      <trkpt lat="43.34422" lon="-0.53046">
        <ele>208.74</ele>
        <time>2017-02-19T07:37:15Z</time>
      </trkpt>
      <trkpt lat="43.34397" lon="-0.53005">
        <ele>207.78</ele>
        <time>2017-02-19T07:37:23Z</time>
      </trkpt>
      <trkpt lat="43.34391" lon="-0.53001">
        <ele>207.3</ele>
        <time>2017-02-19T07:37:24Z</time>
      </trkpt>
      <trkpt lat="43.34385" lon="-0.52998">
        <ele>207.3</ele>
        <time>2017-02-19T07:37:25Z</time>
      </trkpt>
      <trkpt lat="43.34379" lon="-0.52996">
        <ele>207.78</ele>
        <time>2017-02-19T07:37:26Z</time>
      </trkpt>
      <trkpt lat="43.34374" lon="-0.52996">
        <ele>207.78</ele>
        <time>2017-02-19T07:37:27Z</time>
      </trkpt>
      <trkpt lat="43.34369" lon="-0.52996">
        <ele>208.26</ele>
        <time>2017-02-19T07:37:28Z</time>
      </trkpt>
      <trkpt lat="43.34366" lon="-0.52996">
        <ele>209.22</ele>
        <time>2017-02-19T07:37:29Z</time>
      </trkpt>
      <trkpt lat="43.34322" lon="-0.53006">
        <ele>214.51</ele>
        <time>2017-02-19T07:37:43Z</time>
      </trkpt>
      <trkpt lat="43.34286" lon="-0.53035">
        <ele>219.8</ele>
        <time>2017-02-19T07:37:57Z</time>
      </trkpt>
      <trkpt lat="43.34283" lon="-0.53039">
        <ele>219.8</ele>
        <time>2017-02-19T07:37:58Z</time>
      </trkpt>
      <trkpt lat="43.3428" lon="-0.53045">
        <ele>219.32</ele>
        <time>2017-02-19T07:37:59Z</time>
      </trkpt>
      <trkpt lat="43.34277" lon="-0.5305">
        <ele>219.32</ele>
        <time>2017-02-19T07:38:00Z</time>
      </trkpt>
      <trkpt lat="43.34269" lon="-0.5307">
        <ele>218.36</ele>
        <time>2017-02-19T07:38:03Z</time>
      </trkpt>
      <trkpt lat="43.34266" lon="-0.53075">
        <ele>218.36</ele>
        <time>2017-02-19T07:38:04Z</time>
      </trkpt>
      <trkpt lat="43.34232" lon="-0.53115">
        <ele>217.4</ele>
        <time>2017-02-19T07:38:15Z</time>
      </trkpt>
      <trkpt lat="43.34202" lon="-0.53153">
        <ele>219.8</ele>
        <time>2017-02-19T07:38:27Z</time>
      </trkpt>
      <trkpt lat="43.34178" lon="-0.53173">
        <ele>221.72</ele>
        <time>2017-02-19T07:38:38Z</time>
      </trkpt>
      <trkpt lat="43.34172" lon="-0.53177">
        <ele>221.72</ele>
        <time>2017-02-19T07:39:00Z</time>
      </trkpt>
      <trkpt lat="43.34152" lon="-0.53178">
        <ele>215.47</ele>
        <time>2017-02-19T07:39:17Z</time>
      </trkpt>
      <trkpt lat="43.3411" lon="-0.53174">
        <ele>210.19</ele>
        <time>2017-02-19T07:39:25Z</time>
      </trkpt>
      <trkpt lat="43.34034" lon="-0.53178">
        <ele>206.82</ele>
        <time>2017-02-19T07:39:40Z</time>
      </trkpt>
      <trkpt lat="43.33997" lon="-0.53168">
        <ele>204.42</ele>
        <time>2017-02-19T07:39:49Z</time>
      </trkpt>
      <trkpt lat="43.33995" lon="-0.53169">
        <ele>203.94</ele>
        <time>2017-02-19T07:39:50Z</time>
      </trkpt>
      <trkpt lat="43.33993" lon="-0.53174">
        <ele>203.94</ele>
        <time>2017-02-19T07:39:52Z</time>
      </trkpt>
      <trkpt lat="43.3398" lon="-0.53204">
        <ele>201.05</ele>
        <time>2017-02-19T07:40:00Z</time>
      </trkpt>
      <trkpt lat="43.33948" lon="-0.5322">
        <ele>193.36</ele>
        <time>2017-02-19T07:40:09Z</time>
      </trkpt>
      <trkpt lat="43.33946" lon="-0.5322">
        <ele>192.4</ele>
        <time>2017-02-19T07:40:10Z</time>
      </trkpt>
      <trkpt lat="43.33943" lon="-0.53219">
        <ele>191.44</ele>
        <time>2017-02-19T07:40:12Z</time>
      </trkpt>
      <trkpt lat="43.33933" lon="-0.53217">
        <ele>188.08</ele>
        <time>2017-02-19T07:40:17Z</time>
      </trkpt>
      <trkpt lat="43.33927" lon="-0.53215">
        <ele>185.67</ele>
        <time>2017-02-19T07:40:20Z</time>
      </trkpt>
      <trkpt lat="43.33921" lon="-0.53202">
        <ele>183.75</ele>
        <time>2017-02-19T07:40:24Z</time>
      </trkpt>
      <trkpt lat="43.33897" lon="-0.53204">
        <ele>180.87</ele>
        <time>2017-02-19T07:40:34Z</time>
      </trkpt>
      <trkpt lat="43.33893" lon="-0.53204">
        <ele>180.38</ele>
        <time>2017-02-19T07:40:35Z</time>
      </trkpt>
      <trkpt lat="43.33864" lon="-0.53193">
        <ele>175.58</ele>
        <time>2017-02-19T07:40:45Z</time>
      </trkpt>
      <trkpt lat="43.33856" lon="-0.53177">
        <ele>175.58</ele>
        <time>2017-02-19T07:40:52Z</time>
      </trkpt>
      <trkpt lat="43.33833" lon="-0.53165">
        <ele>174.14</ele>
        <time>2017-02-19T07:41:01Z</time>
      </trkpt>
      <trkpt lat="43.33802" lon="-0.53158">
        <ele>169.33</ele>
        <time>2017-02-19T07:41:08Z</time>
      </trkpt>
      <trkpt lat="43.33785" lon="-0.53158">
        <ele>167.89</ele>
        <time>2017-02-19T07:41:11Z</time>
      </trkpt>
      <trkpt lat="43.33774" lon="-0.53164">
        <ele>167.41</ele>
        <time>2017-02-19T07:41:13Z</time>
      </trkpt>
      <trkpt lat="43.33737" lon="-0.53159">
        <ele>160.68</ele>
        <time>2017-02-19T07:41:21Z</time>
      </trkpt>
      <trkpt lat="43.33719" lon="-0.53142">
        <ele>156.35</ele>
        <time>2017-02-19T07:41:25Z</time>
      </trkpt>
      <trkpt lat="43.33702" lon="-0.53134">
        <ele>153.47</ele>
        <time>2017-02-19T07:41:28Z</time>
      </trkpt>
      <trkpt lat="43.33673" lon="-0.53145">
        <ele>147.7</ele>
        <time>2017-02-19T07:41:34Z</time>
      </trkpt>
      <trkpt lat="43.33647" lon="-0.53162">
        <ele>144.82</ele>
        <time>2017-02-19T07:41:39Z</time>
      </trkpt>
      <trkpt lat="43.33631" lon="-0.53161">
        <ele>142.89</ele>
        <time>2017-02-19T07:41:42Z</time>
      </trkpt>
      <trkpt lat="43.33608" lon="-0.53178">
        <ele>139.53</ele>
        <time>2017-02-19T07:41:49Z</time>
      </trkpt>
      <trkpt lat="43.33574" lon="-0.53169">
        <ele>136.64</ele>
        <time>2017-02-19T07:41:56Z</time>
      </trkpt>
      <trkpt lat="43.33548" lon="-0.53189">
        <ele>135.2</ele>
        <time>2017-02-19T07:42:02Z</time>
      </trkpt>
      <trkpt lat="43.33518" lon="-0.53213">
        <ele>133.76</ele>
        <time>2017-02-19T07:42:10Z</time>
      </trkpt>
      <trkpt lat="43.33516" lon="-0.53218">
        <ele>133.76</ele>
        <time>2017-02-19T07:42:12Z</time>
      </trkpt>
      <trkpt lat="43.33516" lon="-0.53224">
        <ele>134.72</ele>
        <time>2017-02-19T07:42:15Z</time>
      </trkpt>
      <trkpt lat="43.3352" lon="-0.53229">
        <ele>138.57</ele>
        <time>2017-02-19T07:42:30Z</time>
      </trkpt>
      <trkpt lat="43.33534" lon="-0.53232">
        <ele>140.49</ele>
        <time>2017-02-19T07:42:41Z</time>
      </trkpt>
      <trkpt lat="43.33543" lon="-0.53233">
        <ele>140.49</ele>
        <time>2017-02-19T07:42:47Z</time>
      </trkpt>
      <trkpt lat="43.33548" lon="-0.53233">
        <ele>140.49</ele>
        <time>2017-02-19T07:42:51Z</time>
      </trkpt>
      <trkpt lat="43.33559" lon="-0.53235">
        <ele>142.89</ele>
        <time>2017-02-19T07:42:59Z</time>
      </trkpt>
      <trkpt lat="43.33565" lon="-0.53236">
        <ele>144.82</ele>
        <time>2017-02-19T07:43:03Z</time>
      </trkpt>
      <trkpt lat="43.33586" lon="-0.53241">
        <ele>148.66</ele>
        <time>2017-02-19T07:43:17Z</time>
      </trkpt>
      <trkpt lat="43.3359" lon="-0.53241">
        <ele>148.66</ele>
        <time>2017-02-19T07:43:20Z</time>
      </trkpt>
      <trkpt lat="43.33598" lon="-0.5324">
        <ele>149.14</ele>
        <time>2017-02-19T07:43:26Z</time>
      </trkpt>
      <trkpt lat="43.33615" lon="-0.53244">
        <ele>152.99</ele>
        <time>2017-02-19T07:43:40Z</time>
      </trkpt>
      <trkpt lat="43.33631" lon="-0.53248">
        <ele>154.91</ele>
        <time>2017-02-19T07:43:53Z</time>
      </trkpt>
      <trkpt lat="43.3365" lon="-0.53259">
        <ele>158.27</ele>
        <time>2017-02-19T07:44:07Z</time>
      </trkpt>
      <trkpt lat="43.3367" lon="-0.53274">
        <ele>158.75</ele>
        <time>2017-02-19T07:44:20Z</time>
      </trkpt>
      <trkpt lat="43.33695" lon="-0.53301">
        <ele>159.24</ele>
        <time>2017-02-19T07:44:37Z</time>
      </trkpt>
      <trkpt lat="43.33721" lon="-0.53311">
        <ele>161.16</ele>
        <time>2017-02-19T07:44:54Z</time>
      </trkpt>
      <trkpt lat="43.33729" lon="-0.53307">
        <ele>161.64</ele>
        <time>2017-02-19T07:45:00Z</time>
      </trkpt>
      <trkpt lat="43.33754" lon="-0.53303">
        <ele>165.48</ele>
        <time>2017-02-19T07:45:17Z</time>
      </trkpt>
      <trkpt lat="43.33775" lon="-0.53307">
        <ele>167.89</ele>
        <time>2017-02-19T07:45:32Z</time>
      </trkpt>
      <trkpt lat="43.33777" lon="-0.53307">
        <ele>168.37</ele>
        <time>2017-02-19T07:45:33Z</time>
      </trkpt>
      <trkpt lat="43.33792" lon="-0.53307">
        <ele>169.33</ele>
        <time>2017-02-19T07:45:43Z</time>
      </trkpt>
      <trkpt lat="43.33796" lon="-0.53307">
        <ele>169.33</ele>
        <time>2017-02-19T07:45:45Z</time>
      </trkpt>
      <trkpt lat="43.33806" lon="-0.53307">
        <ele>170.29</ele>
        <time>2017-02-19T07:45:51Z</time>
      </trkpt>
      <trkpt lat="43.33831" lon="-0.53306">
        <ele>175.1</ele>
        <time>2017-02-19T07:46:08Z</time>
      </trkpt>
      <trkpt lat="43.33837" lon="-0.53305">
        <ele>176.54</ele>
        <time>2017-02-19T07:46:13Z</time>
      </trkpt>
      <trkpt lat="43.33861" lon="-0.53306">
        <ele>181.83</ele>
        <time>2017-02-19T07:46:30Z</time>
      </trkpt>
      <trkpt lat="43.33884" lon="-0.53308">
        <ele>182.31</ele>
        <time>2017-02-19T07:46:44Z</time>
      </trkpt>
      <trkpt lat="43.33899" lon="-0.53309">
        <ele>181.35</ele>
        <time>2017-02-19T07:46:54Z</time>
      </trkpt>
      <trkpt lat="43.33921" lon="-0.53317">
        <ele>183.27</ele>
        <time>2017-02-19T07:47:08Z</time>
      </trkpt>
      <trkpt lat="43.33941" lon="-0.53317">
        <ele>184.23</ele>
        <time>2017-02-19T07:47:20Z</time>
      </trkpt>
      <trkpt lat="43.33948" lon="-0.53316">
        <ele>186.63</ele>
        <time>2017-02-19T07:47:25Z</time>
      </trkpt>
      <trkpt lat="43.33961" lon="-0.5331">
        <ele>189.52</ele>
        <time>2017-02-19T07:47:36Z</time>
      </trkpt>
      <trkpt lat="43.33971" lon="-0.53309">
        <ele>191.44</ele>
        <time>2017-02-19T07:47:43Z</time>
      </trkpt>
      <trkpt lat="43.33989" lon="-0.53313">
        <ele>193.84</ele>
        <time>2017-02-19T07:47:55Z</time>
      </trkpt>
      <trkpt lat="43.33999" lon="-0.53314">
        <ele>195.28</ele>
        <time>2017-02-19T07:48:02Z</time>
      </trkpt>
      <trkpt lat="43.34019" lon="-0.53312">
        <ele>195.28</ele>
        <time>2017-02-19T07:48:14Z</time>
      </trkpt>
      <trkpt lat="43.34032" lon="-0.53311">
        <ele>195.28</ele>
        <time>2017-02-19T07:48:22Z</time>
      </trkpt>
      <trkpt lat="43.34056" lon="-0.53298">
        <ele>196.73</ele>
        <time>2017-02-19T07:48:38Z</time>
      </trkpt>
      <trkpt lat="43.34071" lon="-0.53281">
        <ele>199.13</ele>
        <time>2017-02-19T07:48:51Z</time>
      </trkpt>
      <trkpt lat="43.34075" lon="-0.53279">
        <ele>200.09</ele>
        <time>2017-02-19T07:48:55Z</time>
      </trkpt>
      <trkpt lat="43.3408" lon="-0.53276">
        <ele>200.09</ele>
        <time>2017-02-19T07:48:59Z</time>
      </trkpt>
      <trkpt lat="43.34096" lon="-0.53265">
        <ele>201.53</ele>
        <time>2017-02-19T07:49:12Z</time>
      </trkpt>
      <trkpt lat="43.34101" lon="-0.53261">
        <ele>200.57</ele>
        <time>2017-02-19T07:49:17Z</time>
      </trkpt>
      <trkpt lat="43.34115" lon="-0.53248">
        <ele>202.49</ele>
        <time>2017-02-19T07:49:30Z</time>
      </trkpt>
      <trkpt lat="43.34116" lon="-0.53246">
        <ele>202.98</ele>
        <time>2017-02-19T07:49:31Z</time>
      </trkpt>
      <trkpt lat="43.34131" lon="-0.53245">
        <ele>207.3</ele>
        <time>2017-02-19T07:49:41Z</time>
      </trkpt>
      <trkpt lat="43.34135" lon="-0.53248">
        <ele>207.78</ele>
        <time>2017-02-19T07:49:45Z</time>
      </trkpt>
      <trkpt lat="43.3414" lon="-0.53254">
        <ele>209.7</ele>
        <time>2017-02-19T07:49:50Z</time>
      </trkpt>
      <trkpt lat="43.34146" lon="-0.53265">
        <ele>209.22</ele>
        <time>2017-02-19T07:50:04Z</time>
      </trkpt>
      <trkpt lat="43.34145" lon="-0.53266">
        <ele>207.78</ele>
        <time>2017-02-19T07:50:31Z</time>
      </trkpt>
      <trkpt lat="43.34134" lon="-0.53308">
        <ele>206.34</ele>
        <time>2017-02-19T07:50:44Z</time>
      </trkpt>
      <trkpt lat="43.34112" lon="-0.53358">
        <ele>207.3</ele>
        <time>2017-02-19T07:50:56Z</time>
      </trkpt>
      <trkpt lat="43.34079" lon="-0.53404">
        <ele>210.19</ele>
        <time>2017-02-19T07:51:09Z</time>
      </trkpt>
      <trkpt lat="43.34053" lon="-0.53448">
        <ele>214.03</ele>
        <time>2017-02-19T07:51:21Z</time>
      </trkpt>
      <trkpt lat="43.34025" lon="-0.53487">
        <ele>213.55</ele>
        <time>2017-02-19T07:51:33Z</time>
      </trkpt>
      <trkpt lat="43.34016" lon="-0.53512">
        <ele>213.07</ele>
        <time>2017-02-19T07:51:39Z</time>
      </trkpt>
      <trkpt lat="43.34015" lon="-0.53517">
        <ele>213.07</ele>
        <time>2017-02-19T07:51:40Z</time>
      </trkpt>
      <trkpt lat="43.34012" lon="-0.53523">
        <ele>212.59</ele>
        <time>2017-02-19T07:51:41Z</time>
      </trkpt>
      <trkpt lat="43.34004" lon="-0.53534">
        <ele>211.15</ele>
        <time>2017-02-19T07:51:44Z</time>
      </trkpt>
      <trkpt lat="43.34" lon="-0.53535">
        <ele>211.15</ele>
        <time>2017-02-19T07:51:45Z</time>
      </trkpt>
      <trkpt lat="43.33997" lon="-0.53536">
        <ele>210.67</ele>
        <time>2017-02-19T07:51:46Z</time>
      </trkpt>
      <trkpt lat="43.33993" lon="-0.53536">
        <ele>210.67</ele>
        <time>2017-02-19T07:51:47Z</time>
      </trkpt>
      <trkpt lat="43.3399" lon="-0.53535">
        <ele>210.19</ele>
        <time>2017-02-19T07:51:48Z</time>
      </trkpt>
      <trkpt lat="43.33987" lon="-0.53534">
        <ele>209.7</ele>
        <time>2017-02-19T07:51:49Z</time>
      </trkpt>
      <trkpt lat="43.33984" lon="-0.53532">
        <ele>209.7</ele>
        <time>2017-02-19T07:51:50Z</time>
      </trkpt>
      <trkpt lat="43.33981" lon="-0.5353">
        <ele>209.7</ele>
        <time>2017-02-19T07:51:51Z</time>
      </trkpt>
      <trkpt lat="43.33967" lon="-0.53513">
        <ele>207.78</ele>
        <time>2017-02-19T07:51:56Z</time>
      </trkpt>
      <trkpt lat="43.33963" lon="-0.5351">
        <ele>207.3</ele>
        <time>2017-02-19T07:51:57Z</time>
      </trkpt>
      <trkpt lat="43.33955" lon="-0.53503">
        <ele>205.38</ele>
        <time>2017-02-19T07:51:59Z</time>
      </trkpt>
      <trkpt lat="43.3395" lon="-0.53502">
        <ele>204.9</ele>
        <time>2017-02-19T07:52:00Z</time>
      </trkpt>
      <trkpt lat="43.33937" lon="-0.53499">
        <ele>202.98</ele>
        <time>2017-02-19T07:52:02Z</time>
      </trkpt>
      <trkpt lat="43.33917" lon="-0.53495">
        <ele>199.61</ele>
        <time>2017-02-19T07:52:05Z</time>
      </trkpt>
      <trkpt lat="43.3391" lon="-0.53491">
        <ele>198.65</ele>
        <time>2017-02-19T07:52:06Z</time>
      </trkpt>
      <trkpt lat="43.33854" lon="-0.53463">
        <ele>190</ele>
        <time>2017-02-19T07:52:14Z</time>
      </trkpt>
      <trkpt lat="43.3385" lon="-0.5346">
        <ele>189.04</ele>
        <time>2017-02-19T07:52:15Z</time>
      </trkpt>
      <trkpt lat="43.33846" lon="-0.53456">
        <ele>187.59</ele>
        <time>2017-02-19T07:52:16Z</time>
      </trkpt>
      <trkpt lat="43.33838" lon="-0.53444">
        <ele>185.19</ele>
        <time>2017-02-19T07:52:18Z</time>
      </trkpt>
      <trkpt lat="43.33833" lon="-0.53439">
        <ele>183.75</ele>
        <time>2017-02-19T07:52:19Z</time>
      </trkpt>
      <trkpt lat="43.33799" lon="-0.53413">
        <ele>176.06</ele>
        <time>2017-02-19T07:52:27Z</time>
      </trkpt>
      <trkpt lat="43.33781" lon="-0.53397">
        <ele>173.17</ele>
        <time>2017-02-19T07:52:31Z</time>
      </trkpt>
      <trkpt lat="43.33777" lon="-0.53395">
        <ele>172.69</ele>
        <time>2017-02-19T07:52:32Z</time>
      </trkpt>
      <trkpt lat="43.33773" lon="-0.53393">
        <ele>171.73</ele>
        <time>2017-02-19T07:52:33Z</time>
      </trkpt>
      <trkpt lat="43.33768" lon="-0.53392">
        <ele>171.25</ele>
        <time>2017-02-19T07:52:34Z</time>
      </trkpt>
      <trkpt lat="43.33763" lon="-0.53391">
        <ele>170.77</ele>
        <time>2017-02-19T07:52:35Z</time>
      </trkpt>
      <trkpt lat="43.33713" lon="-0.53386">
        <ele>164.52</ele>
        <time>2017-02-19T07:52:44Z</time>
      </trkpt>
      <trkpt lat="43.33657" lon="-0.53378">
        <ele>159.24</ele>
        <time>2017-02-19T07:52:55Z</time>
      </trkpt>
      <trkpt lat="43.33648" lon="-0.53373">
        <ele>158.27</ele>
        <time>2017-02-19T07:52:57Z</time>
      </trkpt>
      <trkpt lat="43.33645" lon="-0.5337">
        <ele>157.31</ele>
        <time>2017-02-19T07:52:58Z</time>
      </trkpt>
      <trkpt lat="43.33627" lon="-0.53354">
        <ele>153.95</ele>
        <time>2017-02-19T07:53:02Z</time>
      </trkpt>
      <trkpt lat="43.33622" lon="-0.53351">
        <ele>152.99</ele>
        <time>2017-02-19T07:53:03Z</time>
      </trkpt>
      <trkpt lat="43.33615" lon="-0.53347">
        <ele>152.03</ele>
        <time>2017-02-19T07:53:04Z</time>
      </trkpt>
      <trkpt lat="43.33553" lon="-0.53314">
        <ele>145.3</ele>
        <time>2017-02-19T07:53:14Z</time>
      </trkpt>
      <trkpt lat="43.33515" lon="-0.53297">
        <ele>142.41</ele>
        <time>2017-02-19T07:53:21Z</time>
      </trkpt>
      <trkpt lat="43.335" lon="-0.53291">
        <ele>140.97</ele>
        <time>2017-02-19T07:53:24Z</time>
      </trkpt>
      <trkpt lat="43.33477" lon="-0.53273">
        <ele>139.05</ele>
        <time>2017-02-19T07:53:28Z</time>
      </trkpt>
      <trkpt lat="43.33474" lon="-0.53268">
        <ele>138.09</ele>
        <time>2017-02-19T07:53:29Z</time>
      </trkpt>
      <trkpt lat="43.33471" lon="-0.53263">
        <ele>137.61</ele>
        <time>2017-02-19T07:53:30Z</time>
      </trkpt>
      <trkpt lat="43.33469" lon="-0.53257">
        <ele>137.13</ele>
        <time>2017-02-19T07:53:31Z</time>
      </trkpt>
      <trkpt lat="43.33467" lon="-0.53252">
        <ele>136.64</ele>
        <time>2017-02-19T07:53:32Z</time>
      </trkpt>
      <trkpt lat="43.33462" lon="-0.5324">
        <ele>134.72</ele>
        <time>2017-02-19T07:53:41Z</time>
      </trkpt>
      <trkpt lat="43.33458" lon="-0.53231">
        <ele>135.68</ele>
        <time>2017-02-19T07:53:58Z</time>
      </trkpt>
      <trkpt lat="43.33458" lon="-0.53228">
        <ele>135.68</ele>
        <time>2017-02-19T07:53:59Z</time>
      </trkpt>
      <trkpt lat="43.33474" lon="-0.53199">
        <ele>135.2</ele>
        <time>2017-02-19T07:54:10Z</time>
      </trkpt>
      <trkpt lat="43.33472" lon="-0.53195">
        <ele>135.2</ele>
        <time>2017-02-19T07:54:11Z</time>
      </trkpt>
      <trkpt lat="43.33471" lon="-0.53193">
        <ele>135.2</ele>
        <time>2017-02-19T07:54:12Z</time>
      </trkpt>
      <trkpt lat="43.33469" lon="-0.53191">
        <ele>134.72</ele>
        <time>2017-02-19T07:54:13Z</time>
      </trkpt>
      <trkpt lat="43.33466" lon="-0.53189">
        <ele>134.72</ele>
        <time>2017-02-19T07:54:14Z</time>
      </trkpt>
      <trkpt lat="43.33463" lon="-0.53188">
        <ele>134.72</ele>
        <time>2017-02-19T07:54:15Z</time>
      </trkpt>
      <trkpt lat="43.3346" lon="-0.53187">
        <ele>134.72</ele>
        <time>2017-02-19T07:54:16Z</time>
      </trkpt>
      <trkpt lat="43.33457" lon="-0.53187">
        <ele>134.72</ele>
        <time>2017-02-19T07:54:17Z</time>
      </trkpt>
      <trkpt lat="43.33421" lon="-0.532">
        <ele>135.68</ele>
        <time>2017-02-19T07:54:29Z</time>
      </trkpt>
      <trkpt lat="43.3339" lon="-0.53208">
        <ele>139.05</ele>
        <time>2017-02-19T07:54:41Z</time>
      </trkpt>
      <trkpt lat="43.3335" lon="-0.53198">
        <ele>138.09</ele>
        <time>2017-02-19T07:54:54Z</time>
      </trkpt>
      <trkpt lat="43.3333" lon="-0.5315">
        <ele>136.64</ele>
        <time>2017-02-19T07:55:07Z</time>
      </trkpt>
      <trkpt lat="43.33314" lon="-0.53088">
        <ele>140.49</ele>
        <time>2017-02-19T07:55:20Z</time>
      </trkpt>
      <trkpt lat="43.33298" lon="-0.53045">
        <ele>142.41</ele>
        <time>2017-02-19T07:55:29Z</time>
      </trkpt>
      <trkpt lat="43.33293" lon="-0.53035">
        <ele>142.41</ele>
        <time>2017-02-19T07:55:31Z</time>
      </trkpt>
      <trkpt lat="43.3329" lon="-0.5303">
        <ele>142.41</ele>
        <time>2017-02-19T07:55:32Z</time>
      </trkpt>
      <trkpt lat="43.33286" lon="-0.53025">
        <ele>142.41</ele>
        <time>2017-02-19T07:55:33Z</time>
      </trkpt>
      <trkpt lat="43.33279" lon="-0.53016">
        <ele>141.93</ele>
        <time>2017-02-19T07:55:35Z</time>
      </trkpt>
      <trkpt lat="43.33223" lon="-0.5296">
        <ele>141.45</ele>
        <time>2017-02-19T07:55:48Z</time>
      </trkpt>
      <trkpt lat="43.33196" lon="-0.52937">
        <ele>141.45</ele>
        <time>2017-02-19T07:55:55Z</time>
      </trkpt>
      <trkpt lat="43.33193" lon="-0.52933">
        <ele>141.45</ele>
        <time>2017-02-19T07:55:56Z</time>
      </trkpt>
      <trkpt lat="43.33189" lon="-0.52928">
        <ele>141.45</ele>
        <time>2017-02-19T07:55:57Z</time>
      </trkpt>
      <trkpt lat="43.33162" lon="-0.52888">
        <ele>139.53</ele>
        <time>2017-02-19T07:56:05Z</time>
      </trkpt>
      <trkpt lat="43.33142" lon="-0.52849">
        <ele>138.09</ele>
        <time>2017-02-19T07:56:12Z</time>
      </trkpt>
      <trkpt lat="43.33132" lon="-0.52834">
        <ele>137.13</ele>
        <time>2017-02-19T07:56:15Z</time>
      </trkpt>
      <trkpt lat="43.33107" lon="-0.52806">
        <ele>139.53</ele>
        <time>2017-02-19T07:56:22Z</time>
      </trkpt>
      <trkpt lat="43.33104" lon="-0.52801">
        <ele>139.53</ele>
        <time>2017-02-19T07:56:23Z</time>
      </trkpt>
      <trkpt lat="43.33087" lon="-0.52772">
        <ele>140.01</ele>
        <time>2017-02-19T07:56:29Z</time>
      </trkpt>
      <trkpt lat="43.33084" lon="-0.52767">
        <ele>140.49</ele>
        <time>2017-02-19T07:56:30Z</time>
      </trkpt>
      <trkpt lat="43.33082" lon="-0.52763">
        <ele>140.97</ele>
        <time>2017-02-19T07:56:31Z</time>
      </trkpt>
      <trkpt lat="43.33079" lon="-0.52759">
        <ele>140.97</ele>
        <time>2017-02-19T07:56:32Z</time>
      </trkpt>
      <trkpt lat="43.33077" lon="-0.52754">
        <ele>140.49</ele>
        <time>2017-02-19T07:56:33Z</time>
      </trkpt>
      <trkpt lat="43.33076" lon="-0.52749">
        <ele>140.49</ele>
        <time>2017-02-19T07:56:34Z</time>
      </trkpt>
      <trkpt lat="43.33074" lon="-0.52744">
        <ele>140.49</ele>
        <time>2017-02-19T07:56:35Z</time>
      </trkpt>
      <trkpt lat="43.33072" lon="-0.52739">
        <ele>140.49</ele>
        <time>2017-02-19T07:56:36Z</time>
      </trkpt>
      <trkpt lat="43.3307" lon="-0.52733">
        <ele>140.49</ele>
        <time>2017-02-19T07:56:37Z</time>
      </trkpt>
      <trkpt lat="43.3306" lon="-0.52698">
        <ele>141.45</ele>
        <time>2017-02-19T07:56:43Z</time>
      </trkpt>
      <trkpt lat="43.33051" lon="-0.52661">
        <ele>141.93</ele>
        <time>2017-02-19T07:56:49Z</time>
      </trkpt>
      <trkpt lat="43.33049" lon="-0.52655">
        <ele>141.93</ele>
        <time>2017-02-19T07:56:50Z</time>
      </trkpt>
      <trkpt lat="43.33048" lon="-0.52649">
        <ele>141.93</ele>
        <time>2017-02-19T07:56:51Z</time>
      </trkpt>
      <trkpt lat="43.33026" lon="-0.52601">
        <ele>145.3</ele>
        <time>2017-02-19T07:57:02Z</time>
      </trkpt>
      <trkpt lat="43.33012" lon="-0.52565">
        <ele>146.26</ele>
        <time>2017-02-19T07:57:13Z</time>
      </trkpt>
      <trkpt lat="43.32998" lon="-0.52526">
        <ele>146.74</ele>
        <time>2017-02-19T07:57:25Z</time>
      </trkpt>
      <trkpt lat="43.32979" lon="-0.52482">
        <ele>148.66</ele>
        <time>2017-02-19T07:57:36Z</time>
      </trkpt>
      <trkpt lat="43.32965" lon="-0.52439">
        <ele>149.14</ele>
        <time>2017-02-19T07:57:46Z</time>
      </trkpt>
      <trkpt lat="43.32951" lon="-0.52375">
        <ele>147.7</ele>
        <time>2017-02-19T07:58:00Z</time>
      </trkpt>
      <trkpt lat="43.32939" lon="-0.52317">
        <ele>150.1</ele>
        <time>2017-02-19T07:58:13Z</time>
      </trkpt>
      <trkpt lat="43.32932" lon="-0.52304">
        <ele>150.1</ele>
        <time>2017-02-19T07:58:16Z</time>
      </trkpt>
      <trkpt lat="43.32929" lon="-0.523">
        <ele>150.1</ele>
        <time>2017-02-19T07:58:17Z</time>
      </trkpt>
      <trkpt lat="43.32924" lon="-0.52296">
        <ele>149.62</ele>
        <time>2017-02-19T07:58:18Z</time>
      </trkpt>
      <trkpt lat="43.3292" lon="-0.52293">
        <ele>149.14</ele>
        <time>2017-02-19T07:58:19Z</time>
      </trkpt>
      <trkpt lat="43.32915" lon="-0.52291">
        <ele>148.66</ele>
        <time>2017-02-19T07:58:20Z</time>
      </trkpt>
      <trkpt lat="43.3291" lon="-0.5229">
        <ele>148.66</ele>
        <time>2017-02-19T07:58:21Z</time>
      </trkpt>
      <trkpt lat="43.32905" lon="-0.52289">
        <ele>148.18</ele>
        <time>2017-02-19T07:58:22Z</time>
      </trkpt>
      <trkpt lat="43.32828" lon="-0.52285">
        <ele>144.82</ele>
        <time>2017-02-19T07:58:34Z</time>
      </trkpt>
      <trkpt lat="43.32752" lon="-0.52243">
        <ele>139.53</ele>
        <time>2017-02-19T07:58:45Z</time>
      </trkpt>
      <trkpt lat="43.32702" lon="-0.52215">
        <ele>136.64</ele>
        <time>2017-02-19T07:58:56Z</time>
      </trkpt>
      <trkpt lat="43.32655" lon="-0.52169">
        <ele>139.53</ele>
        <time>2017-02-19T07:59:12Z</time>
      </trkpt>
      <trkpt lat="43.32623" lon="-0.52122">
        <ele>138.57</ele>
        <time>2017-02-19T07:59:25Z</time>
      </trkpt>
      <trkpt lat="43.326" lon="-0.52086">
        <ele>138.09</ele>
        <time>2017-02-19T07:59:34Z</time>
      </trkpt>
      <trkpt lat="43.3257" lon="-0.52029">
        <ele>140.49</ele>
        <time>2017-02-19T07:59:48Z</time>
      </trkpt>
      <trkpt lat="43.32537" lon="-0.51987">
        <ele>143.85</ele>
        <time>2017-02-19T08:00:00Z</time>
      </trkpt>
      <trkpt lat="43.32504" lon="-0.51958">
        <ele>145.3</ele>
        <time>2017-02-19T08:00:11Z</time>
      </trkpt>
      <trkpt lat="43.3245" lon="-0.5192">
        <ele>146.26</ele>
        <time>2017-02-19T08:00:25Z</time>
      </trkpt>
      <trkpt lat="43.32392" lon="-0.51873">
        <ele>144.82</ele>
        <time>2017-02-19T08:00:36Z</time>
      </trkpt>
      <trkpt lat="43.32386" lon="-0.51869">
        <ele>144.34</ele>
        <time>2017-02-19T08:00:37Z</time>
      </trkpt>
      <trkpt lat="43.3238" lon="-0.51863">
        <ele>143.85</ele>
        <time>2017-02-19T08:00:38Z</time>
      </trkpt>
      <trkpt lat="43.32374" lon="-0.51857">
        <ele>143.85</ele>
        <time>2017-02-19T08:00:39Z</time>
      </trkpt>
      <trkpt lat="43.32368" lon="-0.51852">
        <ele>143.37</ele>
        <time>2017-02-19T08:00:40Z</time>
      </trkpt>
      <trkpt lat="43.32363" lon="-0.51846">
        <ele>142.89</ele>
        <time>2017-02-19T08:00:41Z</time>
      </trkpt>
      <trkpt lat="43.32358" lon="-0.51841">
        <ele>142.89</ele>
        <time>2017-02-19T08:00:42Z</time>
      </trkpt>
      <trkpt lat="43.32353" lon="-0.51836">
        <ele>142.41</ele>
        <time>2017-02-19T08:00:43Z</time>
      </trkpt>
      <trkpt lat="43.32347" lon="-0.51832">
        <ele>142.41</ele>
        <time>2017-02-19T08:00:44Z</time>
      </trkpt>
      <trkpt lat="43.32342" lon="-0.51828">
        <ele>142.41</ele>
        <time>2017-02-19T08:00:45Z</time>
      </trkpt>
      <trkpt lat="43.32338" lon="-0.51824">
        <ele>142.41</ele>
        <time>2017-02-19T08:00:46Z</time>
      </trkpt>
      <trkpt lat="43.32333" lon="-0.5182">
        <ele>142.41</ele>
        <time>2017-02-19T08:00:47Z</time>
      </trkpt>
      <trkpt lat="43.32301" lon="-0.51781">
        <ele>143.85</ele>
        <time>2017-02-19T08:00:58Z</time>
      </trkpt>
      <trkpt lat="43.32277" lon="-0.51739">
        <ele>143.85</ele>
        <time>2017-02-19T08:01:09Z</time>
      </trkpt>
      <trkpt lat="43.32244" lon="-0.51685">
        <ele>146.74</ele>
        <time>2017-02-19T08:01:23Z</time>
      </trkpt>
      <trkpt lat="43.322" lon="-0.51632">
        <ele>147.22</ele>
        <time>2017-02-19T08:01:39Z</time>
      </trkpt>
      <trkpt lat="43.32153" lon="-0.51588">
        <ele>146.74</ele>
        <time>2017-02-19T08:01:54Z</time>
      </trkpt>
      <trkpt lat="43.32117" lon="-0.51559">
        <ele>150.1</ele>
        <time>2017-02-19T08:02:08Z</time>
      </trkpt>
      <trkpt lat="43.32082" lon="-0.51529">
        <ele>149.62</ele>
        <time>2017-02-19T08:02:21Z</time>
      </trkpt>
      <trkpt lat="43.3205" lon="-0.51493">
        <ele>149.14</ele>
        <time>2017-02-19T08:02:34Z</time>
      </trkpt>
      <trkpt lat="43.32029" lon="-0.51453">
        <ele>150.1</ele>
        <time>2017-02-19T08:02:44Z</time>
      </trkpt>
      <trkpt lat="43.32024" lon="-0.5145">
        <ele>149.62</ele>
        <time>2017-02-19T08:02:45Z</time>
      </trkpt>
      <trkpt lat="43.32019" lon="-0.51447">
        <ele>149.62</ele>
        <time>2017-02-19T08:02:46Z</time>
      </trkpt>
      <trkpt lat="43.32013" lon="-0.51445">
        <ele>149.14</ele>
        <time>2017-02-19T08:02:47Z</time>
      </trkpt>
      <trkpt lat="43.32008" lon="-0.51443">
        <ele>148.18</ele>
        <time>2017-02-19T08:02:48Z</time>
      </trkpt>
      <trkpt lat="43.32004" lon="-0.51442">
        <ele>147.7</ele>
        <time>2017-02-19T08:02:49Z</time>
      </trkpt>
      <trkpt lat="43.31987" lon="-0.51436">
        <ele>146.26</ele>
        <time>2017-02-19T08:02:53Z</time>
      </trkpt>
      <trkpt lat="43.31984" lon="-0.51433">
        <ele>145.78</ele>
        <time>2017-02-19T08:02:54Z</time>
      </trkpt>
      <trkpt lat="43.3198" lon="-0.51429">
        <ele>145.3</ele>
        <time>2017-02-19T08:02:55Z</time>
      </trkpt>
      <trkpt lat="43.31977" lon="-0.51426">
        <ele>144.82</ele>
        <time>2017-02-19T08:02:56Z</time>
      </trkpt>
      <trkpt lat="43.31972" lon="-0.51423">
        <ele>144.82</ele>
        <time>2017-02-19T08:02:57Z</time>
      </trkpt>
      <trkpt lat="43.31937" lon="-0.51405">
        <ele>146.26</ele>
        <time>2017-02-19T08:03:08Z</time>
      </trkpt>
      <trkpt lat="43.31925" lon="-0.51379">
        <ele>147.7</ele>
        <time>2017-02-19T08:03:17Z</time>
      </trkpt>
      <trkpt lat="43.31914" lon="-0.51367">
        <ele>150.58</ele>
        <time>2017-02-19T08:03:24Z</time>
      </trkpt>
      <trkpt lat="43.31912" lon="-0.51367">
        <ele>150.58</ele>
        <time>2017-02-19T08:03:25Z</time>
      </trkpt>
      <trkpt lat="43.3191" lon="-0.51367">
        <ele>150.58</ele>
        <time>2017-02-19T08:03:26Z</time>
      </trkpt>
      <trkpt lat="43.31907" lon="-0.51368">
        <ele>151.06</ele>
        <time>2017-02-19T08:03:27Z</time>
      </trkpt>
      <trkpt lat="43.31906" lon="-0.51369">
        <ele>151.06</ele>
        <time>2017-02-19T08:03:28Z</time>
      </trkpt>
      <trkpt lat="43.31904" lon="-0.51371">
        <ele>151.06</ele>
        <time>2017-02-19T08:03:29Z</time>
      </trkpt>
      <trkpt lat="43.31903" lon="-0.51374">
        <ele>150.58</ele>
        <time>2017-02-19T08:03:30Z</time>
      </trkpt>
      <trkpt lat="43.31902" lon="-0.51376">
        <ele>150.58</ele>
        <time>2017-02-19T08:03:31Z</time>
      </trkpt>
      <trkpt lat="43.319" lon="-0.51378">
        <ele>150.1</ele>
        <time>2017-02-19T08:03:32Z</time>
      </trkpt>
      <trkpt lat="43.31899" lon="-0.51382">
        <ele>150.1</ele>
        <time>2017-02-19T08:03:33Z</time>
      </trkpt>
      <trkpt lat="43.31898" lon="-0.51385">
        <ele>150.1</ele>
        <time>2017-02-19T08:03:34Z</time>
      </trkpt>
      <trkpt lat="43.31897" lon="-0.51387">
        <ele>150.1</ele>
        <time>2017-02-19T08:03:35Z</time>
      </trkpt>
      <trkpt lat="43.31895" lon="-0.5139">
        <ele>149.62</ele>
        <time>2017-02-19T08:03:36Z</time>
      </trkpt>
      <trkpt lat="43.31894" lon="-0.51394">
        <ele>149.62</ele>
        <time>2017-02-19T08:03:37Z</time>
      </trkpt>
      <trkpt lat="43.31892" lon="-0.51398">
        <ele>149.14</ele>
        <time>2017-02-19T08:03:38Z</time>
      </trkpt>
      <trkpt lat="43.31889" lon="-0.51401">
        <ele>148.66</ele>
        <time>2017-02-19T08:03:39Z</time>
      </trkpt>
      <trkpt lat="43.31881" lon="-0.51413">
        <ele>148.18</ele>
        <time>2017-02-19T08:03:42Z</time>
      </trkpt>
      <trkpt lat="43.31846" lon="-0.51438">
        <ele>149.62</ele>
        <time>2017-02-19T08:03:54Z</time>
      </trkpt>
      <trkpt lat="43.3181" lon="-0.51425">
        <ele>149.14</ele>
        <time>2017-02-19T08:04:06Z</time>
      </trkpt>
      <trkpt lat="43.31787" lon="-0.5141">
        <ele>146.74</ele>
        <time>2017-02-19T08:04:11Z</time>
      </trkpt>
      <trkpt lat="43.31776" lon="-0.51404">
        <ele>146.26</ele>
        <time>2017-02-19T08:04:13Z</time>
      </trkpt>
      <trkpt lat="43.31771" lon="-0.51402">
        <ele>146.26</ele>
        <time>2017-02-19T08:04:14Z</time>
      </trkpt>
      <trkpt lat="43.3173" lon="-0.51394">
        <ele>145.78</ele>
        <time>2017-02-19T08:04:21Z</time>
      </trkpt>
      <trkpt lat="43.31714" lon="-0.5139">
        <ele>145.78</ele>
        <time>2017-02-19T08:04:24Z</time>
      </trkpt>
      <trkpt lat="43.3168" lon="-0.51377">
        <ele>148.18</ele>
        <time>2017-02-19T08:04:34Z</time>
      </trkpt>
      <trkpt lat="43.31654" lon="-0.51368">
        <ele>149.14</ele>
        <time>2017-02-19T08:04:47Z</time>
      </trkpt>
      <trkpt lat="43.31628" lon="-0.51354">
        <ele>153.47</ele>
        <time>2017-02-19T08:05:00Z</time>
      </trkpt>
      <trkpt lat="43.31604" lon="-0.51339">
        <ele>156.35</ele>
        <time>2017-02-19T08:05:11Z</time>
      </trkpt>
      <trkpt lat="43.31585" lon="-0.51319">
        <ele>160.68</ele>
        <time>2017-02-19T08:05:22Z</time>
      </trkpt>
      <trkpt lat="43.31571" lon="-0.51297">
        <ele>164.52</ele>
        <time>2017-02-19T08:05:35Z</time>
      </trkpt>
      <trkpt lat="43.3157" lon="-0.51295">
        <ele>164.52</ele>
        <time>2017-02-19T08:05:36Z</time>
      </trkpt>
      <trkpt lat="43.31569" lon="-0.51294">
        <ele>165</ele>
        <time>2017-02-19T08:05:37Z</time>
      </trkpt>
      <trkpt lat="43.31553" lon="-0.51269">
        <ele>168.37</ele>
        <time>2017-02-19T08:05:50Z</time>
      </trkpt>
      <trkpt lat="43.31552" lon="-0.51267">
        <ele>168.85</ele>
        <time>2017-02-19T08:05:51Z</time>
      </trkpt>
      <trkpt lat="43.31551" lon="-0.51265">
        <ele>169.33</ele>
        <time>2017-02-19T08:05:52Z</time>
      </trkpt>
      <trkpt lat="43.3155" lon="-0.51262">
        <ele>169.33</ele>
        <time>2017-02-19T08:05:53Z</time>
      </trkpt>
      <trkpt lat="43.31549" lon="-0.5126">
        <ele>169.81</ele>
        <time>2017-02-19T08:05:54Z</time>
      </trkpt>
      <trkpt lat="43.31548" lon="-0.51258">
        <ele>169.81</ele>
        <time>2017-02-19T08:05:55Z</time>
      </trkpt>
      <trkpt lat="43.31534" lon="-0.51226">
        <ele>174.14</ele>
        <time>2017-02-19T08:06:08Z</time>
      </trkpt>
      <trkpt lat="43.31506" lon="-0.51213">
        <ele>173.66</ele>
        <time>2017-02-19T08:06:21Z</time>
      </trkpt>
      <trkpt lat="43.3147" lon="-0.51217">
        <ele>172.69</ele>
        <time>2017-02-19T08:06:32Z</time>
      </trkpt>
      <trkpt lat="43.31428" lon="-0.5122">
        <ele>172.69</ele>
        <time>2017-02-19T08:06:47Z</time>
      </trkpt>
      <trkpt lat="43.31388" lon="-0.51217">
        <ele>170.77</ele>
        <time>2017-02-19T08:07:03Z</time>
      </trkpt>
      <trkpt lat="43.31338" lon="-0.51196">
        <ele>169.33</ele>
        <time>2017-02-19T08:07:19Z</time>
      </trkpt>
      <trkpt lat="43.31301" lon="-0.51178">
        <ele>167.89</ele>
        <time>2017-02-19T08:07:31Z</time>
      </trkpt>
      <trkpt lat="43.31272" lon="-0.5116">
        <ele>170.29</ele>
        <time>2017-02-19T08:07:43Z</time>
      </trkpt>
      <trkpt lat="43.31244" lon="-0.5113">
        <ele>172.69</ele>
        <time>2017-02-19T08:07:55Z</time>
      </trkpt>
      <trkpt lat="43.31207" lon="-0.51099">
        <ele>173.17</ele>
        <time>2017-02-19T08:08:07Z</time>
      </trkpt>
      <trkpt lat="43.31181" lon="-0.51065">
        <ele>176.54</ele>
        <time>2017-02-19T08:08:20Z</time>
      </trkpt>
      <trkpt lat="43.31163" lon="-0.51028">
        <ele>173.66</ele>
        <time>2017-02-19T08:08:31Z</time>
      </trkpt>
      <trkpt lat="43.31126" lon="-0.50983">
        <ele>170.77</ele>
        <time>2017-02-19T08:08:43Z</time>
      </trkpt>
      <trkpt lat="43.31086" lon="-0.50944">
        <ele>172.21</ele>
        <time>2017-02-19T08:08:58Z</time>
      </trkpt>
      <trkpt lat="43.31056" lon="-0.50897">
        <ele>178.46</ele>
        <time>2017-02-19T08:09:14Z</time>
      </trkpt>
      <trkpt lat="43.3104" lon="-0.50863">
        <ele>177.02</ele>
        <time>2017-02-19T08:09:22Z</time>
      </trkpt>
      <trkpt lat="43.31037" lon="-0.50857">
        <ele>176.54</ele>
        <time>2017-02-19T08:09:23Z</time>
      </trkpt>
      <trkpt lat="43.31033" lon="-0.50853">
        <ele>176.54</ele>
        <time>2017-02-19T08:09:24Z</time>
      </trkpt>
      <trkpt lat="43.31029" lon="-0.50849">
        <ele>176.54</ele>
        <time>2017-02-19T08:09:25Z</time>
      </trkpt>
      <trkpt lat="43.31025" lon="-0.50846">
        <ele>176.54</ele>
        <time>2017-02-19T08:09:26Z</time>
      </trkpt>
      <trkpt lat="43.30977" lon="-0.50808">
        <ele>177.5</ele>
        <time>2017-02-19T08:09:38Z</time>
      </trkpt>
      <trkpt lat="43.30941" lon="-0.50778">
        <ele>178.94</ele>
        <time>2017-02-19T08:09:53Z</time>
      </trkpt>
      <trkpt lat="43.30892" lon="-0.50728">
        <ele>177.98</ele>
        <time>2017-02-19T08:10:10Z</time>
      </trkpt>
      <trkpt lat="43.30866" lon="-0.50703">
        <ele>179.42</ele>
        <time>2017-02-19T08:10:23Z</time>
      </trkpt>
      <trkpt lat="43.30835" lon="-0.50687">
        <ele>179.42</ele>
        <time>2017-02-19T08:10:34Z</time>
      </trkpt>
      <trkpt lat="43.30809" lon="-0.50676">
        <ele>182.31</ele>
        <time>2017-02-19T08:10:44Z</time>
      </trkpt>
      <trkpt lat="43.3077" lon="-0.50658">
        <ele>184.23</ele>
        <time>2017-02-19T08:10:57Z</time>
      </trkpt>
      <trkpt lat="43.30743" lon="-0.50644">
        <ele>189.04</ele>
        <time>2017-02-19T08:11:11Z</time>
      </trkpt>
      <trkpt lat="43.30728" lon="-0.5063">
        <ele>192.4</ele>
        <time>2017-02-19T08:11:22Z</time>
      </trkpt>
      <trkpt lat="43.30727" lon="-0.50628">
        <ele>192.4</ele>
        <time>2017-02-19T08:11:23Z</time>
      </trkpt>
      <trkpt lat="43.30726" lon="-0.50627">
        <ele>192.4</ele>
        <time>2017-02-19T08:11:24Z</time>
      </trkpt>
      <trkpt lat="43.30725" lon="-0.50626">
        <ele>192.4</ele>
        <time>2017-02-19T08:11:25Z</time>
      </trkpt>
      <trkpt lat="43.30723" lon="-0.50625">
        <ele>192.4</ele>
        <time>2017-02-19T08:11:26Z</time>
      </trkpt>
      <trkpt lat="43.30722" lon="-0.50623">
        <ele>192.4</ele>
        <time>2017-02-19T08:11:27Z</time>
      </trkpt>
      <trkpt lat="43.30706" lon="-0.50604">
        <ele>194.8</ele>
        <time>2017-02-19T08:11:41Z</time>
      </trkpt>
      <trkpt lat="43.30683" lon="-0.50581">
        <ele>197.21</ele>
        <time>2017-02-19T08:11:55Z</time>
      </trkpt>
      <trkpt lat="43.3066" lon="-0.50557">
        <ele>200.57</ele>
        <time>2017-02-19T08:12:10Z</time>
      </trkpt>
      <trkpt lat="43.3063" lon="-0.50533">
        <ele>202.98</ele>
        <time>2017-02-19T08:12:26Z</time>
      </trkpt>
      <trkpt lat="43.30601" lon="-0.50517">
        <ele>202.98</ele>
        <time>2017-02-19T08:12:41Z</time>
      </trkpt>
      <trkpt lat="43.30578" lon="-0.50497">
        <ele>203.46</ele>
        <time>2017-02-19T08:12:55Z</time>
      </trkpt>
      <trkpt lat="43.30556" lon="-0.50474">
        <ele>204.9</ele>
        <time>2017-02-19T08:13:09Z</time>
      </trkpt>
      <trkpt lat="43.30529" lon="-0.50443">
        <ele>206.34</ele>
        <time>2017-02-19T08:13:23Z</time>
      </trkpt>
      <trkpt lat="43.30507" lon="-0.50415">
        <ele>207.3</ele>
        <time>2017-02-19T08:13:34Z</time>
      </trkpt>
      <trkpt lat="43.30475" lon="-0.50379">
        <ele>209.7</ele>
        <time>2017-02-19T08:13:48Z</time>
      </trkpt>
      <trkpt lat="43.30443" lon="-0.50336">
        <ele>212.59</ele>
        <time>2017-02-19T08:14:04Z</time>
      </trkpt>
      <trkpt lat="43.30416" lon="-0.50307">
        <ele>214.03</ele>
        <time>2017-02-19T08:14:19Z</time>
      </trkpt>
      <trkpt lat="43.30388" lon="-0.50276">
        <ele>216.43</ele>
        <time>2017-02-19T08:14:32Z</time>
      </trkpt>
      <trkpt lat="43.30371" lon="-0.5026">
        <ele>216.91</ele>
        <time>2017-02-19T08:14:42Z</time>
      </trkpt>
      <trkpt lat="43.30369" lon="-0.50254">
        <ele>217.88</ele>
        <time>2017-02-19T08:14:53Z</time>
      </trkpt>
      <trkpt lat="43.30367" lon="-0.50253">
        <ele>215.95</ele>
        <time>2017-02-19T08:15:15Z</time>
      </trkpt>
      <trkpt lat="43.30366" lon="-0.50252">
        <ele>215.95</ele>
        <time>2017-02-19T08:15:16Z</time>
      </trkpt>
      <trkpt lat="43.30364" lon="-0.5025">
        <ele>215.95</ele>
        <time>2017-02-19T08:15:17Z</time>
      </trkpt>
      <trkpt lat="43.30363" lon="-0.50249">
        <ele>215.95</ele>
        <time>2017-02-19T08:15:18Z</time>
      </trkpt>
      <trkpt lat="43.30362" lon="-0.50248">
        <ele>215.95</ele>
        <time>2017-02-19T08:15:19Z</time>
      </trkpt>
      <trkpt lat="43.30361" lon="-0.50247">
        <ele>215.95</ele>
        <time>2017-02-19T08:15:20Z</time>
      </trkpt>
      <trkpt lat="43.30359" lon="-0.50246">
        <ele>215.95</ele>
        <time>2017-02-19T08:15:21Z</time>
      </trkpt>
      <trkpt lat="43.30357" lon="-0.50245">
        <ele>215.95</ele>
        <time>2017-02-19T08:15:22Z</time>
      </trkpt>
      <trkpt lat="43.30349" lon="-0.50242">
        <ele>214.03</ele>
        <time>2017-02-19T08:15:27Z</time>
      </trkpt>
      <trkpt lat="43.30347" lon="-0.50241">
        <ele>213.55</ele>
        <time>2017-02-19T08:15:28Z</time>
      </trkpt>
      <trkpt lat="43.30346" lon="-0.5024">
        <ele>213.55</ele>
        <time>2017-02-19T08:15:29Z</time>
      </trkpt>
      <trkpt lat="43.30335" lon="-0.50215">
        <ele>209.7</ele>
        <time>2017-02-19T08:15:41Z</time>
      </trkpt>
      <trkpt lat="43.30333" lon="-0.50207">
        <ele>207.3</ele>
        <time>2017-02-19T08:15:44Z</time>
      </trkpt>
      <trkpt lat="43.30333" lon="-0.50204">
        <ele>207.3</ele>
        <time>2017-02-19T08:15:45Z</time>
      </trkpt>
      <trkpt lat="43.30333" lon="-0.50202">
        <ele>207.3</ele>
        <time>2017-02-19T08:15:46Z</time>
      </trkpt>
      <trkpt lat="43.30331" lon="-0.50188">
        <ele>202.98</ele>
        <time>2017-02-19T08:15:52Z</time>
      </trkpt>
      <trkpt lat="43.30325" lon="-0.50186">
        <ele>202.01</ele>
        <time>2017-02-19T08:16:01Z</time>
      </trkpt>
      <trkpt lat="43.30325" lon="-0.50188">
        <ele>202.01</ele>
        <time>2017-02-19T08:16:02Z</time>
      </trkpt>
      <trkpt lat="43.30325" lon="-0.50189">
        <ele>202.01</ele>
        <time>2017-02-19T08:16:03Z</time>
      </trkpt>
      <trkpt lat="43.30323" lon="-0.5019">
        <ele>202.01</ele>
        <time>2017-02-19T08:16:04Z</time>
      </trkpt>
      <trkpt lat="43.30322" lon="-0.5019">
        <ele>202.01</ele>
        <time>2017-02-19T08:16:05Z</time>
      </trkpt>
      <trkpt lat="43.3032" lon="-0.5019">
        <ele>201.53</ele>
        <time>2017-02-19T08:16:06Z</time>
      </trkpt>
      <trkpt lat="43.30312" lon="-0.50182">
        <ele>198.65</ele>
        <time>2017-02-19T08:16:15Z</time>
      </trkpt>
      <trkpt lat="43.30311" lon="-0.5018">
        <ele>198.65</ele>
        <time>2017-02-19T08:16:16Z</time>
      </trkpt>
      <trkpt lat="43.30306" lon="-0.50172">
        <ele>195.28</ele>
        <time>2017-02-19T08:16:26Z</time>
      </trkpt>
      <trkpt lat="43.30306" lon="-0.5017">
        <ele>194.8</ele>
        <time>2017-02-19T08:16:27Z</time>
      </trkpt>
      <trkpt lat="43.30306" lon="-0.50169">
        <ele>194.8</ele>
        <time>2017-02-19T08:16:28Z</time>
      </trkpt>
      <trkpt lat="43.30303" lon="-0.50159">
        <ele>194.8</ele>
        <time>2017-02-19T08:16:37Z</time>
      </trkpt>
      <trkpt lat="43.30301" lon="-0.50159">
        <ele>194.8</ele>
        <time>2017-02-19T08:16:38Z</time>
      </trkpt>
      <trkpt lat="43.30299" lon="-0.50157">
        <ele>194.8</ele>
        <time>2017-02-19T08:16:40Z</time>
      </trkpt>
      <trkpt lat="43.30297" lon="-0.50155">
        <ele>194.32</ele>
        <time>2017-02-19T08:16:41Z</time>
      </trkpt>
      <trkpt lat="43.3028" lon="-0.50146">
        <ele>187.59</ele>
        <time>2017-02-19T08:16:50Z</time>
      </trkpt>
      <trkpt lat="43.3027" lon="-0.50137">
        <ele>185.67</ele>
        <time>2017-02-19T08:16:59Z</time>
      </trkpt>
      <trkpt lat="43.30263" lon="-0.50134">
        <ele>181.83</ele>
        <time>2017-02-19T08:17:11Z</time>
      </trkpt>
      <trkpt lat="43.30252" lon="-0.50121">
        <ele>179.42</ele>
        <time>2017-02-19T08:17:21Z</time>
      </trkpt>
      <trkpt lat="43.3025" lon="-0.5012">
        <ele>178.94</ele>
        <time>2017-02-19T08:17:22Z</time>
      </trkpt>
      <trkpt lat="43.30248" lon="-0.5012">
        <ele>178.94</ele>
        <time>2017-02-19T08:17:23Z</time>
      </trkpt>
      <trkpt lat="43.30246" lon="-0.50119">
        <ele>178.46</ele>
        <time>2017-02-19T08:17:24Z</time>
      </trkpt>
      <trkpt lat="43.30245" lon="-0.50118">
        <ele>178.46</ele>
        <time>2017-02-19T08:17:25Z</time>
      </trkpt>
      <trkpt lat="43.30241" lon="-0.50116">
        <ele>177.02</ele>
        <time>2017-02-19T08:17:28Z</time>
      </trkpt>
      <trkpt lat="43.30235" lon="-0.50117">
        <ele>176.54</ele>
        <time>2017-02-19T08:17:32Z</time>
      </trkpt>
      <trkpt lat="43.30233" lon="-0.50116">
        <ele>176.06</ele>
        <time>2017-02-19T08:17:34Z</time>
      </trkpt>
      <trkpt lat="43.30233" lon="-0.50094">
        <ele>173.66</ele>
        <time>2017-02-19T08:17:45Z</time>
      </trkpt>
      <trkpt lat="43.30227" lon="-0.50068">
        <ele>165.96</ele>
        <time>2017-02-19T08:17:55Z</time>
      </trkpt>
      <trkpt lat="43.30225" lon="-0.50053">
        <ele>163.56</ele>
        <time>2017-02-19T08:18:02Z</time>
      </trkpt>
      <trkpt lat="43.30216" lon="-0.50051">
        <ele>161.64</ele>
        <time>2017-02-19T08:18:08Z</time>
      </trkpt>
      <trkpt lat="43.302" lon="-0.50056">
        <ele>157.79</ele>
        <time>2017-02-19T08:18:20Z</time>
      </trkpt>
      <trkpt lat="43.30199" lon="-0.50058">
        <ele>157.79</ele>
        <time>2017-02-19T08:18:21Z</time>
      </trkpt>
      <trkpt lat="43.30196" lon="-0.50065">
        <ele>155.87</ele>
        <time>2017-02-19T08:18:26Z</time>
      </trkpt>
      <trkpt lat="43.30185" lon="-0.50084">
        <ele>158.27</ele>
        <time>2017-02-19T08:18:40Z</time>
      </trkpt>
      <trkpt lat="43.3018" lon="-0.50101">
        <ele>158.75</ele>
        <time>2017-02-19T08:18:46Z</time>
      </trkpt>
      <trkpt lat="43.30175" lon="-0.50102">
        <ele>161.16</ele>
        <time>2017-02-19T08:19:00Z</time>
      </trkpt>
      <trkpt lat="43.30173" lon="-0.501">
        <ele>162.12</ele>
        <time>2017-02-19T08:19:10Z</time>
      </trkpt>
      <trkpt lat="43.30174" lon="-0.5008">
        <ele>168.85</ele>
        <time>2017-02-19T08:19:24Z</time>
      </trkpt>
      <trkpt lat="43.30168" lon="-0.50072">
        <ele>171.73</ele>
        <time>2017-02-19T08:19:32Z</time>
      </trkpt>
      <trkpt lat="43.30157" lon="-0.50069">
        <ele>176.06</ele>
        <time>2017-02-19T08:19:42Z</time>
      </trkpt>
      <trkpt lat="43.30144" lon="-0.50056">
        <ele>180.87</ele>
        <time>2017-02-19T08:19:56Z</time>
      </trkpt>
      <trkpt lat="43.30145" lon="-0.50035">
        <ele>182.31</ele>
        <time>2017-02-19T08:20:11Z</time>
      </trkpt>
      <trkpt lat="43.30147" lon="-0.50027">
        <ele>183.27</ele>
        <time>2017-02-19T08:20:17Z</time>
      </trkpt>
      <trkpt lat="43.3015" lon="-0.49998">
        <ele>186.15</ele>
        <time>2017-02-19T08:20:33Z</time>
      </trkpt>
      <trkpt lat="43.30152" lon="-0.49986">
        <ele>186.15</ele>
        <time>2017-02-19T08:20:39Z</time>
      </trkpt>
      <trkpt lat="43.30156" lon="-0.49957">
        <ele>188.56</ele>
        <time>2017-02-19T08:20:54Z</time>
      </trkpt>
      <trkpt lat="43.30156" lon="-0.49952">
        <ele>188.56</ele>
        <time>2017-02-19T08:20:57Z</time>
      </trkpt>
      <trkpt lat="43.30148" lon="-0.4993">
        <ele>186.63</ele>
        <time>2017-02-19T08:21:10Z</time>
      </trkpt>
      <trkpt lat="43.30146" lon="-0.49924">
        <ele>186.63</ele>
        <time>2017-02-19T08:21:13Z</time>
      </trkpt>
      <trkpt lat="43.30143" lon="-0.49912">
        <ele>187.59</ele>
        <time>2017-02-19T08:21:19Z</time>
      </trkpt>
      <trkpt lat="43.30142" lon="-0.49862">
        <ele>189.04</ele>
        <time>2017-02-19T08:21:34Z</time>
      </trkpt>
      <trkpt lat="43.30143" lon="-0.4983">
        <ele>192.4</ele>
        <time>2017-02-19T08:21:46Z</time>
      </trkpt>
      <trkpt lat="43.30143" lon="-0.49809">
        <ele>195.77</ele>
        <time>2017-02-19T08:21:59Z</time>
      </trkpt>
      <trkpt lat="43.30142" lon="-0.49805">
        <ele>196.73</ele>
        <time>2017-02-19T08:22:01Z</time>
      </trkpt>
      <trkpt lat="43.30141" lon="-0.49804">
        <ele>197.21</ele>
        <time>2017-02-19T08:22:02Z</time>
      </trkpt>
      <trkpt lat="43.30137" lon="-0.49798">
        <ele>198.17</ele>
        <time>2017-02-19T08:22:05Z</time>
      </trkpt>
      <trkpt lat="43.30134" lon="-0.4979">
        <ele>198.65</ele>
        <time>2017-02-19T08:22:09Z</time>
      </trkpt>
      <trkpt lat="43.3013" lon="-0.49779">
        <ele>199.61</ele>
        <time>2017-02-19T08:22:14Z</time>
      </trkpt>
      <trkpt lat="43.3013" lon="-0.49777">
        <ele>200.09</ele>
        <time>2017-02-19T08:22:15Z</time>
      </trkpt>
      <trkpt lat="43.3013" lon="-0.49775">
        <ele>200.09</ele>
        <time>2017-02-19T08:22:16Z</time>
      </trkpt>
      <trkpt lat="43.30129" lon="-0.49773">
        <ele>200.57</ele>
        <time>2017-02-19T08:22:17Z</time>
      </trkpt>
      <trkpt lat="43.3013" lon="-0.49772">
        <ele>200.57</ele>
        <time>2017-02-19T08:22:18Z</time>
      </trkpt>
      <trkpt lat="43.30128" lon="-0.49759">
        <ele>200.09</ele>
        <time>2017-02-19T08:22:25Z</time>
      </trkpt>
      <trkpt lat="43.30111" lon="-0.49748">
        <ele>202.49</ele>
        <time>2017-02-19T08:22:38Z</time>
      </trkpt>
      <trkpt lat="43.30094" lon="-0.49771">
        <ele>204.42</ele>
        <time>2017-02-19T08:22:54Z</time>
      </trkpt>
      <trkpt lat="43.30083" lon="-0.49793">
        <ele>208.26</ele>
        <time>2017-02-19T08:23:09Z</time>
      </trkpt>
      <trkpt lat="43.30076" lon="-0.49798">
        <ele>210.67</ele>
        <time>2017-02-19T08:23:17Z</time>
      </trkpt>
      <trkpt lat="43.30054" lon="-0.49809">
        <ele>212.11</ele>
        <time>2017-02-19T08:23:33Z</time>
      </trkpt>
      <trkpt lat="43.30031" lon="-0.49825">
        <ele>211.15</ele>
        <time>2017-02-19T08:23:46Z</time>
      </trkpt>
      <trkpt lat="43.3002" lon="-0.49824">
        <ele>211.15</ele>
        <time>2017-02-19T08:23:52Z</time>
      </trkpt>
      <trkpt lat="43.30002" lon="-0.49809">
        <ele>215.47</ele>
        <time>2017-02-19T08:24:05Z</time>
      </trkpt>
      <trkpt lat="43.29986" lon="-0.49803">
        <ele>217.88</ele>
        <time>2017-02-19T08:24:17Z</time>
      </trkpt>
      <trkpt lat="43.29985" lon="-0.49802">
        <ele>217.88</ele>
        <time>2017-02-19T08:24:18Z</time>
      </trkpt>
      <trkpt lat="43.29984" lon="-0.49801">
        <ele>217.88</ele>
        <time>2017-02-19T08:24:19Z</time>
      </trkpt>
      <trkpt lat="43.2997" lon="-0.49787">
        <ele>224.12</ele>
        <time>2017-02-19T08:24:35Z</time>
      </trkpt>
      <trkpt lat="43.29952" lon="-0.4977">
        <ele>229.41</ele>
        <time>2017-02-19T08:24:53Z</time>
      </trkpt>
      <trkpt lat="43.29945" lon="-0.49765">
        <ele>230.37</ele>
        <time>2017-02-19T08:24:59Z</time>
      </trkpt>
      <trkpt lat="43.29944" lon="-0.49763">
        <ele>230.85</ele>
        <time>2017-02-19T08:25:00Z</time>
      </trkpt>
      <trkpt lat="43.29943" lon="-0.49763">
        <ele>230.85</ele>
        <time>2017-02-19T08:25:01Z</time>
      </trkpt>
      <trkpt lat="43.2993" lon="-0.49751">
        <ele>233.74</ele>
        <time>2017-02-19T08:25:13Z</time>
      </trkpt>
      <trkpt lat="43.29919" lon="-0.49734">
        <ele>235.66</ele>
        <time>2017-02-19T08:25:28Z</time>
      </trkpt>
      <trkpt lat="43.29908" lon="-0.49716">
        <ele>237.58</ele>
        <time>2017-02-19T08:25:41Z</time>
      </trkpt>
      <trkpt lat="43.29892" lon="-0.49706">
        <ele>240.95</ele>
        <time>2017-02-19T08:25:56Z</time>
      </trkpt>
      <trkpt lat="43.29877" lon="-0.49699">
        <ele>243.83</ele>
        <time>2017-02-19T08:26:09Z</time>
      </trkpt>
      <trkpt lat="43.29873" lon="-0.49696">
        <ele>243.83</ele>
        <time>2017-02-19T08:26:13Z</time>
      </trkpt>
      <trkpt lat="43.29864" lon="-0.49688">
        <ele>244.31</ele>
        <time>2017-02-19T08:26:20Z</time>
      </trkpt>
      <trkpt lat="43.29863" lon="-0.49686">
        <ele>244.79</ele>
        <time>2017-02-19T08:26:21Z</time>
      </trkpt>
      <trkpt lat="43.29862" lon="-0.49684">
        <ele>244.79</ele>
        <time>2017-02-19T08:26:22Z</time>
      </trkpt>
      <trkpt lat="43.29861" lon="-0.49682">
        <ele>244.79</ele>
        <time>2017-02-19T08:26:23Z</time>
      </trkpt>
      <trkpt lat="43.2986" lon="-0.4968">
        <ele>245.27</ele>
        <time>2017-02-19T08:26:24Z</time>
      </trkpt>
      <trkpt lat="43.29859" lon="-0.49678">
        <ele>245.27</ele>
        <time>2017-02-19T08:26:25Z</time>
      </trkpt>
      <trkpt lat="43.29856" lon="-0.4965">
        <ele>246.23</ele>
        <time>2017-02-19T08:26:41Z</time>
      </trkpt>
      <trkpt lat="43.29859" lon="-0.4962">
        <ele>247.68</ele>
        <time>2017-02-19T08:26:59Z</time>
      </trkpt>
      <trkpt lat="43.29864" lon="-0.49589">
        <ele>248.64</ele>
        <time>2017-02-19T08:27:17Z</time>
      </trkpt>
      <trkpt lat="43.29865" lon="-0.49584">
        <ele>248.16</ele>
        <time>2017-02-19T08:27:20Z</time>
      </trkpt>
      <trkpt lat="43.29866" lon="-0.49582">
        <ele>248.64</ele>
        <time>2017-02-19T08:27:21Z</time>
      </trkpt>
      <trkpt lat="43.29866" lon="-0.49581">
        <ele>248.64</ele>
        <time>2017-02-19T08:27:22Z</time>
      </trkpt>
      <trkpt lat="43.29867" lon="-0.49579">
        <ele>249.12</ele>
        <time>2017-02-19T08:27:23Z</time>
      </trkpt>
      <trkpt lat="43.29867" lon="-0.49577">
        <ele>249.12</ele>
        <time>2017-02-19T08:27:24Z</time>
      </trkpt>
      <trkpt lat="43.29867" lon="-0.49575">
        <ele>249.12</ele>
        <time>2017-02-19T08:27:25Z</time>
      </trkpt>
      <trkpt lat="43.29873" lon="-0.49552">
        <ele>249.6</ele>
        <time>2017-02-19T08:27:39Z</time>
      </trkpt>
      <trkpt lat="43.29874" lon="-0.49545">
        <ele>250.56</ele>
        <time>2017-02-19T08:27:44Z</time>
      </trkpt>
      <trkpt lat="43.29874" lon="-0.49543">
        <ele>251.04</ele>
        <time>2017-02-19T08:27:45Z</time>
      </trkpt>
      <trkpt lat="43.29875" lon="-0.49542">
        <ele>251.04</ele>
        <time>2017-02-19T08:27:46Z</time>
      </trkpt>
      <trkpt lat="43.29875" lon="-0.4954">
        <ele>251.52</ele>
        <time>2017-02-19T08:27:47Z</time>
      </trkpt>
      <trkpt lat="43.29875" lon="-0.49538">
        <ele>252</ele>
        <time>2017-02-19T08:27:48Z</time>
      </trkpt>
      <trkpt lat="43.29876" lon="-0.49536">
        <ele>251.52</ele>
        <time>2017-02-19T08:27:49Z</time>
      </trkpt>
      <trkpt lat="43.29876" lon="-0.49534">
        <ele>251.52</ele>
        <time>2017-02-19T08:27:50Z</time>
      </trkpt>
      <trkpt lat="43.29876" lon="-0.49532">
        <ele>251.52</ele>
        <time>2017-02-19T08:27:51Z</time>
      </trkpt>
      <trkpt lat="43.29876" lon="-0.4953">
        <ele>251.52</ele>
        <time>2017-02-19T08:27:52Z</time>
      </trkpt>
      <trkpt lat="43.29877" lon="-0.49528">
        <ele>252</ele>
        <time>2017-02-19T08:27:53Z</time>
      </trkpt>
      <trkpt lat="43.29879" lon="-0.495">
        <ele>253.44</ele>
        <time>2017-02-19T08:28:09Z</time>
      </trkpt>
      <trkpt lat="43.2988" lon="-0.49489">
        <ele>254.89</ele>
        <time>2017-02-19T08:28:16Z</time>
      </trkpt>
      <trkpt lat="43.2988" lon="-0.49487">
        <ele>254.89</ele>
        <time>2017-02-19T08:28:17Z</time>
      </trkpt>
      <trkpt lat="43.2988" lon="-0.49485">
        <ele>255.37</ele>
        <time>2017-02-19T08:28:18Z</time>
      </trkpt>
      <trkpt lat="43.2988" lon="-0.49484">
        <ele>255.37</ele>
        <time>2017-02-19T08:28:19Z</time>
      </trkpt>
      <trkpt lat="43.2988" lon="-0.49482">
        <ele>255.85</ele>
        <time>2017-02-19T08:28:20Z</time>
      </trkpt>
      <trkpt lat="43.2988" lon="-0.4948">
        <ele>255.85</ele>
        <time>2017-02-19T08:28:21Z</time>
      </trkpt>
      <trkpt lat="43.2988" lon="-0.49478">
        <ele>256.33</ele>
        <time>2017-02-19T08:28:22Z</time>
      </trkpt>
      <trkpt lat="43.29883" lon="-0.49446">
        <ele>260.65</ele>
        <time>2017-02-19T08:28:39Z</time>
      </trkpt>
      <trkpt lat="43.29884" lon="-0.49417">
        <ele>262.1</ele>
        <time>2017-02-19T08:28:54Z</time>
      </trkpt>
      <trkpt lat="43.29885" lon="-0.49415">
        <ele>262.58</ele>
        <time>2017-02-19T08:28:55Z</time>
      </trkpt>
      <trkpt lat="43.29885" lon="-0.49413">
        <ele>263.06</ele>
        <time>2017-02-19T08:28:56Z</time>
      </trkpt>
      <trkpt lat="43.29886" lon="-0.49411">
        <ele>263.06</ele>
        <time>2017-02-19T08:28:57Z</time>
      </trkpt>
      <trkpt lat="43.29886" lon="-0.4941">
        <ele>263.54</ele>
        <time>2017-02-19T08:28:58Z</time>
      </trkpt>
      <trkpt lat="43.29886" lon="-0.49408">
        <ele>263.54</ele>
        <time>2017-02-19T08:28:59Z</time>
      </trkpt>
      <trkpt lat="43.29886" lon="-0.49406">
        <ele>264.02</ele>
        <time>2017-02-19T08:29:00Z</time>
      </trkpt>
      <trkpt lat="43.29887" lon="-0.49383">
        <ele>267.38</ele>
        <time>2017-02-19T08:29:14Z</time>
      </trkpt>
      <trkpt lat="43.29887" lon="-0.49381">
        <ele>267.86</ele>
        <time>2017-02-19T08:29:15Z</time>
      </trkpt>
      <trkpt lat="43.29887" lon="-0.49379">
        <ele>268.35</ele>
        <time>2017-02-19T08:29:16Z</time>
      </trkpt>
      <trkpt lat="43.29888" lon="-0.49368">
        <ele>269.79</ele>
        <time>2017-02-19T08:29:23Z</time>
      </trkpt>
      <trkpt lat="43.29889" lon="-0.49366">
        <ele>270.27</ele>
        <time>2017-02-19T08:29:24Z</time>
      </trkpt>
      <trkpt lat="43.29889" lon="-0.49364">
        <ele>270.27</ele>
        <time>2017-02-19T08:29:25Z</time>
      </trkpt>
      <trkpt lat="43.29889" lon="-0.49337">
        <ele>274.11</ele>
        <time>2017-02-19T08:29:40Z</time>
      </trkpt>
      <trkpt lat="43.29894" lon="-0.49299">
        <ele>277.48</ele>
        <time>2017-02-19T08:30:01Z</time>
      </trkpt>
      <trkpt lat="43.29899" lon="-0.49267">
        <ele>280.36</ele>
        <time>2017-02-19T08:30:18Z</time>
      </trkpt>
      <trkpt lat="43.29905" lon="-0.49245">
        <ele>281.8</ele>
        <time>2017-02-19T08:30:30Z</time>
      </trkpt>
      <trkpt lat="43.29905" lon="-0.49243">
        <ele>281.32</ele>
        <time>2017-02-19T08:30:31Z</time>
      </trkpt>
      <trkpt lat="43.29906" lon="-0.49241">
        <ele>281.8</ele>
        <time>2017-02-19T08:30:32Z</time>
      </trkpt>
      <trkpt lat="43.29919" lon="-0.49214">
        <ele>281.8</ele>
        <time>2017-02-19T08:30:47Z</time>
      </trkpt>
      <trkpt lat="43.29933" lon="-0.4918">
        <ele>282.28</ele>
        <time>2017-02-19T08:31:03Z</time>
      </trkpt>
      <trkpt lat="43.2995" lon="-0.49135">
        <ele>281.8</ele>
        <time>2017-02-19T08:31:18Z</time>
      </trkpt>
      <trkpt lat="43.29969" lon="-0.49089">
        <ele>281.8</ele>
        <time>2017-02-19T08:31:33Z</time>
      </trkpt>
      <trkpt lat="43.29981" lon="-0.49035">
        <ele>287.09</ele>
        <time>2017-02-19T08:31:50Z</time>
      </trkpt>
      <trkpt lat="43.29974" lon="-0.4898">
        <ele>289.01</ele>
        <time>2017-02-19T08:32:05Z</time>
      </trkpt>
      <trkpt lat="43.2995" lon="-0.48914">
        <ele>286.61</ele>
        <time>2017-02-19T08:32:18Z</time>
      </trkpt>
      <trkpt lat="43.29949" lon="-0.48908">
        <ele>286.13</ele>
        <time>2017-02-19T08:32:19Z</time>
      </trkpt>
      <trkpt lat="43.29948" lon="-0.489">
        <ele>285.17</ele>
        <time>2017-02-19T08:32:20Z</time>
      </trkpt>
      <trkpt lat="43.29947" lon="-0.48891">
        <ele>284.21</ele>
        <time>2017-02-19T08:32:21Z</time>
      </trkpt>
      <trkpt lat="43.29947" lon="-0.48882">
        <ele>283.25</ele>
        <time>2017-02-19T08:32:22Z</time>
      </trkpt>
      <trkpt lat="43.29948" lon="-0.48871">
        <ele>282.28</ele>
        <time>2017-02-19T08:32:23Z</time>
      </trkpt>
      <trkpt lat="43.2995" lon="-0.48861">
        <ele>281.8</ele>
        <time>2017-02-19T08:32:24Z</time>
      </trkpt>
      <trkpt lat="43.29954" lon="-0.48849">
        <ele>280.84</ele>
        <time>2017-02-19T08:32:25Z</time>
      </trkpt>
      <trkpt lat="43.29958" lon="-0.4884">
        <ele>280.36</ele>
        <time>2017-02-19T08:32:26Z</time>
      </trkpt>
      <trkpt lat="43.29963" lon="-0.4883">
        <ele>279.88</ele>
        <time>2017-02-19T08:32:27Z</time>
      </trkpt>
      <trkpt lat="43.29968" lon="-0.48822">
        <ele>279.4</ele>
        <time>2017-02-19T08:32:28Z</time>
      </trkpt>
      <trkpt lat="43.29973" lon="-0.48816">
        <ele>279.4</ele>
        <time>2017-02-19T08:32:29Z</time>
      </trkpt>
      <trkpt lat="43.30022" lon="-0.48773">
        <ele>279.4</ele>
        <time>2017-02-19T08:32:39Z</time>
      </trkpt>
      <trkpt lat="43.3007" lon="-0.48752">
        <ele>283.25</ele>
        <time>2017-02-19T08:32:54Z</time>
      </trkpt>
      <trkpt lat="43.30072" lon="-0.48751">
        <ele>282.77</ele>
        <time>2017-02-19T08:33:05Z</time>
      </trkpt>
      <trkpt lat="43.30073" lon="-0.48751">
        <ele>281.8</ele>
        <time>2017-02-19T08:33:32Z</time>
      </trkpt>
      <trkpt lat="43.30087" lon="-0.48751">
        <ele>282.28</ele>
        <time>2017-02-19T08:33:43Z</time>
      </trkpt>
      <trkpt lat="43.30141" lon="-0.48783">
        <ele>284.21</ele>
        <time>2017-02-19T08:33:58Z</time>
      </trkpt>
      <trkpt lat="43.30193" lon="-0.48819">
        <ele>287.57</ele>
        <time>2017-02-19T08:34:13Z</time>
      </trkpt>
      <trkpt lat="43.30243" lon="-0.48858">
        <ele>292.38</ele>
        <time>2017-02-19T08:34:29Z</time>
      </trkpt>
      <trkpt lat="43.3028" lon="-0.48885">
        <ele>292.86</ele>
        <time>2017-02-19T08:34:42Z</time>
      </trkpt>
      <trkpt lat="43.30344" lon="-0.48899">
        <ele>289.01</ele>
        <time>2017-02-19T08:34:54Z</time>
      </trkpt>
      <trkpt lat="43.30442" lon="-0.48894">
        <ele>281.8</ele>
        <time>2017-02-19T08:35:05Z</time>
      </trkpt>
      <trkpt lat="43.30513" lon="-0.48887">
        <ele>281.8</ele>
        <time>2017-02-19T08:35:16Z</time>
      </trkpt>
      <trkpt lat="43.30572" lon="-0.48884">
        <ele>284.69</ele>
        <time>2017-02-19T08:35:30Z</time>
      </trkpt>
      <trkpt lat="43.30645" lon="-0.48883">
        <ele>279.88</ele>
        <time>2017-02-19T08:35:41Z</time>
      </trkpt>
      <trkpt lat="43.30708" lon="-0.48877">
        <ele>277</ele>
        <time>2017-02-19T08:35:49Z</time>
      </trkpt>
      <trkpt lat="43.30715" lon="-0.48875">
        <ele>277</ele>
        <time>2017-02-19T08:35:50Z</time>
      </trkpt>
      <trkpt lat="43.30732" lon="-0.48868">
        <ele>277.48</ele>
        <time>2017-02-19T08:35:53Z</time>
      </trkpt>
      <trkpt lat="43.30736" lon="-0.48866">
        <ele>277.96</ele>
        <time>2017-02-19T08:35:54Z</time>
      </trkpt>
      <trkpt lat="43.30739" lon="-0.48863">
        <ele>278.44</ele>
        <time>2017-02-19T08:35:55Z</time>
      </trkpt>
      <trkpt lat="43.30742" lon="-0.4886">
        <ele>278.92</ele>
        <time>2017-02-19T08:35:56Z</time>
      </trkpt>
      <trkpt lat="43.30744" lon="-0.48857">
        <ele>279.4</ele>
        <time>2017-02-19T08:35:57Z</time>
      </trkpt>
      <trkpt lat="43.30745" lon="-0.48855">
        <ele>279.88</ele>
        <time>2017-02-19T08:35:58Z</time>
      </trkpt>
      <trkpt lat="43.30747" lon="-0.48851">
        <ele>279.88</ele>
        <time>2017-02-19T08:35:59Z</time>
      </trkpt>
      <trkpt lat="43.30748" lon="-0.48849">
        <ele>279.88</ele>
        <time>2017-02-19T08:36:00Z</time>
      </trkpt>
      <trkpt lat="43.30756" lon="-0.48828">
        <ele>281.8</ele>
        <time>2017-02-19T08:36:12Z</time>
      </trkpt>
      <trkpt lat="43.3076" lon="-0.48809">
        <ele>280.36</ele>
        <time>2017-02-19T08:36:41Z</time>
      </trkpt>
      <trkpt lat="43.30768" lon="-0.48714">
        <ele>276.04</ele>
        <time>2017-02-19T08:36:51Z</time>
      </trkpt>
      <trkpt lat="43.30788" lon="-0.48598">
        <ele>272.19</ele>
        <time>2017-02-19T08:37:03Z</time>
      </trkpt>
      <trkpt lat="43.30799" lon="-0.48566">
        <ele>270.75</ele>
        <time>2017-02-19T08:37:11Z</time>
      </trkpt>
      <trkpt lat="43.30799" lon="-0.48563">
        <ele>269.79</ele>
        <time>2017-02-19T08:37:20Z</time>
      </trkpt>
      <trkpt lat="43.308" lon="-0.4856">
        <ele>270.75</ele>
        <time>2017-02-19T08:37:26Z</time>
      </trkpt>
      <trkpt lat="43.308" lon="-0.48557">
        <ele>270.75</ele>
        <time>2017-02-19T08:37:27Z</time>
      </trkpt>
      <trkpt lat="43.308" lon="-0.48553">
        <ele>270.75</ele>
        <time>2017-02-19T08:37:28Z</time>
      </trkpt>
      <trkpt lat="43.30804" lon="-0.48505">
        <ele>267.38</ele>
        <time>2017-02-19T08:37:35Z</time>
      </trkpt>
      <trkpt lat="43.30803" lon="-0.48487">
        <ele>265.46</ele>
        <time>2017-02-19T08:37:37Z</time>
      </trkpt>
      <trkpt lat="43.30803" lon="-0.48478">
        <ele>264.5</ele>
        <time>2017-02-19T08:37:38Z</time>
      </trkpt>
      <trkpt lat="43.30805" lon="-0.48426">
        <ele>259.21</ele>
        <time>2017-02-19T08:37:45Z</time>
      </trkpt>
      <trkpt lat="43.30805" lon="-0.48412">
        <ele>257.77</ele>
        <time>2017-02-19T08:37:47Z</time>
      </trkpt>
      <trkpt lat="43.30806" lon="-0.48367">
        <ele>252.96</ele>
        <time>2017-02-19T08:37:56Z</time>
      </trkpt>
      <trkpt lat="43.30809" lon="-0.48361">
        <ele>252.48</ele>
        <time>2017-02-19T08:37:57Z</time>
      </trkpt>
      <trkpt lat="43.30812" lon="-0.48354">
        <ele>252</ele>
        <time>2017-02-19T08:37:58Z</time>
      </trkpt>
      <trkpt lat="43.30824" lon="-0.48326">
        <ele>249.12</ele>
        <time>2017-02-19T08:38:02Z</time>
      </trkpt>
      <trkpt lat="43.30837" lon="-0.48297">
        <ele>245.27</ele>
        <time>2017-02-19T08:38:08Z</time>
      </trkpt>
      <trkpt lat="43.30839" lon="-0.48292">
        <ele>245.27</ele>
        <time>2017-02-19T08:38:09Z</time>
      </trkpt>
      <trkpt lat="43.30841" lon="-0.48288">
        <ele>244.31</ele>
        <time>2017-02-19T08:38:10Z</time>
      </trkpt>
      <trkpt lat="43.30844" lon="-0.48283">
        <ele>243.83</ele>
        <time>2017-02-19T08:38:11Z</time>
      </trkpt>
      <trkpt lat="43.30848" lon="-0.48278">
        <ele>242.87</ele>
        <time>2017-02-19T08:38:12Z</time>
      </trkpt>
      <trkpt lat="43.30865" lon="-0.48252">
        <ele>238.54</ele>
        <time>2017-02-19T08:38:17Z</time>
      </trkpt>
      <trkpt lat="43.30892" lon="-0.48227">
        <ele>232.3</ele>
        <time>2017-02-19T08:38:25Z</time>
      </trkpt>
      <trkpt lat="43.30896" lon="-0.48223">
        <ele>231.33</ele>
        <time>2017-02-19T08:38:26Z</time>
      </trkpt>
      <trkpt lat="43.309" lon="-0.48221">
        <ele>230.37</ele>
        <time>2017-02-19T08:38:27Z</time>
      </trkpt>
      <trkpt lat="43.30931" lon="-0.48194">
        <ele>224.61</ele>
        <time>2017-02-19T08:38:37Z</time>
      </trkpt>
      <trkpt lat="43.30959" lon="-0.48171">
        <ele>219.8</ele>
        <time>2017-02-19T08:38:48Z</time>
      </trkpt>
      <trkpt lat="43.30976" lon="-0.48154">
        <ele>214.99</ele>
        <time>2017-02-19T08:38:54Z</time>
      </trkpt>
      <trkpt lat="43.30981" lon="-0.4815">
        <ele>213.55</ele>
        <time>2017-02-19T08:38:55Z</time>
      </trkpt>
      <trkpt lat="43.31009" lon="-0.48119">
        <ele>205.86</ele>
        <time>2017-02-19T08:39:02Z</time>
      </trkpt>
      <trkpt lat="43.31012" lon="-0.48114">
        <ele>204.42</ele>
        <time>2017-02-19T08:39:03Z</time>
      </trkpt>
      <trkpt lat="43.31016" lon="-0.48109">
        <ele>203.94</ele>
        <time>2017-02-19T08:39:04Z</time>
      </trkpt>
      <trkpt lat="43.31042" lon="-0.48061">
        <ele>197.21</ele>
        <time>2017-02-19T08:39:14Z</time>
      </trkpt>
      <trkpt lat="43.31045" lon="-0.48056">
        <ele>196.73</ele>
        <time>2017-02-19T08:39:15Z</time>
      </trkpt>
      <trkpt lat="43.3105" lon="-0.48051">
        <ele>195.77</ele>
        <time>2017-02-19T08:39:16Z</time>
      </trkpt>
      <trkpt lat="43.31055" lon="-0.48048">
        <ele>194.8</ele>
        <time>2017-02-19T08:39:17Z</time>
      </trkpt>
      <trkpt lat="43.31125" lon="-0.48011">
        <ele>184.71</ele>
        <time>2017-02-19T08:39:25Z</time>
      </trkpt>
      <trkpt lat="43.31164" lon="-0.47985">
        <ele>180.87</ele>
        <time>2017-02-19T08:39:30Z</time>
      </trkpt>
      <trkpt lat="43.31172" lon="-0.47977">
        <ele>180.38</ele>
        <time>2017-02-19T08:39:31Z</time>
      </trkpt>
      <trkpt lat="43.31181" lon="-0.47969">
        <ele>179.42</ele>
        <time>2017-02-19T08:39:32Z</time>
      </trkpt>
      <trkpt lat="43.31201" lon="-0.47943">
        <ele>177.02</ele>
        <time>2017-02-19T08:39:35Z</time>
      </trkpt>
      <trkpt lat="43.31256" lon="-0.47844">
        <ele>166.93</ele>
        <time>2017-02-19T08:39:43Z</time>
      </trkpt>
      <trkpt lat="43.31298" lon="-0.47795">
        <ele>162.12</ele>
        <time>2017-02-19T08:39:50Z</time>
      </trkpt>
      <trkpt lat="43.31301" lon="-0.47781">
        <ele>161.64</ele>
        <time>2017-02-19T08:39:58Z</time>
      </trkpt>
      <trkpt lat="43.31303" lon="-0.47777">
        <ele>161.64</ele>
        <time>2017-02-19T08:40:27Z</time>
      </trkpt>
      <trkpt lat="43.31304" lon="-0.47775">
        <ele>161.64</ele>
        <time>2017-02-19T08:40:28Z</time>
      </trkpt>
      <trkpt lat="43.31307" lon="-0.47773">
        <ele>161.16</ele>
        <time>2017-02-19T08:40:29Z</time>
      </trkpt>
      <trkpt lat="43.3131" lon="-0.47772">
        <ele>161.16</ele>
        <time>2017-02-19T08:40:30Z</time>
      </trkpt>
      <trkpt lat="43.31314" lon="-0.47772">
        <ele>160.68</ele>
        <time>2017-02-19T08:40:31Z</time>
      </trkpt>
      <trkpt lat="43.31318" lon="-0.47772">
        <ele>160.2</ele>
        <time>2017-02-19T08:40:32Z</time>
      </trkpt>
      <trkpt lat="43.31399" lon="-0.47774">
        <ele>156.35</ele>
        <time>2017-02-19T08:40:45Z</time>
      </trkpt>
      <trkpt lat="43.31449" lon="-0.47771">
        <ele>153.47</ele>
        <time>2017-02-19T08:40:54Z</time>
      </trkpt>
      <trkpt lat="43.31452" lon="-0.47774">
        <ele>153.95</ele>
        <time>2017-02-19T08:40:55Z</time>
      </trkpt>
      <trkpt lat="43.31456" lon="-0.47779">
        <ele>153.95</ele>
        <time>2017-02-19T08:40:56Z</time>
      </trkpt>
      <trkpt lat="43.31458" lon="-0.47783">
        <ele>153.95</ele>
        <time>2017-02-19T08:40:57Z</time>
      </trkpt>
      <trkpt lat="43.31461" lon="-0.47788">
        <ele>154.43</ele>
        <time>2017-02-19T08:40:58Z</time>
      </trkpt>
      <trkpt lat="43.3151" lon="-0.47873">
        <ele>154.91</ele>
        <time>2017-02-19T08:41:14Z</time>
      </trkpt>
      <trkpt lat="43.31515" lon="-0.47878">
        <ele>154.91</ele>
        <time>2017-02-19T08:41:15Z</time>
      </trkpt>
      <trkpt lat="43.3152" lon="-0.47883">
        <ele>154.91</ele>
        <time>2017-02-19T08:41:16Z</time>
      </trkpt>
      <trkpt lat="43.31525" lon="-0.47887">
        <ele>154.43</ele>
        <time>2017-02-19T08:41:17Z</time>
      </trkpt>
      <trkpt lat="43.31572" lon="-0.47912">
        <ele>153.47</ele>
        <time>2017-02-19T08:41:25Z</time>
      </trkpt>
      <trkpt lat="43.31607" lon="-0.47934">
        <ele>152.51</ele>
        <time>2017-02-19T08:41:32Z</time>
      </trkpt>
      <trkpt lat="43.31643" lon="-0.47943">
        <ele>152.51</ele>
        <time>2017-02-19T08:41:40Z</time>
      </trkpt>
      <trkpt lat="43.31644" lon="-0.47947">
        <ele>152.51</ele>
        <time>2017-02-19T08:41:41Z</time>
      </trkpt>
      <trkpt lat="43.31644" lon="-0.47951">
        <ele>152.51</ele>
        <time>2017-02-19T08:41:42Z</time>
      </trkpt>
      <trkpt lat="43.31643" lon="-0.47954">
        <ele>152.51</ele>
        <time>2017-02-19T08:41:43Z</time>
      </trkpt>
      <trkpt lat="43.31641" lon="-0.47958">
        <ele>152.51</ele>
        <time>2017-02-19T08:41:44Z</time>
      </trkpt>
      <trkpt lat="43.31639" lon="-0.47961">
        <ele>152.51</ele>
        <time>2017-02-19T08:41:45Z</time>
      </trkpt>
      <trkpt lat="43.31612" lon="-0.48008">
        <ele>152.99</ele>
        <time>2017-02-19T08:41:57Z</time>
      </trkpt>
      <trkpt lat="43.31606" lon="-0.48062">
        <ele>155.39</ele>
        <time>2017-02-19T08:42:09Z</time>
      </trkpt>
      <trkpt lat="43.31582" lon="-0.48099">
        <ele>157.79</ele>
        <time>2017-02-19T08:42:22Z</time>
      </trkpt>
      <trkpt lat="43.31561" lon="-0.48131">
        <ele>161.16</ele>
        <time>2017-02-19T08:42:35Z</time>
      </trkpt>
      <trkpt lat="43.31546" lon="-0.4816">
        <ele>163.08</ele>
        <time>2017-02-19T08:42:50Z</time>
      </trkpt>
      <trkpt lat="43.31538" lon="-0.48178">
        <ele>165</ele>
        <time>2017-02-19T08:43:00Z</time>
      </trkpt>
      <trkpt lat="43.31538" lon="-0.4818">
        <ele>165.48</ele>
        <time>2017-02-19T08:43:01Z</time>
      </trkpt>
      <trkpt lat="43.31538" lon="-0.48182">
        <ele>165</ele>
        <time>2017-02-19T08:43:02Z</time>
      </trkpt>
      <trkpt lat="43.31538" lon="-0.48184">
        <ele>165</ele>
        <time>2017-02-19T08:43:03Z</time>
      </trkpt>
      <trkpt lat="43.31538" lon="-0.48186">
        <ele>165</ele>
        <time>2017-02-19T08:43:04Z</time>
      </trkpt>
      <trkpt lat="43.31539" lon="-0.48188">
        <ele>165</ele>
        <time>2017-02-19T08:43:05Z</time>
      </trkpt>
      <trkpt lat="43.3154" lon="-0.48189">
        <ele>164.52</ele>
        <time>2017-02-19T08:43:06Z</time>
      </trkpt>
      <trkpt lat="43.31542" lon="-0.4819">
        <ele>164.52</ele>
        <time>2017-02-19T08:43:07Z</time>
      </trkpt>
      <trkpt lat="43.31543" lon="-0.48191">
        <ele>164.52</ele>
        <time>2017-02-19T08:43:08Z</time>
      </trkpt>
      <trkpt lat="43.31545" lon="-0.48193">
        <ele>164.04</ele>
        <time>2017-02-19T08:43:09Z</time>
      </trkpt>
      <trkpt lat="43.31546" lon="-0.48194">
        <ele>164.04</ele>
        <time>2017-02-19T08:43:10Z</time>
      </trkpt>
      <trkpt lat="43.31572" lon="-0.48215">
        <ele>161.64</ele>
        <time>2017-02-19T08:43:24Z</time>
      </trkpt>
      <trkpt lat="43.31611" lon="-0.48243">
        <ele>162.12</ele>
        <time>2017-02-19T08:43:39Z</time>
      </trkpt>
      <trkpt lat="43.31653" lon="-0.48275">
        <ele>160.68</ele>
        <time>2017-02-19T08:43:52Z</time>
      </trkpt>
      <trkpt lat="43.31686" lon="-0.48302">
        <ele>157.79</ele>
        <time>2017-02-19T08:44:00Z</time>
      </trkpt>
      <trkpt lat="43.3169" lon="-0.48306">
        <ele>157.79</ele>
        <time>2017-02-19T08:44:01Z</time>
      </trkpt>
      <trkpt lat="43.31727" lon="-0.48333">
        <ele>157.31</ele>
        <time>2017-02-19T08:44:12Z</time>
      </trkpt>
      <trkpt lat="43.31757" lon="-0.48363">
        <ele>153.47</ele>
        <time>2017-02-19T08:44:22Z</time>
      </trkpt>
      <trkpt lat="43.31789" lon="-0.48385">
        <ele>150.58</ele>
        <time>2017-02-19T08:44:32Z</time>
      </trkpt>
      <trkpt lat="43.31806" lon="-0.48401">
        <ele>148.66</ele>
        <time>2017-02-19T08:44:39Z</time>
      </trkpt>
      <trkpt lat="43.31808" lon="-0.48404">
        <ele>148.18</ele>
        <time>2017-02-19T08:44:40Z</time>
      </trkpt>
      <trkpt lat="43.3181" lon="-0.48406">
        <ele>148.18</ele>
        <time>2017-02-19T08:44:41Z</time>
      </trkpt>
      <trkpt lat="43.31812" lon="-0.48409">
        <ele>147.7</ele>
        <time>2017-02-19T08:44:42Z</time>
      </trkpt>
      <trkpt lat="43.31813" lon="-0.48411">
        <ele>147.7</ele>
        <time>2017-02-19T08:44:43Z</time>
      </trkpt>
      <trkpt lat="43.31814" lon="-0.48414">
        <ele>147.22</ele>
        <time>2017-02-19T08:44:44Z</time>
      </trkpt>
      <trkpt lat="43.31815" lon="-0.48417">
        <ele>147.22</ele>
        <time>2017-02-19T08:44:45Z</time>
      </trkpt>
      <trkpt lat="43.31816" lon="-0.48421">
        <ele>147.7</ele>
        <time>2017-02-19T08:44:46Z</time>
      </trkpt>
      <trkpt lat="43.31817" lon="-0.48423">
        <ele>147.7</ele>
        <time>2017-02-19T08:44:47Z</time>
      </trkpt>
      <trkpt lat="43.31817" lon="-0.48425">
        <ele>148.18</ele>
        <time>2017-02-19T08:44:48Z</time>
      </trkpt>
      <trkpt lat="43.31817" lon="-0.48427">
        <ele>148.18</ele>
        <time>2017-02-19T08:44:49Z</time>
      </trkpt>
      <trkpt lat="43.31814" lon="-0.48445">
        <ele>154.91</ele>
        <time>2017-02-19T08:45:01Z</time>
      </trkpt>
      <trkpt lat="43.31814" lon="-0.48453">
        <ele>157.31</ele>
        <time>2017-02-19T08:45:14Z</time>
      </trkpt>
      <trkpt lat="43.31812" lon="-0.4846">
        <ele>157.79</ele>
        <time>2017-02-19T08:45:20Z</time>
      </trkpt>
      <trkpt lat="43.31813" lon="-0.48469">
        <ele>157.31</ele>
        <time>2017-02-19T08:45:27Z</time>
      </trkpt>
      <trkpt lat="43.31814" lon="-0.48471">
        <ele>157.31</ele>
        <time>2017-02-19T08:45:28Z</time>
      </trkpt>
      <trkpt lat="43.31815" lon="-0.48472">
        <ele>157.31</ele>
        <time>2017-02-19T08:45:29Z</time>
      </trkpt>
      <trkpt lat="43.31816" lon="-0.48474">
        <ele>157.31</ele>
        <time>2017-02-19T08:45:30Z</time>
      </trkpt>
      <trkpt lat="43.31817" lon="-0.48475">
        <ele>157.31</ele>
        <time>2017-02-19T08:45:31Z</time>
      </trkpt>
      <trkpt lat="43.31818" lon="-0.48477">
        <ele>156.83</ele>
        <time>2017-02-19T08:45:32Z</time>
      </trkpt>
      <trkpt lat="43.31819" lon="-0.48479">
        <ele>156.35</ele>
        <time>2017-02-19T08:45:33Z</time>
      </trkpt>
      <trkpt lat="43.3182" lon="-0.4848">
        <ele>156.35</ele>
        <time>2017-02-19T08:45:34Z</time>
      </trkpt>
      <trkpt lat="43.31821" lon="-0.48482">
        <ele>155.87</ele>
        <time>2017-02-19T08:45:35Z</time>
      </trkpt>
      <trkpt lat="43.31822" lon="-0.48483">
        <ele>155.39</ele>
        <time>2017-02-19T08:45:36Z</time>
      </trkpt>
      <trkpt lat="43.31823" lon="-0.48484">
        <ele>154.91</ele>
        <time>2017-02-19T08:45:37Z</time>
      </trkpt>
      <trkpt lat="43.31824" lon="-0.48486">
        <ele>154.43</ele>
        <time>2017-02-19T08:45:38Z</time>
      </trkpt>
      <trkpt lat="43.31841" lon="-0.48512">
        <ele>153.95</ele>
        <time>2017-02-19T08:45:54Z</time>
      </trkpt>
      <trkpt lat="43.31866" lon="-0.48535">
        <ele>151.54</ele>
        <time>2017-02-19T08:46:06Z</time>
      </trkpt>
      <trkpt lat="43.31904" lon="-0.48568">
        <ele>148.18</ele>
        <time>2017-02-19T08:46:17Z</time>
      </trkpt>
      <trkpt lat="43.31928" lon="-0.48598">
        <ele>152.51</ele>
        <time>2017-02-19T08:46:28Z</time>
      </trkpt>
      <trkpt lat="43.31949" lon="-0.48631">
        <ele>153.47</ele>
        <time>2017-02-19T08:46:39Z</time>
      </trkpt>
      <trkpt lat="43.3195" lon="-0.48634">
        <ele>153.47</ele>
        <time>2017-02-19T08:46:40Z</time>
      </trkpt>
      <trkpt lat="43.3195" lon="-0.48638">
        <ele>153.95</ele>
        <time>2017-02-19T08:46:41Z</time>
      </trkpt>
      <trkpt lat="43.31949" lon="-0.48641">
        <ele>153.95</ele>
        <time>2017-02-19T08:46:42Z</time>
      </trkpt>
      <trkpt lat="43.31949" lon="-0.48644">
        <ele>154.43</ele>
        <time>2017-02-19T08:46:43Z</time>
      </trkpt>
      <trkpt lat="43.31948" lon="-0.48646">
        <ele>154.91</ele>
        <time>2017-02-19T08:46:44Z</time>
      </trkpt>
      <trkpt lat="43.31947" lon="-0.48649">
        <ele>155.39</ele>
        <time>2017-02-19T08:46:45Z</time>
      </trkpt>
      <trkpt lat="43.31926" lon="-0.48681">
        <ele>156.35</ele>
        <time>2017-02-19T08:47:05Z</time>
      </trkpt>
      <trkpt lat="43.31907" lon="-0.48706">
        <ele>155.87</ele>
        <time>2017-02-19T08:47:23Z</time>
      </trkpt>
      <trkpt lat="43.31887" lon="-0.48724">
        <ele>154.43</ele>
        <time>2017-02-19T08:47:38Z</time>
      </trkpt>
      <trkpt lat="43.31866" lon="-0.48741">
        <ele>157.31</ele>
        <time>2017-02-19T08:47:52Z</time>
      </trkpt>
      <trkpt lat="43.31847" lon="-0.48759">
        <ele>156.35</ele>
        <time>2017-02-19T08:48:06Z</time>
      </trkpt>
      <trkpt lat="43.31827" lon="-0.48779">
        <ele>155.87</ele>
        <time>2017-02-19T08:48:21Z</time>
      </trkpt>
      <trkpt lat="43.31806" lon="-0.48796">
        <ele>156.35</ele>
        <time>2017-02-19T08:48:35Z</time>
      </trkpt>
      <trkpt lat="43.31791" lon="-0.48814">
        <ele>155.39</ele>
        <time>2017-02-19T08:48:48Z</time>
      </trkpt>
      <trkpt lat="43.31783" lon="-0.48825">
        <ele>159.24</ele>
        <time>2017-02-19T08:48:55Z</time>
      </trkpt>
      <trkpt lat="43.31782" lon="-0.48827">
        <ele>159.72</ele>
        <time>2017-02-19T08:48:56Z</time>
      </trkpt>
      <trkpt lat="43.31781" lon="-0.48829">
        <ele>160.2</ele>
        <time>2017-02-19T08:48:57Z</time>
      </trkpt>
      <trkpt lat="43.3178" lon="-0.48831">
        <ele>160.68</ele>
        <time>2017-02-19T08:48:58Z</time>
      </trkpt>
      <trkpt lat="43.31779" lon="-0.48833">
        <ele>161.16</ele>
        <time>2017-02-19T08:48:59Z</time>
      </trkpt>
      <trkpt lat="43.31778" lon="-0.48834">
        <ele>161.64</ele>
        <time>2017-02-19T08:49:00Z</time>
      </trkpt>
      <trkpt lat="43.3177" lon="-0.48843">
        <ele>162.12</ele>
        <time>2017-02-19T08:49:12Z</time>
      </trkpt>
      <trkpt lat="43.31773" lon="-0.4884">
        <ele>163.08</ele>
        <time>2017-02-19T08:49:19Z</time>
      </trkpt>
      <trkpt lat="43.31778" lon="-0.48833">
        <ele>165.48</ele>
        <time>2017-02-19T08:49:25Z</time>
      </trkpt>
      <trkpt lat="43.31778" lon="-0.48831">
        <ele>165.48</ele>
        <time>2017-02-19T08:49:26Z</time>
      </trkpt>
      <trkpt lat="43.31777" lon="-0.48829">
        <ele>165.96</ele>
        <time>2017-02-19T08:49:27Z</time>
      </trkpt>
      <trkpt lat="43.31776" lon="-0.48828">
        <ele>166.45</ele>
        <time>2017-02-19T08:49:28Z</time>
      </trkpt>
      <trkpt lat="43.31775" lon="-0.48828">
        <ele>166.45</ele>
        <time>2017-02-19T08:49:29Z</time>
      </trkpt>
      <trkpt lat="43.31774" lon="-0.48828">
        <ele>166.93</ele>
        <time>2017-02-19T08:49:30Z</time>
      </trkpt>
      <trkpt lat="43.31772" lon="-0.48829">
        <ele>167.41</ele>
        <time>2017-02-19T08:49:31Z</time>
      </trkpt>
      <trkpt lat="43.31766" lon="-0.48828">
        <ele>169.33</ele>
        <time>2017-02-19T08:49:42Z</time>
      </trkpt>
      <trkpt lat="43.31762" lon="-0.48824">
        <ele>169.81</ele>
        <time>2017-02-19T08:49:50Z</time>
      </trkpt>
      <trkpt lat="43.31757" lon="-0.48822">
        <ele>169.81</ele>
        <time>2017-02-19T08:49:55Z</time>
      </trkpt>
      <trkpt lat="43.31754" lon="-0.4882">
        <ele>169.81</ele>
        <time>2017-02-19T08:49:58Z</time>
      </trkpt>
      <trkpt lat="43.31747" lon="-0.48824">
        <ele>170.29</ele>
        <time>2017-02-19T08:50:05Z</time>
      </trkpt>
      <trkpt lat="43.31741" lon="-0.48832">
        <ele>170.77</ele>
        <time>2017-02-19T08:50:12Z</time>
      </trkpt>
      <trkpt lat="43.31736" lon="-0.48833">
        <ele>169.81</ele>
        <time>2017-02-19T08:50:16Z</time>
      </trkpt>
      <trkpt lat="43.31733" lon="-0.48834">
        <ele>169.33</ele>
        <time>2017-02-19T08:50:18Z</time>
      </trkpt>
      <trkpt lat="43.31729" lon="-0.48836">
        <ele>169.33</ele>
        <time>2017-02-19T08:50:21Z</time>
      </trkpt>
      <trkpt lat="43.31726" lon="-0.48835">
        <ele>168.85</ele>
        <time>2017-02-19T08:50:23Z</time>
      </trkpt>
      <trkpt lat="43.317" lon="-0.48846">
        <ele>173.17</ele>
        <time>2017-02-19T08:50:38Z</time>
      </trkpt>
      <trkpt lat="43.31683" lon="-0.48851">
        <ele>172.69</ele>
        <time>2017-02-19T08:50:51Z</time>
      </trkpt>
      <trkpt lat="43.31685" lon="-0.48859">
        <ele>171.73</ele>
        <time>2017-02-19T08:51:03Z</time>
      </trkpt>
      <trkpt lat="43.31684" lon="-0.48863">
        <ele>172.21</ele>
        <time>2017-02-19T08:51:07Z</time>
      </trkpt>
      <trkpt lat="43.3168" lon="-0.48863">
        <ele>172.21</ele>
        <time>2017-02-19T08:51:10Z</time>
      </trkpt>
      <trkpt lat="43.31673" lon="-0.48863">
        <ele>171.73</ele>
        <time>2017-02-19T08:51:15Z</time>
      </trkpt>
      <trkpt lat="43.31658" lon="-0.48871">
        <ele>169.81</ele>
        <time>2017-02-19T08:51:28Z</time>
      </trkpt>
      <trkpt lat="43.31652" lon="-0.48879">
        <ele>172.21</ele>
        <time>2017-02-19T08:51:35Z</time>
      </trkpt>
      <trkpt lat="43.31651" lon="-0.48884">
        <ele>172.69</ele>
        <time>2017-02-19T08:51:38Z</time>
      </trkpt>
      <trkpt lat="43.31645" lon="-0.48889">
        <ele>173.66</ele>
        <time>2017-02-19T08:51:45Z</time>
      </trkpt>
      <trkpt lat="43.31641" lon="-0.4889">
        <ele>174.14</ele>
        <time>2017-02-19T08:51:48Z</time>
      </trkpt>
      <trkpt lat="43.31638" lon="-0.48889">
        <ele>173.66</ele>
        <time>2017-02-19T08:51:51Z</time>
      </trkpt>
      <trkpt lat="43.31623" lon="-0.48886">
        <ele>178.46</ele>
        <time>2017-02-19T08:52:04Z</time>
      </trkpt>
      <trkpt lat="43.31616" lon="-0.48885">
        <ele>180.38</ele>
        <time>2017-02-19T08:52:11Z</time>
      </trkpt>
      <trkpt lat="43.31614" lon="-0.48884">
        <ele>180.38</ele>
        <time>2017-02-19T08:52:13Z</time>
      </trkpt>
      <trkpt lat="43.31596" lon="-0.48884">
        <ele>186.15</ele>
        <time>2017-02-19T08:52:28Z</time>
      </trkpt>
      <trkpt lat="43.31578" lon="-0.48892">
        <ele>188.08</ele>
        <time>2017-02-19T08:52:43Z</time>
      </trkpt>
      <trkpt lat="43.31569" lon="-0.48897">
        <ele>190.48</ele>
        <time>2017-02-19T08:52:52Z</time>
      </trkpt>
      <trkpt lat="43.31554" lon="-0.48901">
        <ele>191.44</ele>
        <time>2017-02-19T08:53:03Z</time>
      </trkpt>
      <trkpt lat="43.31542" lon="-0.48905">
        <ele>194.32</ele>
        <time>2017-02-19T08:53:12Z</time>
      </trkpt>
      <trkpt lat="43.31528" lon="-0.48918">
        <ele>190.96</ele>
        <time>2017-02-19T08:53:27Z</time>
      </trkpt>
      <trkpt lat="43.31521" lon="-0.48933">
        <ele>193.36</ele>
        <time>2017-02-19T08:53:37Z</time>
      </trkpt>
      <trkpt lat="43.31519" lon="-0.48956">
        <ele>198.17</ele>
        <time>2017-02-19T08:53:52Z</time>
      </trkpt>
      <trkpt lat="43.31519" lon="-0.4896">
        <ele>198.65</ele>
        <time>2017-02-19T08:53:54Z</time>
      </trkpt>
      <trkpt lat="43.31516" lon="-0.48979">
        <ele>198.65</ele>
        <time>2017-02-19T08:54:08Z</time>
      </trkpt>
      <trkpt lat="43.31515" lon="-0.48986">
        <ele>199.61</ele>
        <time>2017-02-19T08:54:12Z</time>
      </trkpt>
      <trkpt lat="43.31518" lon="-0.49002">
        <ele>206.82</ele>
        <time>2017-02-19T08:54:28Z</time>
      </trkpt>
      <trkpt lat="43.31517" lon="-0.49005">
        <ele>208.26</ele>
        <time>2017-02-19T08:54:54Z</time>
      </trkpt>
      <trkpt lat="43.3152" lon="-0.49011">
        <ele>210.19</ele>
        <time>2017-02-19T08:55:14Z</time>
      </trkpt>
      <trkpt lat="43.31525" lon="-0.49015">
        <ele>213.07</ele>
        <time>2017-02-19T08:55:28Z</time>
      </trkpt>
      <trkpt lat="43.31533" lon="-0.49024">
        <ele>214.03</ele>
        <time>2017-02-19T08:55:43Z</time>
      </trkpt>
      <trkpt lat="43.31535" lon="-0.49029">
        <ele>217.4</ele>
        <time>2017-02-19T08:55:59Z</time>
      </trkpt>
      <trkpt lat="43.31535" lon="-0.49037">
        <ele>216.43</ele>
        <time>2017-02-19T08:56:14Z</time>
      </trkpt>
      <trkpt lat="43.31535" lon="-0.49054">
        <ele>213.55</ele>
        <time>2017-02-19T08:56:26Z</time>
      </trkpt>
      <trkpt lat="43.3153" lon="-0.49076">
        <ele>218.36</ele>
        <time>2017-02-19T08:56:41Z</time>
      </trkpt>
      <trkpt lat="43.31529" lon="-0.49077">
        <ele>218.84</ele>
        <time>2017-02-19T08:56:42Z</time>
      </trkpt>
      <trkpt lat="43.31526" lon="-0.49087">
        <ele>222.2</ele>
        <time>2017-02-19T08:56:56Z</time>
      </trkpt>
      <trkpt lat="43.31523" lon="-0.4909">
        <ele>228.45</ele>
        <time>2017-02-19T08:57:13Z</time>
      </trkpt>
      <trkpt lat="43.31518" lon="-0.49095">
        <ele>236.14</ele>
        <time>2017-02-19T08:57:28Z</time>
      </trkpt>
      <trkpt lat="43.31511" lon="-0.49102">
        <ele>241.91</ele>
        <time>2017-02-19T08:57:42Z</time>
      </trkpt>
      <trkpt lat="43.31508" lon="-0.49109">
        <ele>246.23</ele>
        <time>2017-02-19T08:57:54Z</time>
      </trkpt>
      <trkpt lat="43.31508" lon="-0.4912">
        <ele>245.75</ele>
        <time>2017-02-19T08:58:06Z</time>
      </trkpt>
      <trkpt lat="43.31505" lon="-0.49124">
        <ele>245.75</ele>
        <time>2017-02-19T08:58:17Z</time>
      </trkpt>
      <trkpt lat="43.31506" lon="-0.49126">
        <ele>246.72</ele>
        <time>2017-02-19T08:58:28Z</time>
      </trkpt>
      <trkpt lat="43.31505" lon="-0.49133">
        <ele>245.27</ele>
        <time>2017-02-19T08:58:40Z</time>
      </trkpt>
      <trkpt lat="43.31509" lon="-0.49135">
        <ele>244.79</ele>
        <time>2017-02-19T08:58:51Z</time>
      </trkpt>
      <trkpt lat="43.31512" lon="-0.49136">
        <ele>245.27</ele>
        <time>2017-02-19T08:59:01Z</time>
      </trkpt>
      <trkpt lat="43.31524" lon="-0.4914">
        <ele>249.12</ele>
        <time>2017-02-19T08:59:15Z</time>
      </trkpt>
      <trkpt lat="43.31529" lon="-0.4914">
        <ele>246.23</ele>
        <time>2017-02-19T08:59:48Z</time>
      </trkpt>
      <trkpt lat="43.31553" lon="-0.49134">
        <ele>245.27</ele>
        <time>2017-02-19T08:59:57Z</time>
      </trkpt>
      <trkpt lat="43.31582" lon="-0.49116">
        <ele>245.27</ele>
        <time>2017-02-19T09:00:07Z</time>
      </trkpt>
      <trkpt lat="43.31593" lon="-0.49115">
        <ele>246.23</ele>
        <time>2017-02-19T09:00:11Z</time>
      </trkpt>
      <trkpt lat="43.31609" lon="-0.4912">
        <ele>244.31</ele>
        <time>2017-02-19T09:00:21Z</time>
      </trkpt>
      <trkpt lat="43.31614" lon="-0.49123">
        <ele>243.35</ele>
        <time>2017-02-19T09:00:23Z</time>
      </trkpt>
      <trkpt lat="43.31637" lon="-0.49135">
        <ele>244.31</ele>
        <time>2017-02-19T09:00:33Z</time>
      </trkpt>
      <trkpt lat="43.31642" lon="-0.49139">
        <ele>244.79</ele>
        <time>2017-02-19T09:00:44Z</time>
      </trkpt>
      <trkpt lat="43.31644" lon="-0.49145">
        <ele>245.27</ele>
        <time>2017-02-19T09:00:58Z</time>
      </trkpt>
      <trkpt lat="43.31644" lon="-0.49148">
        <ele>244.31</ele>
        <time>2017-02-19T09:01:07Z</time>
      </trkpt>
      <trkpt lat="43.31666" lon="-0.49154">
        <ele>239.99</ele>
        <time>2017-02-19T09:01:19Z</time>
      </trkpt>
      <trkpt lat="43.3167" lon="-0.49158">
        <ele>239.02</ele>
        <time>2017-02-19T09:01:22Z</time>
      </trkpt>
      <trkpt lat="43.31672" lon="-0.4916">
        <ele>238.54</ele>
        <time>2017-02-19T09:01:24Z</time>
      </trkpt>
      <trkpt lat="43.31686" lon="-0.49169">
        <ele>239.99</ele>
        <time>2017-02-19T09:01:37Z</time>
      </trkpt>
      <trkpt lat="43.31706" lon="-0.49172">
        <ele>246.72</ele>
        <time>2017-02-19T09:01:51Z</time>
      </trkpt>
      <trkpt lat="43.31714" lon="-0.4917">
        <ele>249.6</ele>
        <time>2017-02-19T09:01:58Z</time>
      </trkpt>
      <trkpt lat="43.31731" lon="-0.49166">
        <ele>255.37</ele>
        <time>2017-02-19T09:02:13Z</time>
      </trkpt>
      <trkpt lat="43.31749" lon="-0.4916">
        <ele>259.69</ele>
        <time>2017-02-19T09:02:30Z</time>
      </trkpt>
      <trkpt lat="43.31756" lon="-0.49158">
        <ele>261.14</ele>
        <time>2017-02-19T09:02:36Z</time>
      </trkpt>
      <trkpt lat="43.31764" lon="-0.49162">
        <ele>261.62</ele>
        <time>2017-02-19T09:02:43Z</time>
      </trkpt>
      <trkpt lat="43.31766" lon="-0.49175">
        <ele>261.62</ele>
        <time>2017-02-19T09:02:51Z</time>
      </trkpt>
      <trkpt lat="43.31765" lon="-0.49189">
        <ele>261.14</ele>
        <time>2017-02-19T09:03:01Z</time>
      </trkpt>
      <trkpt lat="43.31767" lon="-0.49191">
        <ele>261.14</ele>
        <time>2017-02-19T09:03:03Z</time>
      </trkpt>
      <trkpt lat="43.3177" lon="-0.49196">
        <ele>262.1</ele>
        <time>2017-02-19T09:03:07Z</time>
      </trkpt>
      <trkpt lat="43.31777" lon="-0.49211">
        <ele>261.62</ele>
        <time>2017-02-19T09:03:15Z</time>
      </trkpt>
      <trkpt lat="43.3178" lon="-0.49235">
        <ele>258.25</ele>
        <time>2017-02-19T09:03:24Z</time>
      </trkpt>
      <trkpt lat="43.31786" lon="-0.49244">
        <ele>256.81</ele>
        <time>2017-02-19T09:03:29Z</time>
      </trkpt>
      <trkpt lat="43.31824" lon="-0.49248">
        <ele>255.85</ele>
        <time>2017-02-19T09:03:46Z</time>
      </trkpt>
      <trkpt lat="43.31855" lon="-0.49246">
        <ele>258.73</ele>
        <time>2017-02-19T09:04:01Z</time>
      </trkpt>
      <trkpt lat="43.31889" lon="-0.49245">
        <ele>259.69</ele>
        <time>2017-02-19T09:04:17Z</time>
      </trkpt>
      <trkpt lat="43.31928" lon="-0.4925">
        <ele>261.14</ele>
        <time>2017-02-19T09:04:34Z</time>
      </trkpt>
      <trkpt lat="43.31963" lon="-0.4926">
        <ele>259.21</ele>
        <time>2017-02-19T09:04:47Z</time>
      </trkpt>
      <trkpt lat="43.31971" lon="-0.49265">
        <ele>259.21</ele>
        <time>2017-02-19T09:04:50Z</time>
      </trkpt>
      <trkpt lat="43.31972" lon="-0.49268">
        <ele>259.21</ele>
        <time>2017-02-19T09:04:51Z</time>
      </trkpt>
      <trkpt lat="43.31972" lon="-0.49271">
        <ele>259.21</ele>
        <time>2017-02-19T09:04:52Z</time>
      </trkpt>
      <trkpt lat="43.31972" lon="-0.49273">
        <ele>259.21</ele>
        <time>2017-02-19T09:04:53Z</time>
      </trkpt>
      <trkpt lat="43.31971" lon="-0.49276">
        <ele>259.21</ele>
        <time>2017-02-19T09:04:54Z</time>
      </trkpt>
      <trkpt lat="43.31944" lon="-0.49299">
        <ele>257.77</ele>
        <time>2017-02-19T09:05:04Z</time>
      </trkpt>
      <trkpt lat="43.31915" lon="-0.493">
        <ele>252.96</ele>
        <time>2017-02-19T09:05:11Z</time>
      </trkpt>
      <trkpt lat="43.31909" lon="-0.49301">
        <ele>252</ele>
        <time>2017-02-19T09:05:12Z</time>
      </trkpt>
      <trkpt lat="43.31904" lon="-0.49302">
        <ele>251.04</ele>
        <time>2017-02-19T09:05:13Z</time>
      </trkpt>
      <trkpt lat="43.31868" lon="-0.49316">
        <ele>243.83</ele>
        <time>2017-02-19T09:05:21Z</time>
      </trkpt>
      <trkpt lat="43.31863" lon="-0.49317">
        <ele>242.39</ele>
        <time>2017-02-19T09:05:22Z</time>
      </trkpt>
      <trkpt lat="43.31843" lon="-0.49318">
        <ele>239.02</ele>
        <time>2017-02-19T09:05:25Z</time>
      </trkpt>
      <trkpt lat="43.31839" lon="-0.49319">
        <ele>238.06</ele>
        <time>2017-02-19T09:05:26Z</time>
      </trkpt>
      <trkpt lat="43.31835" lon="-0.49321">
        <ele>237.1</ele>
        <time>2017-02-19T09:05:27Z</time>
      </trkpt>
      <trkpt lat="43.31833" lon="-0.49323">
        <ele>236.14</ele>
        <time>2017-02-19T09:05:28Z</time>
      </trkpt>
      <trkpt lat="43.3183" lon="-0.49327">
        <ele>235.18</ele>
        <time>2017-02-19T09:05:29Z</time>
      </trkpt>
      <trkpt lat="43.31805" lon="-0.49358">
        <ele>229.89</ele>
        <time>2017-02-19T09:05:38Z</time>
      </trkpt>
      <trkpt lat="43.31803" lon="-0.4936">
        <ele>229.41</ele>
        <time>2017-02-19T09:05:39Z</time>
      </trkpt>
      <trkpt lat="43.31792" lon="-0.49369">
        <ele>227.49</ele>
        <time>2017-02-19T09:05:56Z</time>
      </trkpt>
      <trkpt lat="43.31786" lon="-0.49375">
        <ele>229.89</ele>
        <time>2017-02-19T09:06:20Z</time>
      </trkpt>
      <trkpt lat="43.31785" lon="-0.4938">
        <ele>233.26</ele>
        <time>2017-02-19T09:06:58Z</time>
      </trkpt>
      <trkpt lat="43.31778" lon="-0.49377">
        <ele>244.79</ele>
        <time>2017-02-19T09:07:36Z</time>
      </trkpt>
      <trkpt lat="43.31772" lon="-0.49374">
        <ele>252.96</ele>
        <time>2017-02-19T09:08:14Z</time>
      </trkpt>
      <trkpt lat="43.31774" lon="-0.49384">
        <ele>254.89</ele>
        <time>2017-02-19T09:09:02Z</time>
      </trkpt>
      <trkpt lat="43.3177" lon="-0.49388">
        <ele>252.96</ele>
        <time>2017-02-19T09:09:43Z</time>
      </trkpt>
      <trkpt lat="43.31778" lon="-0.49385">
        <ele>247.2</ele>
        <time>2017-02-19T09:10:24Z</time>
      </trkpt>
      <trkpt lat="43.31781" lon="-0.4938">
        <ele>241.91</ele>
        <time>2017-02-19T09:11:08Z</time>
      </trkpt>
      <trkpt lat="43.3178" lon="-0.49377">
        <ele>244.31</ele>
        <time>2017-02-19T09:11:41Z</time>
      </trkpt>
      <trkpt lat="43.31777" lon="-0.49384">
        <ele>244.31</ele>
        <time>2017-02-19T09:12:11Z</time>
      </trkpt>
      <trkpt lat="43.31776" lon="-0.49384">
        <ele>244.79</ele>
        <time>2017-02-19T09:12:47Z</time>
      </trkpt>
      <trkpt lat="43.31776" lon="-0.49383">
        <ele>248.16</ele>
        <time>2017-02-19T09:13:18Z</time>
      </trkpt>
      <trkpt lat="43.31776" lon="-0.49387">
        <ele>248.64</ele>
        <time>2017-02-19T09:13:46Z</time>
      </trkpt>
      <trkpt lat="43.31774" lon="-0.49398">
        <ele>249.6</ele>
        <time>2017-02-19T09:14:34Z</time>
      </trkpt>
      <trkpt lat="43.31778" lon="-0.49395">
        <ele>251.52</ele>
        <time>2017-02-19T09:15:09Z</time>
      </trkpt>
      <trkpt lat="43.31781" lon="-0.49395">
        <ele>248.16</ele>
        <time>2017-02-19T09:15:36Z</time>
      </trkpt>
      <trkpt lat="43.3179" lon="-0.49395">
        <ele>251.04</ele>
        <time>2017-02-19T09:15:48Z</time>
      </trkpt>
      <trkpt lat="43.31792" lon="-0.494">
        <ele>252.96</ele>
        <time>2017-02-19T09:15:59Z</time>
      </trkpt>
      <trkpt lat="43.31793" lon="-0.49408">
        <ele>254.89</ele>
        <time>2017-02-19T09:16:12Z</time>
      </trkpt>
      <trkpt lat="43.31796" lon="-0.49425">
        <ele>255.37</ele>
        <time>2017-02-19T09:16:27Z</time>
      </trkpt>
      <trkpt lat="43.31796" lon="-0.49445">
        <ele>251.52</ele>
        <time>2017-02-19T09:16:42Z</time>
      </trkpt>
      <trkpt lat="43.31804" lon="-0.49464">
        <ele>247.68</ele>
        <time>2017-02-19T09:16:52Z</time>
      </trkpt>
      <trkpt lat="43.31814" lon="-0.49471">
        <ele>248.16</ele>
        <time>2017-02-19T09:16:59Z</time>
      </trkpt>
      <trkpt lat="43.31815" lon="-0.49473">
        <ele>248.16</ele>
        <time>2017-02-19T09:17:00Z</time>
      </trkpt>
      <trkpt lat="43.31817" lon="-0.49474">
        <ele>248.16</ele>
        <time>2017-02-19T09:17:01Z</time>
      </trkpt>
      <trkpt lat="43.31819" lon="-0.49475">
        <ele>248.16</ele>
        <time>2017-02-19T09:17:02Z</time>
      </trkpt>
      <trkpt lat="43.3182" lon="-0.49477">
        <ele>248.16</ele>
        <time>2017-02-19T09:17:03Z</time>
      </trkpt>
      <trkpt lat="43.31823" lon="-0.49479">
        <ele>248.16</ele>
        <time>2017-02-19T09:17:04Z</time>
      </trkpt>
      <trkpt lat="43.31852" lon="-0.49499">
        <ele>247.68</ele>
        <time>2017-02-19T09:17:17Z</time>
      </trkpt>
      <trkpt lat="43.31882" lon="-0.49513">
        <ele>246.72</ele>
        <time>2017-02-19T09:17:28Z</time>
      </trkpt>
      <trkpt lat="43.3191" lon="-0.49538">
        <ele>245.27</ele>
        <time>2017-02-19T09:17:39Z</time>
      </trkpt>
      <trkpt lat="43.31933" lon="-0.49568">
        <ele>240.47</ele>
        <time>2017-02-19T09:17:50Z</time>
      </trkpt>
      <trkpt lat="43.31938" lon="-0.49587">
        <ele>238.54</ele>
        <time>2017-02-19T09:17:57Z</time>
      </trkpt>
      <trkpt lat="43.31938" lon="-0.4959">
        <ele>238.06</ele>
        <time>2017-02-19T09:17:58Z</time>
      </trkpt>
      <trkpt lat="43.31921" lon="-0.49607">
        <ele>236.14</ele>
        <time>2017-02-19T09:18:08Z</time>
      </trkpt>
      <trkpt lat="43.31898" lon="-0.49621">
        <ele>237.1</ele>
        <time>2017-02-19T09:18:20Z</time>
      </trkpt>
      <trkpt lat="43.31872" lon="-0.49638">
        <ele>240.47</ele>
        <time>2017-02-19T09:18:32Z</time>
      </trkpt>
      <trkpt lat="43.31866" lon="-0.49643">
        <ele>241.91</ele>
        <time>2017-02-19T09:18:36Z</time>
      </trkpt>
      <trkpt lat="43.31851" lon="-0.49665">
        <ele>245.75</ele>
        <time>2017-02-19T09:18:47Z</time>
      </trkpt>
      <trkpt lat="43.31848" lon="-0.49671">
        <ele>246.23</ele>
        <time>2017-02-19T09:18:49Z</time>
      </trkpt>
      <trkpt lat="43.31847" lon="-0.49673">
        <ele>246.72</ele>
        <time>2017-02-19T09:18:50Z</time>
      </trkpt>
      <trkpt lat="43.31845" lon="-0.49675">
        <ele>246.72</ele>
        <time>2017-02-19T09:18:51Z</time>
      </trkpt>
      <trkpt lat="43.31838" lon="-0.49685">
        <ele>247.68</ele>
        <time>2017-02-19T09:18:55Z</time>
      </trkpt>
      <trkpt lat="43.31837" lon="-0.49686">
        <ele>248.64</ele>
        <time>2017-02-19T09:18:56Z</time>
      </trkpt>
      <trkpt lat="43.31835" lon="-0.49688">
        <ele>249.12</ele>
        <time>2017-02-19T09:18:57Z</time>
      </trkpt>
      <trkpt lat="43.31834" lon="-0.4969">
        <ele>249.6</ele>
        <time>2017-02-19T09:18:58Z</time>
      </trkpt>
      <trkpt lat="43.31832" lon="-0.49692">
        <ele>250.08</ele>
        <time>2017-02-19T09:18:59Z</time>
      </trkpt>
      <trkpt lat="43.3181" lon="-0.49701">
        <ele>252.96</ele>
        <time>2017-02-19T09:19:10Z</time>
      </trkpt>
      <trkpt lat="43.31808" lon="-0.49702">
        <ele>252.96</ele>
        <time>2017-02-19T09:19:11Z</time>
      </trkpt>
      <trkpt lat="43.31807" lon="-0.49702">
        <ele>252.96</ele>
        <time>2017-02-19T09:19:12Z</time>
      </trkpt>
      <trkpt lat="43.31803" lon="-0.49702">
        <ele>252.48</ele>
        <time>2017-02-19T09:19:15Z</time>
      </trkpt>
      <trkpt lat="43.31802" lon="-0.49702">
        <ele>252.48</ele>
        <time>2017-02-19T09:19:16Z</time>
      </trkpt>
      <trkpt lat="43.318" lon="-0.49703">
        <ele>252.48</ele>
        <time>2017-02-19T09:19:17Z</time>
      </trkpt>
      <trkpt lat="43.31798" lon="-0.49703">
        <ele>252.48</ele>
        <time>2017-02-19T09:19:18Z</time>
      </trkpt>
      <trkpt lat="43.31796" lon="-0.49704">
        <ele>252.96</ele>
        <time>2017-02-19T09:19:19Z</time>
      </trkpt>
      <trkpt lat="43.31789" lon="-0.49708">
        <ele>254.89</ele>
        <time>2017-02-19T09:19:28Z</time>
      </trkpt>
      <trkpt lat="43.31788" lon="-0.49708">
        <ele>257.29</ele>
        <time>2017-02-19T09:19:33Z</time>
      </trkpt>
      <trkpt lat="43.31779" lon="-0.49711">
        <ele>254.89</ele>
        <time>2017-02-19T09:19:42Z</time>
      </trkpt>
      <trkpt lat="43.31777" lon="-0.49711">
        <ele>254.89</ele>
        <time>2017-02-19T09:19:43Z</time>
      </trkpt>
      <trkpt lat="43.31761" lon="-0.49718">
        <ele>254.89</ele>
        <time>2017-02-19T09:19:56Z</time>
      </trkpt>
      <trkpt lat="43.31758" lon="-0.49719">
        <ele>256.33</ele>
        <time>2017-02-19T09:20:02Z</time>
      </trkpt>
      <trkpt lat="43.31757" lon="-0.4972">
        <ele>256.81</ele>
        <time>2017-02-19T09:20:03Z</time>
      </trkpt>
      <trkpt lat="43.31755" lon="-0.4972">
        <ele>256.33</ele>
        <time>2017-02-19T09:20:04Z</time>
      </trkpt>
      <trkpt lat="43.31754" lon="-0.49722">
        <ele>256.33</ele>
        <time>2017-02-19T09:20:05Z</time>
      </trkpt>
      <trkpt lat="43.31752" lon="-0.49723">
        <ele>256.33</ele>
        <time>2017-02-19T09:20:06Z</time>
      </trkpt>
      <trkpt lat="43.3175" lon="-0.49724">
        <ele>256.33</ele>
        <time>2017-02-19T09:20:07Z</time>
      </trkpt>
      <trkpt lat="43.31748" lon="-0.49726">
        <ele>256.33</ele>
        <time>2017-02-19T09:20:08Z</time>
      </trkpt>
      <trkpt lat="43.31747" lon="-0.49728">
        <ele>256.33</ele>
        <time>2017-02-19T09:20:09Z</time>
      </trkpt>
      <trkpt lat="43.31744" lon="-0.49729">
        <ele>256.33</ele>
        <time>2017-02-19T09:20:10Z</time>
      </trkpt>
      <trkpt lat="43.31742" lon="-0.49731">
        <ele>256.33</ele>
        <time>2017-02-19T09:20:11Z</time>
      </trkpt>
      <trkpt lat="43.31726" lon="-0.49738">
        <ele>254.89</ele>
        <time>2017-02-19T09:20:21Z</time>
      </trkpt>
      <trkpt lat="43.3173" lon="-0.49758">
        <ele>252.96</ele>
        <time>2017-02-19T09:20:29Z</time>
      </trkpt>
      <trkpt lat="43.31745" lon="-0.49788">
        <ele>246.72</ele>
        <time>2017-02-19T09:20:41Z</time>
      </trkpt>
      <trkpt lat="43.31745" lon="-0.49793">
        <ele>244.79</ele>
        <time>2017-02-19T09:20:44Z</time>
      </trkpt>
      <trkpt lat="43.31736" lon="-0.49817">
        <ele>242.39</ele>
        <time>2017-02-19T09:20:59Z</time>
      </trkpt>
      <trkpt lat="43.3173" lon="-0.49829">
        <ele>243.83</ele>
        <time>2017-02-19T09:21:13Z</time>
      </trkpt>
      <trkpt lat="43.31729" lon="-0.49831">
        <ele>246.23</ele>
        <time>2017-02-19T09:21:30Z</time>
      </trkpt>
      <trkpt lat="43.31728" lon="-0.49833">
        <ele>247.2</ele>
        <time>2017-02-19T09:21:34Z</time>
      </trkpt>
      <trkpt lat="43.31721" lon="-0.49854">
        <ele>246.72</ele>
        <time>2017-02-19T09:21:50Z</time>
      </trkpt>
      <trkpt lat="43.31718" lon="-0.4987">
        <ele>245.75</ele>
        <time>2017-02-19T09:22:02Z</time>
      </trkpt>
      <trkpt lat="43.31713" lon="-0.49891">
        <ele>250.08</ele>
        <time>2017-02-19T09:22:14Z</time>
      </trkpt>
      <trkpt lat="43.31709" lon="-0.49915">
        <ele>253.93</ele>
        <time>2017-02-19T09:22:28Z</time>
      </trkpt>
      <trkpt lat="43.31707" lon="-0.49921">
        <ele>255.37</ele>
        <time>2017-02-19T09:22:32Z</time>
      </trkpt>
      <trkpt lat="43.31704" lon="-0.49932">
        <ele>255.85</ele>
        <time>2017-02-19T09:22:39Z</time>
      </trkpt>
      <trkpt lat="43.31704" lon="-0.49936">
        <ele>255.37</ele>
        <time>2017-02-19T09:22:54Z</time>
      </trkpt>
      <trkpt lat="43.31703" lon="-0.49935">
        <ele>255.37</ele>
        <time>2017-02-19T09:23:02Z</time>
      </trkpt>
      <trkpt lat="43.31699" lon="-0.49931">
        <ele>253.93</ele>
        <time>2017-02-19T09:23:10Z</time>
      </trkpt>
      <trkpt lat="43.31702" lon="-0.49935">
        <ele>253.93</ele>
        <time>2017-02-19T09:23:14Z</time>
      </trkpt>
      <trkpt lat="43.31721" lon="-0.49951">
        <ele>253.44</ele>
        <time>2017-02-19T09:23:22Z</time>
      </trkpt>
      <trkpt lat="43.31729" lon="-0.49957">
        <ele>252.48</ele>
        <time>2017-02-19T09:23:24Z</time>
      </trkpt>
      <trkpt lat="43.31788" lon="-0.50002">
        <ele>245.27</ele>
        <time>2017-02-19T09:23:32Z</time>
      </trkpt>
      <trkpt lat="43.31811" lon="-0.50025">
        <ele>243.83</ele>
        <time>2017-02-19T09:23:35Z</time>
      </trkpt>
      <trkpt lat="43.31818" lon="-0.50029">
        <ele>243.83</ele>
        <time>2017-02-19T09:23:36Z</time>
      </trkpt>
      <trkpt lat="43.31826" lon="-0.50032">
        <ele>243.83</ele>
        <time>2017-02-19T09:23:37Z</time>
      </trkpt>
      <trkpt lat="43.31833" lon="-0.50033">
        <ele>243.83</ele>
        <time>2017-02-19T09:23:38Z</time>
      </trkpt>
      <trkpt lat="43.3184" lon="-0.50033">
        <ele>243.35</ele>
        <time>2017-02-19T09:23:39Z</time>
      </trkpt>
      <trkpt lat="43.31867" lon="-0.50032">
        <ele>245.27</ele>
        <time>2017-02-19T09:23:47Z</time>
      </trkpt>
      <trkpt lat="43.319" lon="-0.50051">
        <ele>249.12</ele>
        <time>2017-02-19T09:24:03Z</time>
      </trkpt>
      <trkpt lat="43.31926" lon="-0.50077">
        <ele>247.68</ele>
        <time>2017-02-19T09:24:12Z</time>
      </trkpt>
      <trkpt lat="43.31929" lon="-0.50081">
        <ele>247.68</ele>
        <time>2017-02-19T09:24:13Z</time>
      </trkpt>
      <trkpt lat="43.31933" lon="-0.50086">
        <ele>247.2</ele>
        <time>2017-02-19T09:24:14Z</time>
      </trkpt>
      <trkpt lat="43.31943" lon="-0.50096">
        <ele>246.23</ele>
        <time>2017-02-19T09:24:16Z</time>
      </trkpt>
      <trkpt lat="43.3199" lon="-0.50166">
        <ele>241.91</ele>
        <time>2017-02-19T09:24:25Z</time>
      </trkpt>
      <trkpt lat="43.31993" lon="-0.50175">
        <ele>241.91</ele>
        <time>2017-02-19T09:24:26Z</time>
      </trkpt>
      <trkpt lat="43.32028" lon="-0.50272">
        <ele>239.99</ele>
        <time>2017-02-19T09:24:37Z</time>
      </trkpt>
      <trkpt lat="43.32037" lon="-0.5029">
        <ele>239.02</ele>
        <time>2017-02-19T09:24:39Z</time>
      </trkpt>
      <trkpt lat="43.32042" lon="-0.50297">
        <ele>238.54</ele>
        <time>2017-02-19T09:24:40Z</time>
      </trkpt>
      <trkpt lat="43.32047" lon="-0.50304">
        <ele>238.06</ele>
        <time>2017-02-19T09:24:41Z</time>
      </trkpt>
      <trkpt lat="43.32052" lon="-0.50309">
        <ele>238.06</ele>
        <time>2017-02-19T09:24:42Z</time>
      </trkpt>
      <trkpt lat="43.32056" lon="-0.50313">
        <ele>238.06</ele>
        <time>2017-02-19T09:24:43Z</time>
      </trkpt>
      <trkpt lat="43.32072" lon="-0.50327">
        <ele>238.54</ele>
        <time>2017-02-19T09:24:51Z</time>
      </trkpt>
      <trkpt lat="43.32093" lon="-0.50364">
        <ele>242.39</ele>
        <time>2017-02-19T09:25:06Z</time>
      </trkpt>
      <trkpt lat="43.32107" lon="-0.50404">
        <ele>246.23</ele>
        <time>2017-02-19T09:25:23Z</time>
      </trkpt>
      <trkpt lat="43.3212" lon="-0.50442">
        <ele>249.6</ele>
        <time>2017-02-19T09:25:38Z</time>
      </trkpt>
      <trkpt lat="43.32134" lon="-0.50475">
        <ele>251.52</ele>
        <time>2017-02-19T09:25:53Z</time>
      </trkpt>
      <trkpt lat="43.32153" lon="-0.5051">
        <ele>253.44</ele>
        <time>2017-02-19T09:26:07Z</time>
      </trkpt>
      <trkpt lat="43.32184" lon="-0.50582">
        <ele>252.48</ele>
        <time>2017-02-19T09:26:22Z</time>
      </trkpt>
      <trkpt lat="43.32219" lon="-0.50638">
        <ele>253.44</ele>
        <time>2017-02-19T09:26:37Z</time>
      </trkpt>
      <trkpt lat="43.32281" lon="-0.50695">
        <ele>248.64</ele>
        <time>2017-02-19T09:26:50Z</time>
      </trkpt>
      <trkpt lat="43.32342" lon="-0.50753">
        <ele>247.68</ele>
        <time>2017-02-19T09:27:03Z</time>
      </trkpt>
      <trkpt lat="43.32378" lon="-0.50803">
        <ele>249.12</ele>
        <time>2017-02-19T09:27:18Z</time>
      </trkpt>
      <trkpt lat="43.32412" lon="-0.50855">
        <ele>253.44</ele>
        <time>2017-02-19T09:27:33Z</time>
      </trkpt>
      <trkpt lat="43.3243" lon="-0.50904">
        <ele>254.89</ele>
        <time>2017-02-19T09:27:46Z</time>
      </trkpt>
      <trkpt lat="43.3245" lon="-0.50956">
        <ele>256.81</ele>
        <time>2017-02-19T09:28:00Z</time>
      </trkpt>
      <trkpt lat="43.32472" lon="-0.50982">
        <ele>260.65</ele>
        <time>2017-02-19T09:28:14Z</time>
      </trkpt>
      <trkpt lat="43.32484" lon="-0.5102">
        <ele>264.02</ele>
        <time>2017-02-19T09:28:29Z</time>
      </trkpt>
      <trkpt lat="43.32494" lon="-0.51071">
        <ele>264.02</ele>
        <time>2017-02-19T09:28:43Z</time>
      </trkpt>
      <trkpt lat="43.32529" lon="-0.51131">
        <ele>263.54</ele>
        <time>2017-02-19T09:28:59Z</time>
      </trkpt>
      <trkpt lat="43.32576" lon="-0.51185">
        <ele>261.62</ele>
        <time>2017-02-19T09:29:17Z</time>
      </trkpt>
      <trkpt lat="43.32598" lon="-0.51207">
        <ele>260.65</ele>
        <time>2017-02-19T09:29:24Z</time>
      </trkpt>
      <trkpt lat="43.32665" lon="-0.51265">
        <ele>256.33</ele>
        <time>2017-02-19T09:29:39Z</time>
      </trkpt>
      <trkpt lat="43.32738" lon="-0.51323">
        <ele>252</ele>
        <time>2017-02-19T09:29:50Z</time>
      </trkpt>
      <trkpt lat="43.32779" lon="-0.51365">
        <ele>252</ele>
        <time>2017-02-19T09:29:58Z</time>
      </trkpt>
      <trkpt lat="43.32784" lon="-0.51369">
        <ele>252</ele>
        <time>2017-02-19T09:29:59Z</time>
      </trkpt>
      <trkpt lat="43.32813" lon="-0.51402">
        <ele>254.41</ele>
        <time>2017-02-19T09:30:10Z</time>
      </trkpt>
      <trkpt lat="43.32842" lon="-0.51429">
        <ele>255.85</ele>
        <time>2017-02-19T09:30:23Z</time>
      </trkpt>
      <trkpt lat="43.3288" lon="-0.51468">
        <ele>257.29</ele>
        <time>2017-02-19T09:30:39Z</time>
      </trkpt>
      <trkpt lat="43.32921" lon="-0.51506">
        <ele>257.77</ele>
        <time>2017-02-19T09:30:55Z</time>
      </trkpt>
      <trkpt lat="43.32948" lon="-0.51531">
        <ele>255.85</ele>
        <time>2017-02-19T09:31:09Z</time>
      </trkpt>
      <trkpt lat="43.32946" lon="-0.51531">
        <ele>256.81</ele>
        <time>2017-02-19T09:31:17Z</time>
      </trkpt>
      <trkpt lat="43.32924" lon="-0.51508">
        <ele>258.25</ele>
        <time>2017-02-19T09:31:29Z</time>
      </trkpt>
      <trkpt lat="43.32889" lon="-0.51476">
        <ele>257.77</ele>
        <time>2017-02-19T09:31:43Z</time>
      </trkpt>
      <trkpt lat="43.32848" lon="-0.51432">
        <ele>256.33</ele>
        <time>2017-02-19T09:31:58Z</time>
      </trkpt>
      <trkpt lat="43.32847" lon="-0.51429">
        <ele>255.85</ele>
        <time>2017-02-19T09:31:59Z</time>
      </trkpt>
      <trkpt lat="43.32848" lon="-0.51426">
        <ele>255.85</ele>
        <time>2017-02-19T09:32:00Z</time>
      </trkpt>
      <trkpt lat="43.32849" lon="-0.51424">
        <ele>256.33</ele>
        <time>2017-02-19T09:32:01Z</time>
      </trkpt>
      <trkpt lat="43.32851" lon="-0.51422">
        <ele>256.33</ele>
        <time>2017-02-19T09:32:02Z</time>
      </trkpt>
      <trkpt lat="43.32852" lon="-0.51421">
        <ele>256.33</ele>
        <time>2017-02-19T09:32:03Z</time>
      </trkpt>
      <trkpt lat="43.32854" lon="-0.51424">
        <ele>257.29</ele>
        <time>2017-02-19T09:32:18Z</time>
      </trkpt>
      <trkpt lat="43.32856" lon="-0.51424">
        <ele>259.21</ele>
        <time>2017-02-19T09:32:33Z</time>
      </trkpt>
      <trkpt lat="43.32894" lon="-0.5144">
        <ele>259.21</ele>
        <time>2017-02-19T09:32:46Z</time>
      </trkpt>
      <trkpt lat="43.32929" lon="-0.51467">
        <ele>256.81</ele>
        <time>2017-02-19T09:32:56Z</time>
      </trkpt>
      <trkpt lat="43.32933" lon="-0.51472">
        <ele>256.33</ele>
        <time>2017-02-19T09:32:57Z</time>
      </trkpt>
      <trkpt lat="43.32964" lon="-0.51514">
        <ele>252.96</ele>
        <time>2017-02-19T09:33:03Z</time>
      </trkpt>
      <trkpt lat="43.33035" lon="-0.51602">
        <ele>247.68</ele>
        <time>2017-02-19T09:33:15Z</time>
      </trkpt>
      <trkpt lat="43.33042" lon="-0.51608">
        <ele>247.68</ele>
        <time>2017-02-19T09:33:16Z</time>
      </trkpt>
      <trkpt lat="43.33049" lon="-0.51613">
        <ele>247.68</ele>
        <time>2017-02-19T09:33:17Z</time>
      </trkpt>
      <trkpt lat="43.33055" lon="-0.51618">
        <ele>247.2</ele>
        <time>2017-02-19T09:33:18Z</time>
      </trkpt>
      <trkpt lat="43.33073" lon="-0.51637">
        <ele>245.75</ele>
        <time>2017-02-19T09:33:21Z</time>
      </trkpt>
      <trkpt lat="43.33105" lon="-0.51682">
        <ele>239.99</ele>
        <time>2017-02-19T09:33:29Z</time>
      </trkpt>
      <trkpt lat="43.3311" lon="-0.51687">
        <ele>238.54</ele>
        <time>2017-02-19T09:33:30Z</time>
      </trkpt>
      <trkpt lat="43.33116" lon="-0.51691">
        <ele>237.58</ele>
        <time>2017-02-19T09:33:31Z</time>
      </trkpt>
      <trkpt lat="43.33129" lon="-0.51701">
        <ele>234.7</ele>
        <time>2017-02-19T09:33:34Z</time>
      </trkpt>
      <trkpt lat="43.33132" lon="-0.51704">
        <ele>233.74</ele>
        <time>2017-02-19T09:33:35Z</time>
      </trkpt>
      <trkpt lat="43.33133" lon="-0.51707">
        <ele>232.78</ele>
        <time>2017-02-19T09:33:36Z</time>
      </trkpt>
      <trkpt lat="43.33134" lon="-0.51711">
        <ele>231.81</ele>
        <time>2017-02-19T09:33:37Z</time>
      </trkpt>
      <trkpt lat="43.33135" lon="-0.51716">
        <ele>230.85</ele>
        <time>2017-02-19T09:33:38Z</time>
      </trkpt>
      <trkpt lat="43.33134" lon="-0.51731">
        <ele>227.49</ele>
        <time>2017-02-19T09:33:46Z</time>
      </trkpt>
      <trkpt lat="43.33134" lon="-0.51733">
        <ele>227.49</ele>
        <time>2017-02-19T09:33:48Z</time>
      </trkpt>
      <trkpt lat="43.33135" lon="-0.51737">
        <ele>227.49</ele>
        <time>2017-02-19T09:33:49Z</time>
      </trkpt>
      <trkpt lat="43.33136" lon="-0.51741">
        <ele>227.49</ele>
        <time>2017-02-19T09:33:50Z</time>
      </trkpt>
      <trkpt lat="43.33137" lon="-0.51746">
        <ele>227.49</ele>
        <time>2017-02-19T09:33:51Z</time>
      </trkpt>
      <trkpt lat="43.33138" lon="-0.51752">
        <ele>227.49</ele>
        <time>2017-02-19T09:33:52Z</time>
      </trkpt>
      <trkpt lat="43.33141" lon="-0.51758">
        <ele>227.49</ele>
        <time>2017-02-19T09:33:53Z</time>
      </trkpt>
      <trkpt lat="43.33144" lon="-0.51765">
        <ele>227.01</ele>
        <time>2017-02-19T09:33:54Z</time>
      </trkpt>
      <trkpt lat="43.33147" lon="-0.51771">
        <ele>227.01</ele>
        <time>2017-02-19T09:33:55Z</time>
      </trkpt>
      <trkpt lat="43.3315" lon="-0.51776">
        <ele>226.53</ele>
        <time>2017-02-19T09:33:56Z</time>
      </trkpt>
      <trkpt lat="43.33169" lon="-0.51802">
        <ele>225.09</ele>
        <time>2017-02-19T09:34:02Z</time>
      </trkpt>
      <trkpt lat="43.33173" lon="-0.51808">
        <ele>225.09</ele>
        <time>2017-02-19T09:34:03Z</time>
      </trkpt>
      <trkpt lat="43.3318" lon="-0.51818">
        <ele>224.61</ele>
        <time>2017-02-19T09:34:05Z</time>
      </trkpt>
      <trkpt lat="43.33183" lon="-0.51823">
        <ele>224.61</ele>
        <time>2017-02-19T09:34:06Z</time>
      </trkpt>
      <trkpt lat="43.33203" lon="-0.51873">
        <ele>223.64</ele>
        <time>2017-02-19T09:34:14Z</time>
      </trkpt>
      <trkpt lat="43.33222" lon="-0.51927">
        <ele>221.72</ele>
        <time>2017-02-19T09:34:24Z</time>
      </trkpt>
      <trkpt lat="43.33223" lon="-0.51933">
        <ele>221.72</ele>
        <time>2017-02-19T09:34:25Z</time>
      </trkpt>
      <trkpt lat="43.33223" lon="-0.51938">
        <ele>221.72</ele>
        <time>2017-02-19T09:34:26Z</time>
      </trkpt>
      <trkpt lat="43.33227" lon="-0.52003">
        <ele>223.16</ele>
        <time>2017-02-19T09:34:39Z</time>
      </trkpt>
      <trkpt lat="43.33226" lon="-0.52064">
        <ele>224.12</ele>
        <time>2017-02-19T09:34:50Z</time>
      </trkpt>
      <trkpt lat="43.33223" lon="-0.5208">
        <ele>223.64</ele>
        <time>2017-02-19T09:34:53Z</time>
      </trkpt>
      <trkpt lat="43.33222" lon="-0.52085">
        <ele>223.16</ele>
        <time>2017-02-19T09:34:54Z</time>
      </trkpt>
      <trkpt lat="43.33211" lon="-0.52139">
        <ele>221.24</ele>
        <time>2017-02-19T09:35:04Z</time>
      </trkpt>
      <trkpt lat="43.33213" lon="-0.52161">
        <ele>221.24</ele>
        <time>2017-02-19T09:35:10Z</time>
      </trkpt>
      <trkpt lat="43.33211" lon="-0.52168">
        <ele>220.28</ele>
        <time>2017-02-19T09:35:14Z</time>
      </trkpt>
      <trkpt lat="43.3321" lon="-0.52177">
        <ele>218.36</ele>
        <time>2017-02-19T09:35:29Z</time>
      </trkpt>
      <trkpt lat="43.33216" lon="-0.52185">
        <ele>223.16</ele>
        <time>2017-02-19T09:35:42Z</time>
      </trkpt>
      <trkpt lat="43.33217" lon="-0.52196">
        <ele>226.05</ele>
        <time>2017-02-19T09:35:51Z</time>
      </trkpt>
      <trkpt lat="43.33217" lon="-0.52198">
        <ele>226.05</ele>
        <time>2017-02-19T09:35:52Z</time>
      </trkpt>
      <trkpt lat="43.33217" lon="-0.522">
        <ele>226.53</ele>
        <time>2017-02-19T09:35:53Z</time>
      </trkpt>
      <trkpt lat="43.3322" lon="-0.52213">
        <ele>227.97</ele>
        <time>2017-02-19T09:36:02Z</time>
      </trkpt>
      <trkpt lat="43.33218" lon="-0.52228">
        <ele>228.45</ele>
        <time>2017-02-19T09:36:10Z</time>
      </trkpt>
      <trkpt lat="43.33219" lon="-0.5224">
        <ele>228.45</ele>
        <time>2017-02-19T09:36:16Z</time>
      </trkpt>
      <trkpt lat="43.33231" lon="-0.52279">
        <ele>232.3</ele>
        <time>2017-02-19T09:36:31Z</time>
      </trkpt>
      <trkpt lat="43.33236" lon="-0.52288">
        <ele>232.78</ele>
        <time>2017-02-19T09:36:35Z</time>
      </trkpt>
      <trkpt lat="43.33243" lon="-0.52292">
        <ele>232.3</ele>
        <time>2017-02-19T09:36:40Z</time>
      </trkpt>
      <trkpt lat="43.3325" lon="-0.52303">
        <ele>232.3</ele>
        <time>2017-02-19T09:36:48Z</time>
      </trkpt>
      <trkpt lat="43.33253" lon="-0.52319">
        <ele>226.53</ele>
        <time>2017-02-19T09:37:00Z</time>
      </trkpt>
      <trkpt lat="43.33254" lon="-0.5232">
        <ele>225.09</ele>
        <time>2017-02-19T09:37:04Z</time>
      </trkpt>
      <trkpt lat="43.33257" lon="-0.52326">
        <ele>225.09</ele>
        <time>2017-02-19T09:37:08Z</time>
      </trkpt>
      <trkpt lat="43.33267" lon="-0.52354">
        <ele>225.57</ele>
        <time>2017-02-19T09:37:22Z</time>
      </trkpt>
      <trkpt lat="43.33269" lon="-0.52362">
        <ele>224.12</ele>
        <time>2017-02-19T09:37:34Z</time>
      </trkpt>
      <trkpt lat="43.33276" lon="-0.52373">
        <ele>224.61</ele>
        <time>2017-02-19T09:37:47Z</time>
      </trkpt>
      <trkpt lat="43.33279" lon="-0.52374">
        <ele>224.61</ele>
        <time>2017-02-19T09:37:49Z</time>
      </trkpt>
      <trkpt lat="43.3329" lon="-0.52377">
        <ele>222.68</ele>
        <time>2017-02-19T09:37:59Z</time>
      </trkpt>
      <trkpt lat="43.33292" lon="-0.52382">
        <ele>222.2</ele>
        <time>2017-02-19T09:38:03Z</time>
      </trkpt>
      <trkpt lat="43.33297" lon="-0.52394">
        <ele>222.68</ele>
        <time>2017-02-19T09:38:14Z</time>
      </trkpt>
      <trkpt lat="43.33305" lon="-0.524">
        <ele>227.49</ele>
        <time>2017-02-19T09:38:31Z</time>
      </trkpt>
      <trkpt lat="43.33311" lon="-0.52403">
        <ele>235.18</ele>
        <time>2017-02-19T09:38:46Z</time>
      </trkpt>
      <trkpt lat="43.33313" lon="-0.52401">
        <ele>233.74</ele>
        <time>2017-02-19T09:39:01Z</time>
      </trkpt>
      <trkpt lat="43.33315" lon="-0.52389">
        <ele>231.81</ele>
        <time>2017-02-19T09:39:16Z</time>
      </trkpt>
      <trkpt lat="43.33317" lon="-0.52384">
        <ele>233.74</ele>
        <time>2017-02-19T09:39:32Z</time>
      </trkpt>
      <trkpt lat="43.33318" lon="-0.52376">
        <ele>231.81</ele>
        <time>2017-02-19T09:39:52Z</time>
      </trkpt>
      <trkpt lat="43.3332" lon="-0.52368">
        <ele>233.74</ele>
        <time>2017-02-19T09:40:07Z</time>
      </trkpt>
      <trkpt lat="43.33327" lon="-0.52361">
        <ele>235.18</ele>
        <time>2017-02-19T09:40:19Z</time>
      </trkpt>
      <trkpt lat="43.33336" lon="-0.5236">
        <ele>236.14</ele>
        <time>2017-02-19T09:40:32Z</time>
      </trkpt>
      <trkpt lat="43.33337" lon="-0.5236">
        <ele>235.66</ele>
        <time>2017-02-19T09:40:34Z</time>
      </trkpt>
      <trkpt lat="43.33338" lon="-0.52363">
        <ele>234.7</ele>
        <time>2017-02-19T09:40:36Z</time>
      </trkpt>
      <trkpt lat="43.33339" lon="-0.52367">
        <ele>234.22</ele>
        <time>2017-02-19T09:40:37Z</time>
      </trkpt>
      <trkpt lat="43.33359" lon="-0.52422">
        <ele>229.41</ele>
        <time>2017-02-19T09:40:46Z</time>
      </trkpt>
      <trkpt lat="43.33374" lon="-0.52456">
        <ele>230.37</ele>
        <time>2017-02-19T09:40:57Z</time>
      </trkpt>
      <trkpt lat="43.33382" lon="-0.52494">
        <ele>225.09</ele>
        <time>2017-02-19T09:41:08Z</time>
      </trkpt>
      <trkpt lat="43.33383" lon="-0.52496">
        <ele>224.61</ele>
        <time>2017-02-19T09:41:09Z</time>
      </trkpt>
      <trkpt lat="43.33384" lon="-0.52498">
        <ele>224.61</ele>
        <time>2017-02-19T09:41:10Z</time>
      </trkpt>
      <trkpt lat="43.33386" lon="-0.52498">
        <ele>223.64</ele>
        <time>2017-02-19T09:41:11Z</time>
      </trkpt>
      <trkpt lat="43.33388" lon="-0.52499">
        <ele>223.16</ele>
        <time>2017-02-19T09:41:12Z</time>
      </trkpt>
      <trkpt lat="43.33394" lon="-0.52499">
        <ele>221.24</ele>
        <time>2017-02-19T09:41:15Z</time>
      </trkpt>
      <trkpt lat="43.33395" lon="-0.52497">
        <ele>220.28</ele>
        <time>2017-02-19T09:41:16Z</time>
      </trkpt>
      <trkpt lat="43.33397" lon="-0.52494">
        <ele>219.8</ele>
        <time>2017-02-19T09:41:17Z</time>
      </trkpt>
      <trkpt lat="43.33398" lon="-0.52493">
        <ele>218.84</ele>
        <time>2017-02-19T09:41:18Z</time>
      </trkpt>
      <trkpt lat="43.334" lon="-0.52493">
        <ele>218.36</ele>
        <time>2017-02-19T09:41:19Z</time>
      </trkpt>
      <trkpt lat="43.33401" lon="-0.52495">
        <ele>217.88</ele>
        <time>2017-02-19T09:41:20Z</time>
      </trkpt>
      <trkpt lat="43.33402" lon="-0.52498">
        <ele>217.4</ele>
        <time>2017-02-19T09:41:21Z</time>
      </trkpt>
      <trkpt lat="43.33404" lon="-0.52501">
        <ele>216.91</ele>
        <time>2017-02-19T09:41:22Z</time>
      </trkpt>
      <trkpt lat="43.33407" lon="-0.52503">
        <ele>216.43</ele>
        <time>2017-02-19T09:41:23Z</time>
      </trkpt>
      <trkpt lat="43.33411" lon="-0.52505">
        <ele>215.95</ele>
        <time>2017-02-19T09:41:24Z</time>
      </trkpt>
      <trkpt lat="43.33416" lon="-0.52506">
        <ele>214.51</ele>
        <time>2017-02-19T09:41:25Z</time>
      </trkpt>
      <trkpt lat="43.33421" lon="-0.52508">
        <ele>213.55</ele>
        <time>2017-02-19T09:41:26Z</time>
      </trkpt>
      <trkpt lat="43.33426" lon="-0.52509">
        <ele>213.07</ele>
        <time>2017-02-19T09:41:27Z</time>
      </trkpt>
      <trkpt lat="43.33432" lon="-0.5251">
        <ele>211.63</ele>
        <time>2017-02-19T09:41:28Z</time>
      </trkpt>
      <trkpt lat="43.33438" lon="-0.52509">
        <ele>210.67</ele>
        <time>2017-02-19T09:41:29Z</time>
      </trkpt>
      <trkpt lat="43.33443" lon="-0.52507">
        <ele>209.7</ele>
        <time>2017-02-19T09:41:30Z</time>
      </trkpt>
      <trkpt lat="43.33454" lon="-0.52502">
        <ele>207.78</ele>
        <time>2017-02-19T09:41:32Z</time>
      </trkpt>
      <trkpt lat="43.33458" lon="-0.52499">
        <ele>206.82</ele>
        <time>2017-02-19T09:41:33Z</time>
      </trkpt>
      <trkpt lat="43.33462" lon="-0.52496">
        <ele>205.38</ele>
        <time>2017-02-19T09:41:34Z</time>
      </trkpt>
      <trkpt lat="43.33465" lon="-0.52492">
        <ele>204.42</ele>
        <time>2017-02-19T09:41:35Z</time>
      </trkpt>
      <trkpt lat="43.33467" lon="-0.5249">
        <ele>203.46</ele>
        <time>2017-02-19T09:41:36Z</time>
      </trkpt>
      <trkpt lat="43.33469" lon="-0.52489">
        <ele>202.49</ele>
        <time>2017-02-19T09:41:37Z</time>
      </trkpt>
      <trkpt lat="43.33471" lon="-0.52488">
        <ele>202.01</ele>
        <time>2017-02-19T09:41:38Z</time>
      </trkpt>
      <trkpt lat="43.33473" lon="-0.52487">
        <ele>201.05</ele>
        <time>2017-02-19T09:41:39Z</time>
      </trkpt>
      <trkpt lat="43.33475" lon="-0.52486">
        <ele>200.09</ele>
        <time>2017-02-19T09:41:40Z</time>
      </trkpt>
      <trkpt lat="43.33478" lon="-0.52485">
        <ele>199.61</ele>
        <time>2017-02-19T09:41:41Z</time>
      </trkpt>
      <trkpt lat="43.3348" lon="-0.52486">
        <ele>199.13</ele>
        <time>2017-02-19T09:41:42Z</time>
      </trkpt>
      <trkpt lat="43.33483" lon="-0.52487">
        <ele>198.65</ele>
        <time>2017-02-19T09:41:43Z</time>
      </trkpt>
      <trkpt lat="43.33486" lon="-0.52487">
        <ele>198.17</ele>
        <time>2017-02-19T09:41:44Z</time>
      </trkpt>
      <trkpt lat="43.33489" lon="-0.52487">
        <ele>197.69</ele>
        <time>2017-02-19T09:41:45Z</time>
      </trkpt>
      <trkpt lat="43.33493" lon="-0.52486">
        <ele>197.21</ele>
        <time>2017-02-19T09:41:46Z</time>
      </trkpt>
      <trkpt lat="43.33509" lon="-0.52477">
        <ele>193.84</ele>
        <time>2017-02-19T09:41:51Z</time>
      </trkpt>
      <trkpt lat="43.33513" lon="-0.52476">
        <ele>193.36</ele>
        <time>2017-02-19T09:41:52Z</time>
      </trkpt>
      <trkpt lat="43.33517" lon="-0.52476">
        <ele>192.4</ele>
        <time>2017-02-19T09:41:53Z</time>
      </trkpt>
      <trkpt lat="43.33521" lon="-0.52476">
        <ele>191.92</ele>
        <time>2017-02-19T09:41:54Z</time>
      </trkpt>
      <trkpt lat="43.33524" lon="-0.52475">
        <ele>191.44</ele>
        <time>2017-02-19T09:41:55Z</time>
      </trkpt>
      <trkpt lat="43.33527" lon="-0.52475">
        <ele>190.96</ele>
        <time>2017-02-19T09:41:56Z</time>
      </trkpt>
      <trkpt lat="43.33529" lon="-0.52475">
        <ele>190.48</ele>
        <time>2017-02-19T09:41:57Z</time>
      </trkpt>
      <trkpt lat="43.33532" lon="-0.52478">
        <ele>190</ele>
        <time>2017-02-19T09:42:00Z</time>
      </trkpt>
      <trkpt lat="43.33546" lon="-0.52507">
        <ele>190.48</ele>
        <time>2017-02-19T09:42:10Z</time>
      </trkpt>
      <trkpt lat="43.33548" lon="-0.52572">
        <ele>191.44</ele>
        <time>2017-02-19T09:42:26Z</time>
      </trkpt>
      <trkpt lat="43.33521" lon="-0.52627">
        <ele>189.52</ele>
        <time>2017-02-19T09:42:39Z</time>
      </trkpt>
      <trkpt lat="43.33505" lon="-0.52658">
        <ele>190.96</ele>
        <time>2017-02-19T09:42:48Z</time>
      </trkpt>
      <trkpt lat="43.33504" lon="-0.5266">
        <ele>191.44</ele>
        <time>2017-02-19T09:42:49Z</time>
      </trkpt>
      <trkpt lat="43.33503" lon="-0.52661">
        <ele>191.44</ele>
        <time>2017-02-19T09:42:50Z</time>
      </trkpt>
      <trkpt lat="43.33501" lon="-0.52662">
        <ele>191.44</ele>
        <time>2017-02-19T09:42:51Z</time>
      </trkpt>
      <trkpt lat="43.335" lon="-0.52663">
        <ele>191.44</ele>
        <time>2017-02-19T09:42:52Z</time>
      </trkpt>
      <trkpt lat="43.33495" lon="-0.52666">
        <ele>191.92</ele>
        <time>2017-02-19T09:42:56Z</time>
      </trkpt>
      <trkpt lat="43.33494" lon="-0.52667">
        <ele>191.92</ele>
        <time>2017-02-19T09:42:57Z</time>
      </trkpt>
      <trkpt lat="43.33492" lon="-0.52669">
        <ele>192.4</ele>
        <time>2017-02-19T09:42:58Z</time>
      </trkpt>
      <trkpt lat="43.33491" lon="-0.5267">
        <ele>192.4</ele>
        <time>2017-02-19T09:42:59Z</time>
      </trkpt>
      <trkpt lat="43.3349" lon="-0.52672">
        <ele>192.4</ele>
        <time>2017-02-19T09:43:00Z</time>
      </trkpt>
      <trkpt lat="43.33489" lon="-0.52673">
        <ele>192.88</ele>
        <time>2017-02-19T09:43:01Z</time>
      </trkpt>
      <trkpt lat="43.33488" lon="-0.52675">
        <ele>192.88</ele>
        <time>2017-02-19T09:43:02Z</time>
      </trkpt>
      <trkpt lat="43.33486" lon="-0.52676">
        <ele>193.36</ele>
        <time>2017-02-19T09:43:03Z</time>
      </trkpt>
      <trkpt lat="43.33485" lon="-0.52678">
        <ele>193.84</ele>
        <time>2017-02-19T09:43:04Z</time>
      </trkpt>
      <trkpt lat="43.33484" lon="-0.5268">
        <ele>194.32</ele>
        <time>2017-02-19T09:43:05Z</time>
      </trkpt>
      <trkpt lat="43.33485" lon="-0.52693">
        <ele>194.8</ele>
        <time>2017-02-19T09:43:09Z</time>
      </trkpt>
      <trkpt lat="43.33482" lon="-0.527">
        <ele>194.32</ele>
        <time>2017-02-19T09:43:11Z</time>
      </trkpt>
      <trkpt lat="43.3348" lon="-0.52703">
        <ele>193.84</ele>
        <time>2017-02-19T09:43:12Z</time>
      </trkpt>
      <trkpt lat="43.33478" lon="-0.52705">
        <ele>193.36</ele>
        <time>2017-02-19T09:43:13Z</time>
      </trkpt>
      <trkpt lat="43.33476" lon="-0.52707">
        <ele>193.36</ele>
        <time>2017-02-19T09:43:14Z</time>
      </trkpt>
      <trkpt lat="43.33475" lon="-0.5271">
        <ele>193.36</ele>
        <time>2017-02-19T09:43:15Z</time>
      </trkpt>
      <trkpt lat="43.33475" lon="-0.52713">
        <ele>192.88</ele>
        <time>2017-02-19T09:43:16Z</time>
      </trkpt>
      <trkpt lat="43.33475" lon="-0.52716">
        <ele>192.88</ele>
        <time>2017-02-19T09:43:17Z</time>
      </trkpt>
      <trkpt lat="43.33475" lon="-0.52719">
        <ele>192.4</ele>
        <time>2017-02-19T09:43:18Z</time>
      </trkpt>
      <trkpt lat="43.33476" lon="-0.52733">
        <ele>190</ele>
        <time>2017-02-19T09:43:23Z</time>
      </trkpt>
      <trkpt lat="43.33469" lon="-0.52768">
        <ele>185.19</ele>
        <time>2017-02-19T09:43:33Z</time>
      </trkpt>
      <trkpt lat="43.33459" lon="-0.52782">
        <ele>181.35</ele>
        <time>2017-02-19T09:43:39Z</time>
      </trkpt>
      <trkpt lat="43.3346" lon="-0.52794">
        <ele>179.42</ele>
        <time>2017-02-19T09:43:42Z</time>
      </trkpt>
      <trkpt lat="43.33463" lon="-0.52809">
        <ele>176.06</ele>
        <time>2017-02-19T09:43:46Z</time>
      </trkpt>
      <trkpt lat="43.33481" lon="-0.52824">
        <ele>171.73</ele>
        <time>2017-02-19T09:43:54Z</time>
      </trkpt>
      <trkpt lat="43.33481" lon="-0.52828">
        <ele>170.77</ele>
        <time>2017-02-19T09:43:56Z</time>
      </trkpt>
      <trkpt lat="43.33492" lon="-0.52856">
        <ele>169.33</ele>
        <time>2017-02-19T09:44:05Z</time>
      </trkpt>
      <trkpt lat="43.33497" lon="-0.52863">
        <ele>167.89</ele>
        <time>2017-02-19T09:44:15Z</time>
      </trkpt>
      <trkpt lat="43.33502" lon="-0.52871">
        <ele>166.93</ele>
        <time>2017-02-19T09:44:25Z</time>
      </trkpt>
      <trkpt lat="43.33512" lon="-0.52888">
        <ele>165.96</ele>
        <time>2017-02-19T09:44:34Z</time>
      </trkpt>
      <trkpt lat="43.33521" lon="-0.52911">
        <ele>167.41</ele>
        <time>2017-02-19T09:44:40Z</time>
      </trkpt>
      <trkpt lat="43.33537" lon="-0.52914">
        <ele>161.64</ele>
        <time>2017-02-19T09:44:49Z</time>
      </trkpt>
      <trkpt lat="43.33546" lon="-0.52912">
        <ele>157.31</ele>
        <time>2017-02-19T09:45:00Z</time>
      </trkpt>
      <trkpt lat="43.33552" lon="-0.5291">
        <ele>154.91</ele>
        <time>2017-02-19T09:45:11Z</time>
      </trkpt>
      <trkpt lat="43.33557" lon="-0.52917">
        <ele>155.39</ele>
        <time>2017-02-19T09:45:16Z</time>
      </trkpt>
      <trkpt lat="43.3356" lon="-0.52926">
        <ele>155.87</ele>
        <time>2017-02-19T09:45:20Z</time>
      </trkpt>
      <trkpt lat="43.33585" lon="-0.52951">
        <ele>151.06</ele>
        <time>2017-02-19T09:45:30Z</time>
      </trkpt>
      <trkpt lat="43.33614" lon="-0.52972">
        <ele>145.3</ele>
        <time>2017-02-19T09:45:42Z</time>
      </trkpt>
      <trkpt lat="43.33613" lon="-0.52977">
        <ele>143.85</ele>
        <time>2017-02-19T09:45:53Z</time>
      </trkpt>
      <trkpt lat="43.33614" lon="-0.52983">
        <ele>142.89</ele>
        <time>2017-02-19T09:46:00Z</time>
      </trkpt>
      <trkpt lat="43.33606" lon="-0.53011">
        <ele>138.09</ele>
        <time>2017-02-19T09:46:14Z</time>
      </trkpt>
      <trkpt lat="43.33593" lon="-0.53029">
        <ele>137.61</ele>
        <time>2017-02-19T09:46:24Z</time>
      </trkpt>
      <trkpt lat="43.33585" lon="-0.5303">
        <ele>137.61</ele>
        <time>2017-02-19T09:46:28Z</time>
      </trkpt>
      <trkpt lat="43.33574" lon="-0.53042">
        <ele>136.64</ele>
        <time>2017-02-19T09:46:35Z</time>
      </trkpt>
      <trkpt lat="43.33566" lon="-0.53059">
        <ele>133.76</ele>
        <time>2017-02-19T09:46:42Z</time>
      </trkpt>
      <trkpt lat="43.33548" lon="-0.53083">
        <ele>130.88</ele>
        <time>2017-02-19T09:46:53Z</time>
      </trkpt>
      <trkpt lat="43.33542" lon="-0.53088">
        <ele>130.4</ele>
        <time>2017-02-19T09:46:58Z</time>
      </trkpt>
      <trkpt lat="43.33528" lon="-0.53108">
        <ele>128.95</ele>
        <time>2017-02-19T09:47:09Z</time>
      </trkpt>
      <trkpt lat="43.33524" lon="-0.53114">
        <ele>127.99</ele>
        <time>2017-02-19T09:47:12Z</time>
      </trkpt>
      <trkpt lat="43.33515" lon="-0.53125">
        <ele>125.59</ele>
        <time>2017-02-19T09:47:18Z</time>
      </trkpt>
      <trkpt lat="43.33492" lon="-0.53152">
        <ele>125.11</ele>
        <time>2017-02-19T09:47:31Z</time>
      </trkpt>
      <trkpt lat="43.3349" lon="-0.53154">
        <ele>125.59</ele>
        <time>2017-02-19T09:47:32Z</time>
      </trkpt>
      <trkpt lat="43.3349" lon="-0.53163">
        <ele>126.07</ele>
        <time>2017-02-19T09:47:35Z</time>
      </trkpt>
      <trkpt lat="43.33478" lon="-0.53182">
        <ele>125.59</ele>
        <time>2017-02-19T09:47:44Z</time>
      </trkpt>
      <trkpt lat="43.33481" lon="-0.53193">
        <ele>129.43</ele>
        <time>2017-02-19T09:47:56Z</time>
      </trkpt>
      <trkpt lat="43.33483" lon="-0.53195">
        <ele>130.88</ele>
        <time>2017-02-19T09:48:07Z</time>
      </trkpt>
      <trkpt lat="43.33482" lon="-0.53203">
        <ele>130.88</ele>
        <time>2017-02-19T09:48:10Z</time>
      </trkpt>
      <trkpt lat="43.33481" lon="-0.53206">
        <ele>130.88</ele>
        <time>2017-02-19T09:48:11Z</time>
      </trkpt>
      <trkpt lat="43.33479" lon="-0.53209">
        <ele>130.88</ele>
        <time>2017-02-19T09:48:12Z</time>
      </trkpt>
      <trkpt lat="43.33477" lon="-0.53213">
        <ele>130.88</ele>
        <time>2017-02-19T09:48:13Z</time>
      </trkpt>
      <trkpt lat="43.33475" lon="-0.53216">
        <ele>130.4</ele>
        <time>2017-02-19T09:48:14Z</time>
      </trkpt>
      <trkpt lat="43.3343" lon="-0.53272">
        <ele>127.03</ele>
        <time>2017-02-19T09:48:30Z</time>
      </trkpt>
      <trkpt lat="43.33373" lon="-0.53346">
        <ele>124.63</ele>
        <time>2017-02-19T09:48:46Z</time>
      </trkpt>
      <trkpt lat="43.33369" lon="-0.53351">
        <ele>124.63</ele>
        <time>2017-02-19T09:48:47Z</time>
      </trkpt>
      <trkpt lat="43.33362" lon="-0.53362">
        <ele>124.15</ele>
        <time>2017-02-19T09:48:49Z</time>
      </trkpt>
      <trkpt lat="43.3336" lon="-0.53369">
        <ele>124.15</ele>
        <time>2017-02-19T09:48:50Z</time>
      </trkpt>
      <trkpt lat="43.33361" lon="-0.53375">
        <ele>123.67</ele>
        <time>2017-02-19T09:48:51Z</time>
      </trkpt>
      <trkpt lat="43.33363" lon="-0.53382">
        <ele>123.67</ele>
        <time>2017-02-19T09:48:52Z</time>
      </trkpt>
      <trkpt lat="43.33364" lon="-0.53386">
        <ele>123.67</ele>
        <time>2017-02-19T09:48:53Z</time>
      </trkpt>
      <trkpt lat="43.33375" lon="-0.53411">
        <ele>122.71</ele>
        <time>2017-02-19T09:48:58Z</time>
      </trkpt>
      <trkpt lat="43.33417" lon="-0.53453">
        <ele>121.26</ele>
        <time>2017-02-19T09:49:11Z</time>
      </trkpt>
      <trkpt lat="43.33421" lon="-0.53456">
        <ele>121.26</ele>
        <time>2017-02-19T09:49:12Z</time>
      </trkpt>
      <trkpt lat="43.33434" lon="-0.53464">
        <ele>121.74</ele>
        <time>2017-02-19T09:49:15Z</time>
      </trkpt>
      <trkpt lat="43.33439" lon="-0.53466">
        <ele>121.74</ele>
        <time>2017-02-19T09:49:16Z</time>
      </trkpt>
      <trkpt lat="43.33454" lon="-0.53473">
        <ele>122.22</ele>
        <time>2017-02-19T09:49:19Z</time>
      </trkpt>
      <trkpt lat="43.3346" lon="-0.53475">
        <ele>122.22</ele>
        <time>2017-02-19T09:49:20Z</time>
      </trkpt>
      <trkpt lat="43.33465" lon="-0.53477">
        <ele>122.22</ele>
        <time>2017-02-19T09:49:21Z</time>
      </trkpt>
      <trkpt lat="43.33552" lon="-0.53507">
        <ele>121.26</ele>
        <time>2017-02-19T09:49:35Z</time>
      </trkpt>
      <trkpt lat="43.33602" lon="-0.53526">
        <ele>119.34</ele>
        <time>2017-02-19T09:49:43Z</time>
      </trkpt>
      <trkpt lat="43.33653" lon="-0.53579">
        <ele>119.82</ele>
        <time>2017-02-19T09:49:53Z</time>
      </trkpt>
      <trkpt lat="43.33718" lon="-0.53692">
        <ele>119.82</ele>
        <time>2017-02-19T09:50:09Z</time>
      </trkpt>
      <trkpt lat="43.33783" lon="-0.53784">
        <ele>120.3</ele>
        <time>2017-02-19T09:50:24Z</time>
      </trkpt>
      <trkpt lat="43.33791" lon="-0.53802">
        <ele>120.78</ele>
        <time>2017-02-19T09:50:27Z</time>
      </trkpt>
      <trkpt lat="43.33794" lon="-0.53808">
        <ele>120.78</ele>
        <time>2017-02-19T09:50:28Z</time>
      </trkpt>
      <trkpt lat="43.33806" lon="-0.53829">
        <ele>119.34</ele>
        <time>2017-02-19T09:50:32Z</time>
      </trkpt>
      <trkpt lat="43.33858" lon="-0.53883">
        <ele>117.42</ele>
        <time>2017-02-19T09:50:45Z</time>
      </trkpt>
      <trkpt lat="43.33924" lon="-0.53919">
        <ele>121.26</ele>
        <time>2017-02-19T09:50:58Z</time>
      </trkpt>
      <trkpt lat="43.33941" lon="-0.53932">
        <ele>122.22</ele>
        <time>2017-02-19T09:51:02Z</time>
      </trkpt>
      <trkpt lat="43.33945" lon="-0.53936">
        <ele>122.71</ele>
        <time>2017-02-19T09:51:03Z</time>
      </trkpt>
      <trkpt lat="43.33949" lon="-0.5394">
        <ele>123.19</ele>
        <time>2017-02-19T09:51:04Z</time>
      </trkpt>
      <trkpt lat="43.33957" lon="-0.53946">
        <ele>124.15</ele>
        <time>2017-02-19T09:51:06Z</time>
      </trkpt>
      <trkpt lat="43.33972" lon="-0.5396">
        <ele>125.59</ele>
        <time>2017-02-19T09:51:10Z</time>
      </trkpt>
      <trkpt lat="43.33975" lon="-0.53963">
        <ele>125.59</ele>
        <time>2017-02-19T09:51:11Z</time>
      </trkpt>
      <trkpt lat="43.33979" lon="-0.53966">
        <ele>126.07</ele>
        <time>2017-02-19T09:51:12Z</time>
      </trkpt>
      <trkpt lat="43.33991" lon="-0.53974">
        <ele>127.03</ele>
        <time>2017-02-19T09:51:15Z</time>
      </trkpt>
      <trkpt lat="43.3401" lon="-0.5399">
        <ele>128.95</ele>
        <time>2017-02-19T09:51:20Z</time>
      </trkpt>
      <trkpt lat="43.34033" lon="-0.54018">
        <ele>129.92</ele>
        <time>2017-02-19T09:51:27Z</time>
      </trkpt>
      <trkpt lat="43.34075" lon="-0.54081">
        <ele>130.88</ele>
        <time>2017-02-19T09:51:39Z</time>
      </trkpt>
      <trkpt lat="43.34078" lon="-0.54086">
        <ele>130.88</ele>
        <time>2017-02-19T09:51:40Z</time>
      </trkpt>
      <trkpt lat="43.34112" lon="-0.54134">
        <ele>129.43</ele>
        <time>2017-02-19T09:51:52Z</time>
      </trkpt>
      <trkpt lat="43.34173" lon="-0.54192">
        <ele>125.59</ele>
        <time>2017-02-19T09:52:03Z</time>
      </trkpt>
      <trkpt lat="43.34248" lon="-0.54243">
        <ele>125.59</ele>
        <time>2017-02-19T09:52:16Z</time>
      </trkpt>
      <trkpt lat="43.34273" lon="-0.5428">
        <ele>128.95</ele>
        <time>2017-02-19T09:52:23Z</time>
      </trkpt>
      <trkpt lat="43.34276" lon="-0.54284">
        <ele>129.43</ele>
        <time>2017-02-19T09:52:24Z</time>
      </trkpt>
      <trkpt lat="43.34294" lon="-0.54317">
        <ele>131.36</ele>
        <time>2017-02-19T09:52:31Z</time>
      </trkpt>
      <trkpt lat="43.34311" lon="-0.54359">
        <ele>130.88</ele>
        <time>2017-02-19T09:52:38Z</time>
      </trkpt>
      <trkpt lat="43.34313" lon="-0.54366">
        <ele>130.88</ele>
        <time>2017-02-19T09:52:39Z</time>
      </trkpt>
      <trkpt lat="43.34327" lon="-0.54415">
        <ele>129.43</ele>
        <time>2017-02-19T09:52:45Z</time>
      </trkpt>
      <trkpt lat="43.34331" lon="-0.54422">
        <ele>128.95</ele>
        <time>2017-02-19T09:52:46Z</time>
      </trkpt>
      <trkpt lat="43.34335" lon="-0.54429">
        <ele>128.95</ele>
        <time>2017-02-19T09:52:47Z</time>
      </trkpt>
      <trkpt lat="43.3434" lon="-0.54436">
        <ele>128.47</ele>
        <time>2017-02-19T09:52:48Z</time>
      </trkpt>
      <trkpt lat="43.34345" lon="-0.54442">
        <ele>128.47</ele>
        <time>2017-02-19T09:52:49Z</time>
      </trkpt>
      <trkpt lat="43.34418" lon="-0.54503">
        <ele>129.43</ele>
        <time>2017-02-19T09:53:03Z</time>
      </trkpt>
      <trkpt lat="43.3444" lon="-0.54506">
        <ele>129.43</ele>
        <time>2017-02-19T09:53:07Z</time>
      </trkpt>
      <trkpt lat="43.34447" lon="-0.54508">
        <ele>128.95</ele>
        <time>2017-02-19T09:53:08Z</time>
      </trkpt>
      <trkpt lat="43.34507" lon="-0.5454">
        <ele>127.51</ele>
        <time>2017-02-19T09:53:21Z</time>
      </trkpt>
      <trkpt lat="43.34519" lon="-0.54547">
        <ele>127.99</ele>
        <time>2017-02-19T09:53:24Z</time>
      </trkpt>
      <trkpt lat="43.34524" lon="-0.54548">
        <ele>128.47</ele>
        <time>2017-02-19T09:53:25Z</time>
      </trkpt>
      <trkpt lat="43.34529" lon="-0.54549">
        <ele>128.47</ele>
        <time>2017-02-19T09:53:26Z</time>
      </trkpt>
      <trkpt lat="43.34534" lon="-0.54548">
        <ele>128.95</ele>
        <time>2017-02-19T09:53:27Z</time>
      </trkpt>
      <trkpt lat="43.34539" lon="-0.54547">
        <ele>128.95</ele>
        <time>2017-02-19T09:53:28Z</time>
      </trkpt>
      <trkpt lat="43.34544" lon="-0.54546">
        <ele>129.43</ele>
        <time>2017-02-19T09:53:29Z</time>
      </trkpt>
      <trkpt lat="43.34548" lon="-0.54544">
        <ele>129.43</ele>
        <time>2017-02-19T09:53:30Z</time>
      </trkpt>
      <trkpt lat="43.34553" lon="-0.54543">
        <ele>129.43</ele>
        <time>2017-02-19T09:53:31Z</time>
      </trkpt>
      <trkpt lat="43.34559" lon="-0.54543">
        <ele>129.43</ele>
        <time>2017-02-19T09:53:32Z</time>
      </trkpt>
      <trkpt lat="43.34564" lon="-0.54544">
        <ele>129.43</ele>
        <time>2017-02-19T09:53:33Z</time>
      </trkpt>
      <trkpt lat="43.34569" lon="-0.54546">
        <ele>129.43</ele>
        <time>2017-02-19T09:53:34Z</time>
      </trkpt>
      <trkpt lat="43.34574" lon="-0.5455">
        <ele>129.43</ele>
        <time>2017-02-19T09:53:35Z</time>
      </trkpt>
      <trkpt lat="43.34578" lon="-0.54556">
        <ele>129.43</ele>
        <time>2017-02-19T09:53:36Z</time>
      </trkpt>
      <trkpt lat="43.34581" lon="-0.54561">
        <ele>128.95</ele>
        <time>2017-02-19T09:53:37Z</time>
      </trkpt>
      <trkpt lat="43.34584" lon="-0.54567">
        <ele>128.95</ele>
        <time>2017-02-19T09:53:38Z</time>
      </trkpt>
      <trkpt lat="43.34587" lon="-0.54575">
        <ele>128.95</ele>
        <time>2017-02-19T09:53:39Z</time>
      </trkpt>
      <trkpt lat="43.34589" lon="-0.54582">
        <ele>128.95</ele>
        <time>2017-02-19T09:53:40Z</time>
      </trkpt>
      <trkpt lat="43.34612" lon="-0.54657">
        <ele>128.95</ele>
        <time>2017-02-19T09:53:52Z</time>
      </trkpt>
      <trkpt lat="43.34643" lon="-0.54667">
        <ele>130.4</ele>
        <time>2017-02-19T09:54:02Z</time>
      </trkpt>
      <trkpt lat="43.34675" lon="-0.54689">
        <ele>128.95</ele>
        <time>2017-02-19T09:54:11Z</time>
      </trkpt>
      <trkpt lat="43.34694" lon="-0.54704">
        <ele>128.47</ele>
        <time>2017-02-19T09:54:15Z</time>
      </trkpt>
      <trkpt lat="43.34699" lon="-0.54708">
        <ele>128.47</ele>
        <time>2017-02-19T09:54:16Z</time>
      </trkpt>
      <trkpt lat="43.34735" lon="-0.54735">
        <ele>128.95</ele>
        <time>2017-02-19T09:54:24Z</time>
      </trkpt>
      <trkpt lat="43.34739" lon="-0.54739">
        <ele>128.95</ele>
        <time>2017-02-19T09:54:25Z</time>
      </trkpt>
      <trkpt lat="43.34758" lon="-0.54764">
        <ele>129.92</ele>
        <time>2017-02-19T09:54:30Z</time>
      </trkpt>
      <trkpt lat="43.34817" lon="-0.5484">
        <ele>127.03</ele>
        <time>2017-02-19T09:54:41Z</time>
      </trkpt>
      <trkpt lat="43.34822" lon="-0.54847">
        <ele>127.03</ele>
        <time>2017-02-19T09:54:42Z</time>
      </trkpt>
      <trkpt lat="43.34842" lon="-0.54879">
        <ele>127.51</ele>
        <time>2017-02-19T09:54:48Z</time>
      </trkpt>
      <trkpt lat="43.34846" lon="-0.54882">
        <ele>127.51</ele>
        <time>2017-02-19T09:54:49Z</time>
      </trkpt>
      <trkpt lat="43.3485" lon="-0.54884">
        <ele>127.99</ele>
        <time>2017-02-19T09:54:50Z</time>
      </trkpt>
      <trkpt lat="43.34854" lon="-0.54886">
        <ele>127.99</ele>
        <time>2017-02-19T09:54:51Z</time>
      </trkpt>
      <trkpt lat="43.34859" lon="-0.54887">
        <ele>127.99</ele>
        <time>2017-02-19T09:54:52Z</time>
      </trkpt>
      <trkpt lat="43.34864" lon="-0.54888">
        <ele>128.47</ele>
        <time>2017-02-19T09:54:53Z</time>
      </trkpt>
      <trkpt lat="43.34869" lon="-0.54889">
        <ele>128.47</ele>
        <time>2017-02-19T09:54:54Z</time>
      </trkpt>
      <trkpt lat="43.34929" lon="-0.54916">
        <ele>129.43</ele>
        <time>2017-02-19T09:55:07Z</time>
      </trkpt>
      <trkpt lat="43.34944" lon="-0.54933">
        <ele>128.95</ele>
        <time>2017-02-19T09:55:11Z</time>
      </trkpt>
      <trkpt lat="43.34948" lon="-0.54938">
        <ele>128.47</ele>
        <time>2017-02-19T09:55:12Z</time>
      </trkpt>
      <trkpt lat="43.34995" lon="-0.55017">
        <ele>124.63</ele>
        <time>2017-02-19T09:55:23Z</time>
      </trkpt>
      <trkpt lat="43.35008" lon="-0.55035">
        <ele>124.15</ele>
        <time>2017-02-19T09:55:26Z</time>
      </trkpt>
      <trkpt lat="43.3504" lon="-0.5507">
        <ele>124.15</ele>
        <time>2017-02-19T09:55:33Z</time>
      </trkpt>
      <trkpt lat="43.35045" lon="-0.55073">
        <ele>124.15</ele>
        <time>2017-02-19T09:55:34Z</time>
      </trkpt>
      <trkpt lat="43.3511" lon="-0.55109">
        <ele>125.59</ele>
        <time>2017-02-19T09:55:49Z</time>
      </trkpt>
      <trkpt lat="43.35123" lon="-0.55113">
        <ele>126.55</ele>
        <time>2017-02-19T09:55:59Z</time>
      </trkpt>
      <trkpt lat="43.35146" lon="-0.55124">
        <ele>126.07</ele>
        <time>2017-02-19T09:56:08Z</time>
      </trkpt>
      <trkpt lat="43.35178" lon="-0.55163">
        <ele>124.15</ele>
        <time>2017-02-19T09:56:19Z</time>
      </trkpt>
      <trkpt lat="43.35187" lon="-0.55177">
        <ele>123.67</ele>
        <time>2017-02-19T09:56:22Z</time>
      </trkpt>
      <trkpt lat="43.35191" lon="-0.55182">
        <ele>123.67</ele>
        <time>2017-02-19T09:56:23Z</time>
      </trkpt>
      <trkpt lat="43.35194" lon="-0.55187">
        <ele>123.19</ele>
        <time>2017-02-19T09:56:24Z</time>
      </trkpt>
      <trkpt lat="43.35219" lon="-0.55245">
        <ele>121.74</ele>
        <time>2017-02-19T09:56:34Z</time>
      </trkpt>
      <trkpt lat="43.3522" lon="-0.55251">
        <ele>121.74</ele>
        <time>2017-02-19T09:56:35Z</time>
      </trkpt>
      <trkpt lat="43.35221" lon="-0.55257">
        <ele>121.74</ele>
        <time>2017-02-19T09:56:36Z</time>
      </trkpt>
      <trkpt lat="43.35221" lon="-0.55292">
        <ele>120.78</ele>
        <time>2017-02-19T09:56:42Z</time>
      </trkpt>
    </trkseg>
  </trk>
</gpx>